<?xml version="1.0" encoding="UTF-8" standalone="no" ?>
<gpx xmlns="http://www.topografix.com/GPX/1/1" xmlns:xsi="http://www.w3.org/2001/XMLSchema-instance" xsi:schemaLocation="http://www.topografix.com/GPX/1/1 http://www.topografix.com/GPX/1/1/gpx.xsd" version="1.1" creator="VisuGPX - https://www.visugpx.com">
  <metadata>
    <name>PerrosPlougasnou53</name>
  </metadata>
  <trk>
    <name><![CDATA[PerrosPlougasnou53_1]]></name>
    <extensions>
      <line xmlns="http://www.topografix.com/GPX/gpx_style/0/2">
        <color>0000FF</color>
        <width>2</width>
      </line>
    </extensions>
    <trkseg>
      <trkpt lat="48.83169" lon="-3.48516">
        <ele>9</ele>
        <time>2021-04-26T07:50:42.000Z</time>
      </trkpt>
      <trkpt lat="48.83141" lon="-3.48526">
        <ele>9</ele>
        <time>2021-04-26T07:50:47.000Z</time>
      </trkpt>
      <trkpt lat="48.83138" lon="-3.48525">
        <ele>9</ele>
        <time>2021-04-26T07:50:48.000Z</time>
      </trkpt>
      <trkpt lat="48.8313" lon="-3.48495">
        <ele>9</ele>
        <time>2021-04-26T07:50:51.000Z</time>
      </trkpt>
      <trkpt lat="48.83112" lon="-3.48493">
        <ele>10</ele>
        <time>2021-04-26T07:50:55.000Z</time>
      </trkpt>
      <trkpt lat="48.831" lon="-3.48523">
        <ele>10</ele>
        <time>2021-04-26T07:50:59.000Z</time>
      </trkpt>
      <trkpt lat="48.83093" lon="-3.48533">
        <ele>10</ele>
        <time>2021-04-26T07:51:00.000Z</time>
      </trkpt>
      <trkpt lat="48.83082" lon="-3.48519">
        <ele>10</ele>
        <time>2021-04-26T07:51:03.000Z</time>
      </trkpt>
      <trkpt lat="48.83077" lon="-3.48511">
        <ele>10</ele>
        <time>2021-04-26T07:51:04.000Z</time>
      </trkpt>
      <trkpt lat="48.83076" lon="-3.48484">
        <ele>10</ele>
        <time>2021-04-26T07:51:08.000Z</time>
      </trkpt>
      <trkpt lat="48.83061" lon="-3.48471">
        <ele>10</ele>
        <time>2021-04-26T07:51:11.000Z</time>
      </trkpt>
      <trkpt lat="48.83022" lon="-3.48458">
        <ele>10</ele>
        <time>2021-04-26T07:51:18.000Z</time>
      </trkpt>
      <trkpt lat="48.82961" lon="-3.48425">
        <ele>10</ele>
        <time>2021-04-26T07:51:29.000Z</time>
      </trkpt>
      <trkpt lat="48.82934" lon="-3.48416">
        <ele>9</ele>
        <time>2021-04-26T07:51:34.000Z</time>
      </trkpt>
      <trkpt lat="48.82908" lon="-3.48411">
        <ele>8</ele>
        <time>2021-04-26T07:51:39.000Z</time>
      </trkpt>
      <trkpt lat="48.82889" lon="-3.48403">
        <ele>9</ele>
        <time>2021-04-26T07:51:42.000Z</time>
      </trkpt>
      <trkpt lat="48.82839" lon="-3.48374">
        <ele>12</ele>
        <time>2021-04-26T07:51:52.000Z</time>
      </trkpt>
      <trkpt lat="48.82781" lon="-3.48347">
        <ele>15</ele>
        <time>2021-04-26T07:52:03.000Z</time>
      </trkpt>
      <trkpt lat="48.82771" lon="-3.4834">
        <ele>16</ele>
        <time>2021-04-26T07:52:05.000Z</time>
      </trkpt>
      <trkpt lat="48.82745" lon="-3.48316">
        <ele>17</ele>
        <time>2021-04-26T07:52:10.000Z</time>
      </trkpt>
      <trkpt lat="48.82734" lon="-3.48304">
        <ele>17</ele>
        <time>2021-04-26T07:52:12.000Z</time>
      </trkpt>
      <trkpt lat="48.82707" lon="-3.48263">
        <ele>17</ele>
        <time>2021-04-26T07:52:19.000Z</time>
      </trkpt>
      <trkpt lat="48.82652" lon="-3.48213">
        <ele>16</ele>
        <time>2021-04-26T07:52:31.000Z</time>
      </trkpt>
      <trkpt lat="48.82639" lon="-3.48197">
        <ele>16</ele>
        <time>2021-04-26T07:52:34.000Z</time>
      </trkpt>
      <trkpt lat="48.82593" lon="-3.48137">
        <ele>18</ele>
        <time>2021-04-26T07:52:44.000Z</time>
      </trkpt>
      <trkpt lat="48.82581" lon="-3.48126">
        <ele>18</ele>
        <time>2021-04-26T07:52:47.000Z</time>
      </trkpt>
      <trkpt lat="48.82466" lon="-3.48032">
        <ele>21</ele>
        <time>2021-04-26T07:53:10.000Z</time>
      </trkpt>
      <trkpt lat="48.82435" lon="-3.48005">
        <ele>20</ele>
        <time>2021-04-26T07:53:16.000Z</time>
      </trkpt>
      <trkpt lat="48.82424" lon="-3.47993">
        <ele>20</ele>
        <time>2021-04-26T07:53:19.000Z</time>
      </trkpt>
      <trkpt lat="48.82411" lon="-3.47993">
        <ele>20</ele>
        <time>2021-04-26T07:53:21.000Z</time>
      </trkpt>
      <trkpt lat="48.82408" lon="-3.47993">
        <ele>20</ele>
        <time>2021-04-26T07:53:22.000Z</time>
      </trkpt>
      <trkpt lat="48.82398" lon="-3.47993">
        <ele>20</ele>
        <time>2021-04-26T07:53:23.000Z</time>
      </trkpt>
      <trkpt lat="48.82388" lon="-3.47988">
        <ele>21</ele>
        <time>2021-04-26T07:53:25.000Z</time>
      </trkpt>
      <trkpt lat="48.82383" lon="-3.47985">
        <ele>21</ele>
        <time>2021-04-26T07:53:26.000Z</time>
      </trkpt>
      <trkpt lat="48.82372" lon="-3.47981">
        <ele>21</ele>
        <time>2021-04-26T07:53:28.000Z</time>
      </trkpt>
      <trkpt lat="48.82345" lon="-3.47899">
        <ele>24</ele>
        <time>2021-04-26T07:53:39.000Z</time>
      </trkpt>
      <trkpt lat="48.82341" lon="-3.47891">
        <ele>24</ele>
        <time>2021-04-26T07:53:40.000Z</time>
      </trkpt>
      <trkpt lat="48.82328" lon="-3.47875">
        <ele>25</ele>
        <time>2021-04-26T07:53:43.000Z</time>
      </trkpt>
      <trkpt lat="48.82319" lon="-3.47866">
        <ele>26</ele>
        <time>2021-04-26T07:53:45.000Z</time>
      </trkpt>
      <trkpt lat="48.82311" lon="-3.47857">
        <ele>26</ele>
        <time>2021-04-26T07:53:47.000Z</time>
      </trkpt>
      <trkpt lat="48.82279" lon="-3.47821">
        <ele>28</ele>
        <time>2021-04-26T07:53:54.000Z</time>
      </trkpt>
      <trkpt lat="48.82252" lon="-3.47792">
        <ele>30</ele>
        <time>2021-04-26T07:54:00.000Z</time>
      </trkpt>
      <trkpt lat="48.82234" lon="-3.47772">
        <ele>31</ele>
        <time>2021-04-26T07:54:04.000Z</time>
      </trkpt>
      <trkpt lat="48.82226" lon="-3.47764">
        <ele>32</ele>
        <time>2021-04-26T07:54:06.000Z</time>
      </trkpt>
      <trkpt lat="48.82222" lon="-3.47759">
        <ele>32</ele>
        <time>2021-04-26T07:54:06.000Z</time>
      </trkpt>
      <trkpt lat="48.82152" lon="-3.47681">
        <ele>36</ele>
        <time>2021-04-26T07:54:22.000Z</time>
      </trkpt>
      <trkpt lat="48.82103" lon="-3.47656">
        <ele>38</ele>
        <time>2021-04-26T07:54:31.000Z</time>
      </trkpt>
      <trkpt lat="48.82092" lon="-3.4765">
        <ele>39</ele>
        <time>2021-04-26T07:54:33.000Z</time>
      </trkpt>
      <trkpt lat="48.82044" lon="-3.47628">
        <ele>40</ele>
        <time>2021-04-26T07:54:42.000Z</time>
      </trkpt>
      <trkpt lat="48.82035" lon="-3.4762">
        <ele>40</ele>
        <time>2021-04-26T07:54:44.000Z</time>
      </trkpt>
      <trkpt lat="48.82011" lon="-3.47636">
        <ele>41</ele>
        <time>2021-04-26T07:54:49.000Z</time>
      </trkpt>
      <trkpt lat="48.81947" lon="-3.47647">
        <ele>40</ele>
        <time>2021-04-26T07:55:00.000Z</time>
      </trkpt>
      <trkpt lat="48.81931" lon="-3.47646">
        <ele>40</ele>
        <time>2021-04-26T07:55:03.000Z</time>
      </trkpt>
      <trkpt lat="48.81919" lon="-3.47649">
        <ele>40</ele>
        <time>2021-04-26T07:55:05.000Z</time>
      </trkpt>
      <trkpt lat="48.8186" lon="-3.47675">
        <ele>40</ele>
        <time>2021-04-26T07:55:16.000Z</time>
      </trkpt>
      <trkpt lat="48.81849" lon="-3.47678">
        <ele>40</ele>
        <time>2021-04-26T07:55:18.000Z</time>
      </trkpt>
      <trkpt lat="48.81831" lon="-3.47678">
        <ele>40</ele>
        <time>2021-04-26T07:55:21.000Z</time>
      </trkpt>
      <trkpt lat="48.81805" lon="-3.47675">
        <ele>40</ele>
        <time>2021-04-26T07:55:26.000Z</time>
      </trkpt>
      <trkpt lat="48.81764" lon="-3.47662">
        <ele>42</ele>
        <time>2021-04-26T07:55:33.000Z</time>
      </trkpt>
      <trkpt lat="48.81747" lon="-3.47653">
        <ele>43</ele>
        <time>2021-04-26T07:55:37.000Z</time>
      </trkpt>
      <trkpt lat="48.81712" lon="-3.47628">
        <ele>46</ele>
        <time>2021-04-26T07:55:43.000Z</time>
      </trkpt>
      <trkpt lat="48.81687" lon="-3.47605">
        <ele>48</ele>
        <time>2021-04-26T07:55:49.000Z</time>
      </trkpt>
      <trkpt lat="48.81645" lon="-3.4758">
        <ele>52</ele>
        <time>2021-04-26T07:55:57.000Z</time>
      </trkpt>
      <trkpt lat="48.81571" lon="-3.4754">
        <ele>57</ele>
        <time>2021-04-26T07:56:11.000Z</time>
      </trkpt>
      <trkpt lat="48.81536" lon="-3.47527">
        <ele>59</ele>
        <time>2021-04-26T07:56:17.000Z</time>
      </trkpt>
      <trkpt lat="48.8152" lon="-3.4753">
        <ele>60</ele>
        <time>2021-04-26T07:56:20.000Z</time>
      </trkpt>
      <trkpt lat="48.81429" lon="-3.47521">
        <ele>65</ele>
        <time>2021-04-26T07:56:36.000Z</time>
      </trkpt>
      <trkpt lat="48.81324" lon="-3.47498">
        <ele>69</ele>
        <time>2021-04-26T07:56:55.000Z</time>
      </trkpt>
      <trkpt lat="48.81297" lon="-3.47489">
        <ele>71</ele>
        <time>2021-04-26T07:57:00.000Z</time>
      </trkpt>
      <trkpt lat="48.81274" lon="-3.47461">
        <ele>71</ele>
        <time>2021-04-26T07:57:05.000Z</time>
      </trkpt>
      <trkpt lat="48.81266" lon="-3.47459">
        <ele>72</ele>
        <time>2021-04-26T07:57:07.000Z</time>
      </trkpt>
      <trkpt lat="48.81225" lon="-3.47488">
        <ele>73</ele>
        <time>2021-04-26T07:57:15.000Z</time>
      </trkpt>
      <trkpt lat="48.81196" lon="-3.47499">
        <ele>74</ele>
        <time>2021-04-26T07:57:20.000Z</time>
      </trkpt>
      <trkpt lat="48.81173" lon="-3.47502">
        <ele>75</ele>
        <time>2021-04-26T07:57:24.000Z</time>
      </trkpt>
      <trkpt lat="48.81122" lon="-3.47499">
        <ele>75</ele>
        <time>2021-04-26T07:57:33.000Z</time>
      </trkpt>
      <trkpt lat="48.81072" lon="-3.47487">
        <ele>75</ele>
        <time>2021-04-26T07:57:42.000Z</time>
      </trkpt>
      <trkpt lat="48.81061" lon="-3.47487">
        <ele>75</ele>
        <time>2021-04-26T07:57:44.000Z</time>
      </trkpt>
      <trkpt lat="48.81041" lon="-3.47489">
        <ele>74</ele>
        <time>2021-04-26T07:57:48.000Z</time>
      </trkpt>
      <trkpt lat="48.80953" lon="-3.47511">
        <ele>73</ele>
        <time>2021-04-26T07:58:04.000Z</time>
      </trkpt>
      <trkpt lat="48.80906" lon="-3.47525">
        <ele>73</ele>
        <time>2021-04-26T07:58:12.000Z</time>
      </trkpt>
      <trkpt lat="48.80883" lon="-3.47529">
        <ele>74</ele>
        <time>2021-04-26T07:58:16.000Z</time>
      </trkpt>
      <trkpt lat="48.80857" lon="-3.4753">
        <ele>74</ele>
        <time>2021-04-26T07:58:21.000Z</time>
      </trkpt>
      <trkpt lat="48.80701" lon="-3.47515">
        <ele>77</ele>
        <time>2021-04-26T07:58:49.000Z</time>
      </trkpt>
      <trkpt lat="48.8062" lon="-3.47516">
        <ele>78</ele>
        <time>2021-04-26T07:59:03.000Z</time>
      </trkpt>
      <trkpt lat="48.80595" lon="-3.47513">
        <ele>79</ele>
        <time>2021-04-26T07:59:08.000Z</time>
      </trkpt>
      <trkpt lat="48.80573" lon="-3.47507">
        <ele>79</ele>
        <time>2021-04-26T07:59:11.000Z</time>
      </trkpt>
      <trkpt lat="48.80364" lon="-3.4741">
        <ele>82</ele>
        <time>2021-04-26T07:59:50.000Z</time>
      </trkpt>
      <trkpt lat="48.80346" lon="-3.47405">
        <ele>83</ele>
        <time>2021-04-26T07:59:54.000Z</time>
      </trkpt>
      <trkpt lat="48.80308" lon="-3.47403">
        <ele>83</ele>
        <time>2021-04-26T08:00:00.000Z</time>
      </trkpt>
      <trkpt lat="48.80266" lon="-3.47406">
        <ele>82</ele>
        <time>2021-04-26T08:00:08.000Z</time>
      </trkpt>
      <trkpt lat="48.80236" lon="-3.47402">
        <ele>82</ele>
        <time>2021-04-26T08:00:13.000Z</time>
      </trkpt>
      <trkpt lat="48.80185" lon="-3.47382">
        <ele>83</ele>
        <time>2021-04-26T08:00:23.000Z</time>
      </trkpt>
      <trkpt lat="48.80102" lon="-3.4734">
        <ele>85</ele>
        <time>2021-04-26T08:00:38.000Z</time>
      </trkpt>
      <trkpt lat="48.80096" lon="-3.47334">
        <ele>85</ele>
        <time>2021-04-26T08:00:39.000Z</time>
      </trkpt>
      <trkpt lat="48.80063" lon="-3.47318">
        <ele>84</ele>
        <time>2021-04-26T08:00:46.000Z</time>
      </trkpt>
      <trkpt lat="48.80044" lon="-3.47317">
        <ele>84</ele>
        <time>2021-04-26T08:00:49.000Z</time>
      </trkpt>
      <trkpt lat="48.79955" lon="-3.47296">
        <ele>82</ele>
        <time>2021-04-26T08:01:05.000Z</time>
      </trkpt>
      <trkpt lat="48.7992" lon="-3.47297">
        <ele>82</ele>
        <time>2021-04-26T08:01:11.000Z</time>
      </trkpt>
      <trkpt lat="48.79883" lon="-3.47308">
        <ele>82</ele>
        <time>2021-04-26T08:01:18.000Z</time>
      </trkpt>
      <trkpt lat="48.7984" lon="-3.47315">
        <ele>82</ele>
        <time>2021-04-26T08:01:26.000Z</time>
      </trkpt>
      <trkpt lat="48.79815" lon="-3.47316">
        <ele>81</ele>
        <time>2021-04-26T08:01:30.000Z</time>
      </trkpt>
      <trkpt lat="48.79796" lon="-3.47306">
        <ele>80</ele>
        <time>2021-04-26T08:01:34.000Z</time>
      </trkpt>
      <trkpt lat="48.79734" lon="-3.47261">
        <ele>78</ele>
        <time>2021-04-26T08:01:46.000Z</time>
      </trkpt>
      <trkpt lat="48.79717" lon="-3.47252">
        <ele>77</ele>
        <time>2021-04-26T08:01:49.000Z</time>
      </trkpt>
      <trkpt lat="48.79668" lon="-3.47233">
        <ele>75</ele>
        <time>2021-04-26T08:01:58.000Z</time>
      </trkpt>
      <trkpt lat="48.79599" lon="-3.47209">
        <ele>75</ele>
        <time>2021-04-26T08:02:11.000Z</time>
      </trkpt>
      <trkpt lat="48.79583" lon="-3.47198">
        <ele>75</ele>
        <time>2021-04-26T08:02:14.000Z</time>
      </trkpt>
      <trkpt lat="48.79526" lon="-3.4715">
        <ele>75</ele>
        <time>2021-04-26T08:02:25.000Z</time>
      </trkpt>
      <trkpt lat="48.79497" lon="-3.47141">
        <ele>75</ele>
        <time>2021-04-26T08:02:31.000Z</time>
      </trkpt>
      <trkpt lat="48.79424" lon="-3.4711">
        <ele>77</ele>
        <time>2021-04-26T08:02:44.000Z</time>
      </trkpt>
      <trkpt lat="48.79401" lon="-3.47092">
        <ele>77</ele>
        <time>2021-04-26T08:02:49.000Z</time>
      </trkpt>
      <trkpt lat="48.79388" lon="-3.47087">
        <ele>77</ele>
        <time>2021-04-26T08:02:51.000Z</time>
      </trkpt>
      <trkpt lat="48.79374" lon="-3.47084">
        <ele>77</ele>
        <time>2021-04-26T08:02:54.000Z</time>
      </trkpt>
      <trkpt lat="48.79341" lon="-3.47084">
        <ele>77</ele>
        <time>2021-04-26T08:03:00.000Z</time>
      </trkpt>
      <trkpt lat="48.79324" lon="-3.4708">
        <ele>77</ele>
        <time>2021-04-26T08:03:03.000Z</time>
      </trkpt>
      <trkpt lat="48.79324" lon="-3.47065">
        <ele>76</ele>
        <time>2021-04-26T08:03:04.000Z</time>
      </trkpt>
      <trkpt lat="48.7932" lon="-3.47065">
        <ele>76</ele>
        <time>2021-04-26T08:03:05.000Z</time>
      </trkpt>
      <trkpt lat="48.79313" lon="-3.47062">
        <ele>76</ele>
        <time>2021-04-26T08:03:06.000Z</time>
      </trkpt>
      <trkpt lat="48.79302" lon="-3.47052">
        <ele>76</ele>
        <time>2021-04-26T08:03:09.000Z</time>
      </trkpt>
      <trkpt lat="48.79242" lon="-3.47009">
        <ele>75</ele>
        <time>2021-04-26T08:03:20.000Z</time>
      </trkpt>
      <trkpt lat="48.79184" lon="-3.46957">
        <ele>73</ele>
        <time>2021-04-26T08:03:32.000Z</time>
      </trkpt>
      <trkpt lat="48.79173" lon="-3.46954">
        <ele>72</ele>
        <time>2021-04-26T08:03:34.000Z</time>
      </trkpt>
      <trkpt lat="48.79151" lon="-3.46954">
        <ele>71</ele>
        <time>2021-04-26T08:03:38.000Z</time>
      </trkpt>
      <trkpt lat="48.79138" lon="-3.46951">
        <ele>71</ele>
        <time>2021-04-26T08:03:41.000Z</time>
      </trkpt>
      <trkpt lat="48.79114" lon="-3.46947">
        <ele>70</ele>
        <time>2021-04-26T08:03:45.000Z</time>
      </trkpt>
      <trkpt lat="48.79083" lon="-3.46952">
        <ele>68</ele>
        <time>2021-04-26T08:03:51.000Z</time>
      </trkpt>
      <trkpt lat="48.7907" lon="-3.46952">
        <ele>68</ele>
        <time>2021-04-26T08:03:53.000Z</time>
      </trkpt>
      <trkpt lat="48.79059" lon="-3.4695">
        <ele>69</ele>
        <time>2021-04-26T08:03:55.000Z</time>
      </trkpt>
      <trkpt lat="48.79047" lon="-3.46941">
        <ele>68</ele>
        <time>2021-04-26T08:03:57.000Z</time>
      </trkpt>
      <trkpt lat="48.79039" lon="-3.46927">
        <ele>68</ele>
        <time>2021-04-26T08:03:59.000Z</time>
      </trkpt>
      <trkpt lat="48.79018" lon="-3.46885">
        <ele>66</ele>
        <time>2021-04-26T08:04:06.000Z</time>
      </trkpt>
      <trkpt lat="48.79005" lon="-3.46858">
        <ele>64</ele>
        <time>2021-04-26T08:04:09.000Z</time>
      </trkpt>
      <trkpt lat="48.78996" lon="-3.46828">
        <ele>62</ele>
        <time>2021-04-26T08:04:13.000Z</time>
      </trkpt>
      <trkpt lat="48.78991" lon="-3.46798">
        <ele>62</ele>
        <time>2021-04-26T08:04:17.000Z</time>
      </trkpt>
      <trkpt lat="48.78984" lon="-3.46775">
        <ele>62</ele>
        <time>2021-04-26T08:04:20.000Z</time>
      </trkpt>
      <trkpt lat="48.78974" lon="-3.4676">
        <ele>62</ele>
        <time>2021-04-26T08:04:22.000Z</time>
      </trkpt>
      <trkpt lat="48.78958" lon="-3.46746">
        <ele>62</ele>
        <time>2021-04-26T08:04:26.000Z</time>
      </trkpt>
      <trkpt lat="48.78938" lon="-3.46723">
        <ele>62</ele>
        <time>2021-04-26T08:04:30.000Z</time>
      </trkpt>
      <trkpt lat="48.78906" lon="-3.46686">
        <ele>60</ele>
        <time>2021-04-26T08:04:37.000Z</time>
      </trkpt>
      <trkpt lat="48.78894" lon="-3.46675">
        <ele>59</ele>
        <time>2021-04-26T08:04:40.000Z</time>
      </trkpt>
      <trkpt lat="48.78882" lon="-3.46673">
        <ele>58</ele>
        <time>2021-04-26T08:04:42.000Z</time>
      </trkpt>
      <trkpt lat="48.78856" lon="-3.46677">
        <ele>58</ele>
        <time>2021-04-26T08:04:47.000Z</time>
      </trkpt>
      <trkpt lat="48.78834" lon="-3.46676">
        <ele>57</ele>
        <time>2021-04-26T08:04:51.000Z</time>
      </trkpt>
      <trkpt lat="48.78813" lon="-3.46666">
        <ele>55</ele>
        <time>2021-04-26T08:04:54.000Z</time>
      </trkpt>
      <trkpt lat="48.78775" lon="-3.46641">
        <ele>51</ele>
        <time>2021-04-26T08:05:02.000Z</time>
      </trkpt>
      <trkpt lat="48.78735" lon="-3.4662">
        <ele>47</ele>
        <time>2021-04-26T08:05:09.000Z</time>
      </trkpt>
      <trkpt lat="48.78728" lon="-3.46616">
        <ele>46</ele>
        <time>2021-04-26T08:05:11.000Z</time>
      </trkpt>
      <trkpt lat="48.78719" lon="-3.46611">
        <ele>45</ele>
        <time>2021-04-26T08:05:12.000Z</time>
      </trkpt>
      <trkpt lat="48.78701" lon="-3.46589">
        <ele>43</ele>
        <time>2021-04-26T08:05:17.000Z</time>
      </trkpt>
      <trkpt lat="48.78692" lon="-3.46581">
        <ele>42</ele>
        <time>2021-04-26T08:05:18.000Z</time>
      </trkpt>
      <trkpt lat="48.78677" lon="-3.46577">
        <ele>41</ele>
        <time>2021-04-26T08:05:21.000Z</time>
      </trkpt>
      <trkpt lat="48.7867" lon="-3.46577">
        <ele>40</ele>
        <time>2021-04-26T08:05:22.000Z</time>
      </trkpt>
      <trkpt lat="48.78666" lon="-3.46577">
        <ele>40</ele>
        <time>2021-04-26T08:05:23.000Z</time>
      </trkpt>
      <trkpt lat="48.78638" lon="-3.46578">
        <ele>41</ele>
        <time>2021-04-26T08:05:28.000Z</time>
      </trkpt>
      <trkpt lat="48.786" lon="-3.46573">
        <ele>43</ele>
        <time>2021-04-26T08:05:35.000Z</time>
      </trkpt>
      <trkpt lat="48.78578" lon="-3.46566">
        <ele>44</ele>
        <time>2021-04-26T08:05:39.000Z</time>
      </trkpt>
      <trkpt lat="48.78535" lon="-3.46543">
        <ele>48</ele>
        <time>2021-04-26T08:05:47.000Z</time>
      </trkpt>
      <trkpt lat="48.78492" lon="-3.46541">
        <ele>52</ele>
        <time>2021-04-26T08:05:55.000Z</time>
      </trkpt>
      <trkpt lat="48.78456" lon="-3.4652">
        <ele>55</ele>
        <time>2021-04-26T08:06:01.000Z</time>
      </trkpt>
      <trkpt lat="48.7842" lon="-3.46501">
        <ele>58</ele>
        <time>2021-04-26T08:06:08.000Z</time>
      </trkpt>
      <trkpt lat="48.78383" lon="-3.46464">
        <ele>60</ele>
        <time>2021-04-26T08:06:16.000Z</time>
      </trkpt>
      <trkpt lat="48.78359" lon="-3.46468">
        <ele>60</ele>
        <time>2021-04-26T08:06:20.000Z</time>
      </trkpt>
      <trkpt lat="48.78331" lon="-3.4647">
        <ele>61</ele>
        <time>2021-04-26T08:06:25.000Z</time>
      </trkpt>
      <trkpt lat="48.78323" lon="-3.46469">
        <ele>61</ele>
        <time>2021-04-26T08:06:27.000Z</time>
      </trkpt>
      <trkpt lat="48.78295" lon="-3.46457">
        <ele>63</ele>
        <time>2021-04-26T08:06:32.000Z</time>
      </trkpt>
      <trkpt lat="48.78215" lon="-3.46401">
        <ele>68</ele>
        <time>2021-04-26T08:06:48.000Z</time>
      </trkpt>
      <trkpt lat="48.78194" lon="-3.46379">
        <ele>70</ele>
        <time>2021-04-26T08:06:52.000Z</time>
      </trkpt>
      <trkpt lat="48.78155" lon="-3.46334">
        <ele>73</ele>
        <time>2021-04-26T08:07:01.000Z</time>
      </trkpt>
      <trkpt lat="48.78127" lon="-3.46306">
        <ele>74</ele>
        <time>2021-04-26T08:07:07.000Z</time>
      </trkpt>
      <trkpt lat="48.78008" lon="-3.46221">
        <ele>77</ele>
        <time>2021-04-26T08:07:30.000Z</time>
      </trkpt>
      <trkpt lat="48.77952" lon="-3.46183">
        <ele>77.8</ele>
        <time>2021-04-26T08:07:43.000Z</time>
      </trkpt>
      <trkpt lat="48.77947" lon="-3.46186">
        <ele>75.8</ele>
        <time>2020-07-26T14:29:17.506Z</time>
      </trkpt>
      <trkpt lat="48.77778" lon="-3.46228">
        <ele>78.3</ele>
        <time>2020-07-26T14:29:36.853Z</time>
      </trkpt>
      <trkpt lat="48.777" lon="-3.46352">
        <ele>77.7</ele>
        <time>2020-07-26T14:29:49.479Z</time>
      </trkpt>
      <trkpt lat="48.77449" lon="-3.46664">
        <ele>75.4</ele>
        <time>2020-07-26T14:30:25.558Z</time>
      </trkpt>
      <trkpt lat="48.77311" lon="-3.4685">
        <ele>71.7</ele>
        <time>2020-07-26T14:30:46.022Z</time>
      </trkpt>
      <trkpt lat="48.77273" lon="-3.47056">
        <ele>73.7</ele>
        <time>2020-07-26T14:31:01.725Z</time>
      </trkpt>
      <trkpt lat="48.77163" lon="-3.47219">
        <ele>76.6</ele>
        <time>2020-07-26T14:31:18.861Z</time>
      </trkpt>
      <trkpt lat="48.77096" lon="-3.47321">
        <ele>77</ele>
        <time>2020-07-26T14:31:29.460Z</time>
      </trkpt>
      <trkpt lat="48.76999" lon="-3.47405">
        <ele>78.1</ele>
        <time>2020-07-26T14:31:41.768Z</time>
      </trkpt>
      <trkpt lat="48.76893" lon="-3.47522">
        <ele>80</ele>
        <time>2020-07-26T14:31:56.410Z</time>
      </trkpt>
      <trkpt lat="48.76776" lon="-3.47457">
        <ele>83.7</ele>
        <time>2020-07-26T14:32:10.240Z</time>
      </trkpt>
      <trkpt lat="48.7661" lon="-3.47432">
        <ele>83.9</ele>
        <time>2020-07-26T14:32:28.776Z</time>
      </trkpt>
      <trkpt lat="48.76605" lon="-3.47551">
        <ele>84.2</ele>
        <time>2020-07-26T14:32:37.539Z</time>
      </trkpt>
      <trkpt lat="48.76582" lon="-3.47711">
        <ele>82</ele>
        <time>2020-07-26T14:32:49.500Z</time>
      </trkpt>
      <trkpt lat="48.76514" lon="-3.47749">
        <ele>80.3</ele>
        <time>2020-07-26T14:32:57.581Z</time>
      </trkpt>
      <trkpt lat="48.76455" lon="-3.4781">
        <ele>79.7</ele>
        <time>2020-07-26T14:33:05.484Z</time>
      </trkpt>
      <trkpt lat="48.76386" lon="-3.47894">
        <ele>79.8</ele>
        <time>2020-07-26T14:33:15.347Z</time>
      </trkpt>
      <trkpt lat="48.76158" lon="-3.47922">
        <ele>77.9</ele>
        <time>2020-07-26T14:33:40.780Z</time>
      </trkpt>
      <trkpt lat="48.76097" lon="-3.47928">
        <ele>76.5</ele>
        <time>2020-07-26T14:33:47.590Z</time>
      </trkpt>
      <trkpt lat="48.76035" lon="-3.47953">
        <ele>76.4</ele>
        <time>2020-07-26T14:33:54.723Z</time>
      </trkpt>
      <trkpt lat="48.75971" lon="-3.47977">
        <ele>76.8</ele>
        <time>2020-07-26T14:34:02.072Z</time>
      </trkpt>
      <trkpt lat="48.75916" lon="-3.48022">
        <ele>77</ele>
        <time>2020-07-26T14:34:08.976Z</time>
      </trkpt>
      <trkpt lat="48.75842" lon="-3.48157">
        <ele>78.2</ele>
        <time>2020-07-26T14:34:21.799Z</time>
      </trkpt>
      <trkpt lat="48.75757" lon="-3.4848">
        <ele>82.1</ele>
        <time>2020-07-26T14:34:47.339Z</time>
      </trkpt>
      <trkpt lat="48.75664" lon="-3.48546">
        <ele>82.5</ele>
        <time>2020-07-26T14:34:58.786Z</time>
      </trkpt>
      <trkpt lat="48.75587" lon="-3.48442">
        <ele>79.7</ele>
        <time>2020-07-26T14:35:10.220Z</time>
      </trkpt>
      <trkpt lat="48.755" lon="-3.48426">
        <ele>83</ele>
        <time>2020-07-26T14:35:20.008Z</time>
      </trkpt>
      <trkpt lat="48.75336" lon="-3.48471">
        <ele>86</ele>
        <time>2020-07-26T14:35:38.512Z</time>
      </trkpt>
      <trkpt lat="48.75254" lon="-3.48468">
        <ele>87.2</ele>
        <time>2020-07-26T14:35:47.593Z</time>
      </trkpt>
      <trkpt lat="48.74919" lon="-3.48551">
        <ele>98.8</ele>
        <time>2020-07-26T14:36:25.407Z</time>
      </trkpt>
      <trkpt lat="48.74909" lon="-3.48626">
        <ele>98.5</ele>
        <time>2020-07-26T14:36:31.018Z</time>
      </trkpt>
      <trkpt lat="48.74832" lon="-3.48614">
        <ele>99.5</ele>
        <time>2020-07-26T14:36:39.628Z</time>
      </trkpt>
      <trkpt lat="48.748" lon="-3.48458">
        <ele>90.6</ele>
        <time>2020-07-26T14:36:51.637Z</time>
      </trkpt>
      <trkpt lat="48.74759" lon="-3.48295">
        <ele>85.3</ele>
        <time>2020-07-26T14:37:04.417Z</time>
      </trkpt>
      <trkpt lat="48.74667" lon="-3.48038">
        <ele>78.5</ele>
        <time>2020-07-26T14:37:25.929Z</time>
      </trkpt>
      <trkpt lat="48.74645" lon="-3.47993">
        <ele>77.7</ele>
        <time>2020-07-26T14:37:29.978Z</time>
      </trkpt>
      <trkpt lat="48.74646" lon="-3.47991">
        <ele>77.6</ele>
        <time>2020-07-26T14:37:30.124Z</time>
      </trkpt>
      <trkpt lat="48.74646" lon="-3.47987">
        <ele>77.6</ele>
        <time>2020-07-26T14:37:30.427Z</time>
      </trkpt>
      <trkpt lat="48.74644" lon="-3.47981">
        <ele>77.4</ele>
        <time>2020-07-26T14:37:30.925Z</time>
      </trkpt>
      <trkpt lat="48.74641" lon="-3.47972">
        <ele>77.3</ele>
        <time>2020-07-26T14:37:31.668Z</time>
      </trkpt>
      <trkpt lat="48.74637" lon="-3.4796">
        <ele>77</ele>
        <time>2020-07-26T14:37:32.681Z</time>
      </trkpt>
      <trkpt lat="48.74631" lon="-3.47945">
        <ele>76.6</ele>
        <time>2020-07-26T14:37:33.906Z</time>
      </trkpt>
      <trkpt lat="48.74625" lon="-3.47928">
        <ele>76.2</ele>
        <time>2020-07-26T14:37:35.347Z</time>
      </trkpt>
      <trkpt lat="48.74617" lon="-3.47909">
        <ele>75.8</ele>
        <time>2020-07-26T14:37:36.963Z</time>
      </trkpt>
      <trkpt lat="48.7461" lon="-3.47888">
        <ele>75.4</ele>
        <time>2020-07-26T14:37:38.722Z</time>
      </trkpt>
      <trkpt lat="48.74601" lon="-3.47866">
        <ele>75</ele>
        <time>2020-07-26T14:37:40.574Z</time>
      </trkpt>
      <trkpt lat="48.74593" lon="-3.47844">
        <ele>74.5</ele>
        <time>2020-07-26T14:37:42.468Z</time>
      </trkpt>
      <trkpt lat="48.74585" lon="-3.47821">
        <ele>74.3</ele>
        <time>2020-07-26T14:37:44.382Z</time>
      </trkpt>
      <trkpt lat="48.74576" lon="-3.47799">
        <ele>74.6</ele>
        <time>2020-07-26T14:37:46.288Z</time>
      </trkpt>
      <trkpt lat="48.74567" lon="-3.47777">
        <ele>74.9</ele>
        <time>2020-07-26T14:37:48.198Z</time>
      </trkpt>
      <trkpt lat="48.74556" lon="-3.47756">
        <ele>75.2</ele>
        <time>2020-07-26T14:37:50.118Z</time>
      </trkpt>
      <trkpt lat="48.74546" lon="-3.47736">
        <ele>75.6</ele>
        <time>2020-07-26T14:37:51.950Z</time>
      </trkpt>
      <trkpt lat="48.74536" lon="-3.47718">
        <ele>76</ele>
        <time>2020-07-26T14:37:53.711Z</time>
      </trkpt>
      <trkpt lat="48.74525" lon="-3.47701">
        <ele>76.4</ele>
        <time>2020-07-26T14:37:55.443Z</time>
      </trkpt>
      <trkpt lat="48.74515" lon="-3.47687">
        <ele>76.6</ele>
        <time>2020-07-26T14:37:56.965Z</time>
      </trkpt>
      <trkpt lat="48.74507" lon="-3.47676">
        <ele>76.8</ele>
        <time>2020-07-26T14:37:58.172Z</time>
      </trkpt>
      <trkpt lat="48.74498" lon="-3.47669">
        <ele>76.9</ele>
        <time>2020-07-26T14:37:59.228Z</time>
      </trkpt>
      <trkpt lat="48.7449" lon="-3.47666">
        <ele>76.8</ele>
        <time>2020-07-26T14:38:00.217Z</time>
      </trkpt>
      <trkpt lat="48.74481" lon="-3.47666">
        <ele>76.6</ele>
        <time>2020-07-26T14:38:01.181Z</time>
      </trkpt>
      <trkpt lat="48.74473" lon="-3.47663">
        <ele>76.4</ele>
        <time>2020-07-26T14:38:02.109Z</time>
      </trkpt>
      <trkpt lat="48.74467" lon="-3.47656">
        <ele>76.4</ele>
        <time>2020-07-26T14:38:02.984Z</time>
      </trkpt>
      <trkpt lat="48.74463" lon="-3.47647">
        <ele>76.6</ele>
        <time>2020-07-26T14:38:03.779Z</time>
      </trkpt>
      <trkpt lat="48.7446" lon="-3.47637">
        <ele>76.7</ele>
        <time>2020-07-26T14:38:04.585Z</time>
      </trkpt>
      <trkpt lat="48.74456" lon="-3.47627">
        <ele>76.9</ele>
        <time>2020-07-26T14:38:05.431Z</time>
      </trkpt>
      <trkpt lat="48.74452" lon="-3.47616">
        <ele>77.1</ele>
        <time>2020-07-26T14:38:06.391Z</time>
      </trkpt>
      <trkpt lat="48.74447" lon="-3.47602">
        <ele>77.3</ele>
        <time>2020-07-26T14:38:07.528Z</time>
      </trkpt>
      <trkpt lat="48.7444" lon="-3.47586">
        <ele>77.5</ele>
        <time>2020-07-26T14:38:08.904Z</time>
      </trkpt>
      <trkpt lat="48.74432" lon="-3.4757">
        <ele>77.4</ele>
        <time>2020-07-26T14:38:10.429Z</time>
      </trkpt>
      <trkpt lat="48.74423" lon="-3.47553">
        <ele>77.2</ele>
        <time>2020-07-26T14:38:12.012Z</time>
      </trkpt>
      <trkpt lat="48.74414" lon="-3.47537">
        <ele>76.9</ele>
        <time>2020-07-26T14:38:13.493Z</time>
      </trkpt>
      <trkpt lat="48.74405" lon="-3.47522">
        <ele>76.6</ele>
        <time>2020-07-26T14:38:15.019Z</time>
      </trkpt>
      <trkpt lat="48.74396" lon="-3.47506">
        <ele>76.3</ele>
        <time>2020-07-26T14:38:16.569Z</time>
      </trkpt>
      <trkpt lat="48.74386" lon="-3.47491">
        <ele>75.9</ele>
        <time>2020-07-26T14:38:18.106Z</time>
      </trkpt>
      <trkpt lat="48.74377" lon="-3.47475">
        <ele>75.6</ele>
        <time>2020-07-26T14:38:19.669Z</time>
      </trkpt>
      <trkpt lat="48.74367" lon="-3.47459">
        <ele>75.3</ele>
        <time>2020-07-26T14:38:21.251Z</time>
      </trkpt>
      <trkpt lat="48.74358" lon="-3.47442">
        <ele>75.2</ele>
        <time>2020-07-26T14:38:22.874Z</time>
      </trkpt>
      <trkpt lat="48.74349" lon="-3.47426">
        <ele>75.1</ele>
        <time>2020-07-26T14:38:24.429Z</time>
      </trkpt>
      <trkpt lat="48.74339" lon="-3.4741">
        <ele>75.1</ele>
        <time>2020-07-26T14:38:26.007Z</time>
      </trkpt>
      <trkpt lat="48.74329" lon="-3.47394">
        <ele>74.9</ele>
        <time>2020-07-26T14:38:27.607Z</time>
      </trkpt>
      <trkpt lat="48.7432" lon="-3.4738">
        <ele>74.8</ele>
        <time>2020-07-26T14:38:29.082Z</time>
      </trkpt>
      <trkpt lat="48.74312" lon="-3.47367">
        <ele>74.6</ele>
        <time>2020-07-26T14:38:30.403Z</time>
      </trkpt>
      <trkpt lat="48.74304" lon="-3.47356">
        <ele>74.6</ele>
        <time>2020-07-26T14:38:31.571Z</time>
      </trkpt>
      <trkpt lat="48.74297" lon="-3.47347">
        <ele>74.5</ele>
        <time>2020-07-26T14:38:32.590Z</time>
      </trkpt>
      <trkpt lat="48.74291" lon="-3.47341">
        <ele>74.4</ele>
        <time>2020-07-26T14:38:33.421Z</time>
      </trkpt>
      <trkpt lat="48.74287" lon="-3.47338">
        <ele>74.4</ele>
        <time>2020-07-26T14:38:33.931Z</time>
      </trkpt>
      <trkpt lat="48.74285" lon="-3.47337">
        <ele>74.4</ele>
        <time>2020-07-26T14:38:34.162Z</time>
      </trkpt>
      <trkpt lat="48.74283" lon="-3.47337">
        <ele>74.4</ele>
        <time>2020-07-26T14:38:34.308Z</time>
      </trkpt>
      <trkpt lat="48.74282" lon="-3.47337">
        <ele>74.3</ele>
        <time>2020-07-26T14:38:34.513Z</time>
      </trkpt>
      <trkpt lat="48.74278" lon="-3.47337">
        <ele>74.3</ele>
        <time>2020-07-26T14:38:34.867Z</time>
      </trkpt>
      <trkpt lat="48.74274" lon="-3.47338">
        <ele>74.2</ele>
        <time>2020-07-26T14:38:35.388Z</time>
      </trkpt>
      <trkpt lat="48.74268" lon="-3.47336">
        <ele>74.2</ele>
        <time>2020-07-26T14:38:35.996Z</time>
      </trkpt>
      <trkpt lat="48.74263" lon="-3.47331">
        <ele>74.1</ele>
        <time>2020-07-26T14:38:36.648Z</time>
      </trkpt>
      <trkpt lat="48.7426" lon="-3.47324">
        <ele>73.9</ele>
        <time>2020-07-26T14:38:37.303Z</time>
      </trkpt>
      <trkpt lat="48.74259" lon="-3.47315">
        <ele>73.7</ele>
        <time>2020-07-26T14:38:37.986Z</time>
      </trkpt>
      <trkpt lat="48.7426" lon="-3.47305">
        <ele>73.5</ele>
        <time>2020-07-26T14:38:38.712Z</time>
      </trkpt>
      <trkpt lat="48.74261" lon="-3.47295">
        <ele>73.3</ele>
        <time>2020-07-26T14:38:39.441Z</time>
      </trkpt>
      <trkpt lat="48.74262" lon="-3.47285">
        <ele>73.2</ele>
        <time>2020-07-26T14:38:40.164Z</time>
      </trkpt>
      <trkpt lat="48.74261" lon="-3.47275">
        <ele>72.9</ele>
        <time>2020-07-26T14:38:40.930Z</time>
      </trkpt>
      <trkpt lat="48.74259" lon="-3.47264">
        <ele>72.6</ele>
        <time>2020-07-26T14:38:41.793Z</time>
      </trkpt>
      <trkpt lat="48.74256" lon="-3.47251">
        <ele>72.2</ele>
        <time>2020-07-26T14:38:42.792Z</time>
      </trkpt>
      <trkpt lat="48.74252" lon="-3.47236">
        <ele>71.6</ele>
        <time>2020-07-26T14:38:43.935Z</time>
      </trkpt>
      <trkpt lat="48.74248" lon="-3.4722">
        <ele>70.8</ele>
        <time>2020-07-26T14:38:45.224Z</time>
      </trkpt>
      <trkpt lat="48.74243" lon="-3.47203">
        <ele>70</ele>
        <time>2020-07-26T14:38:46.589Z</time>
      </trkpt>
      <trkpt lat="48.74237" lon="-3.47185">
        <ele>69.1</ele>
        <time>2020-07-26T14:38:48.017Z</time>
      </trkpt>
      <trkpt lat="48.74232" lon="-3.47168">
        <ele>68.2</ele>
        <time>2020-07-26T14:38:49.461Z</time>
      </trkpt>
      <trkpt lat="48.74226" lon="-3.47149">
        <ele>67.3</ele>
        <time>2020-07-26T14:38:50.956Z</time>
      </trkpt>
      <trkpt lat="48.7422" lon="-3.47131">
        <ele>66.4</ele>
        <time>2020-07-26T14:38:52.474Z</time>
      </trkpt>
      <trkpt lat="48.74214" lon="-3.47112">
        <ele>65.4</ele>
        <time>2020-07-26T14:38:54.002Z</time>
      </trkpt>
      <trkpt lat="48.74208" lon="-3.47093">
        <ele>64.4</ele>
        <time>2020-07-26T14:38:55.532Z</time>
      </trkpt>
      <trkpt lat="48.74203" lon="-3.47074">
        <ele>63.3</ele>
        <time>2020-07-26T14:38:57.060Z</time>
      </trkpt>
      <trkpt lat="48.74197" lon="-3.47056">
        <ele>62.2</ele>
        <time>2020-07-26T14:38:58.502Z</time>
      </trkpt>
      <trkpt lat="48.74192" lon="-3.4704">
        <ele>61.1</ele>
        <time>2020-07-26T14:38:59.814Z</time>
      </trkpt>
      <trkpt lat="48.74188" lon="-3.47026">
        <ele>60.1</ele>
        <time>2020-07-26T14:39:00.998Z</time>
      </trkpt>
      <trkpt lat="48.74184" lon="-3.47012">
        <ele>59.2</ele>
        <time>2020-07-26T14:39:02.075Z</time>
      </trkpt>
      <trkpt lat="48.7418" lon="-3.47">
        <ele>58.3</ele>
        <time>2020-07-26T14:39:03.052Z</time>
      </trkpt>
      <trkpt lat="48.74178" lon="-3.4699">
        <ele>58.2</ele>
        <time>2020-07-26T14:39:03.885Z</time>
      </trkpt>
      <trkpt lat="48.74176" lon="-3.4698">
        <ele>58.1</ele>
        <time>2020-07-26T14:39:04.585Z</time>
      </trkpt>
      <trkpt lat="48.74174" lon="-3.46973">
        <ele>58</ele>
        <time>2020-07-26T14:39:05.156Z</time>
      </trkpt>
      <trkpt lat="48.74174" lon="-3.46968">
        <ele>58</ele>
        <time>2020-07-26T14:39:05.519Z</time>
      </trkpt>
      <trkpt lat="48.74173" lon="-3.46966">
        <ele>58</ele>
        <time>2020-07-26T14:39:05.694Z</time>
      </trkpt>
      <trkpt lat="48.74173" lon="-3.46964">
        <ele>58</ele>
        <time>2020-07-26T14:39:05.806Z</time>
      </trkpt>
      <trkpt lat="48.74173" lon="-3.46962">
        <ele>58</ele>
        <time>2020-07-26T14:39:05.941Z</time>
      </trkpt>
      <trkpt lat="48.74173" lon="-3.46961">
        <ele>58.1</ele>
        <time>2020-07-26T14:39:06.050Z</time>
      </trkpt>
      <trkpt lat="48.74174" lon="-3.46959">
        <ele>58.1</ele>
        <time>2020-07-26T14:39:06.216Z</time>
      </trkpt>
      <trkpt lat="48.74174" lon="-3.46954">
        <ele>58.2</ele>
        <time>2020-07-26T14:39:06.555Z</time>
      </trkpt>
      <trkpt lat="48.74172" lon="-3.46947">
        <ele>58.1</ele>
        <time>2020-07-26T14:39:07.110Z</time>
      </trkpt>
      <trkpt lat="48.7417" lon="-3.46937">
        <ele>58.1</ele>
        <time>2020-07-26T14:39:07.885Z</time>
      </trkpt>
      <trkpt lat="48.74167" lon="-3.46925">
        <ele>57.9</ele>
        <time>2020-07-26T14:39:08.796Z</time>
      </trkpt>
      <trkpt lat="48.74162" lon="-3.46913">
        <ele>57.5</ele>
        <time>2020-07-26T14:39:09.812Z</time>
      </trkpt>
      <trkpt lat="48.74152" lon="-3.46915">
        <ele>56.4</ele>
        <time>2020-07-26T14:39:10.928Z</time>
      </trkpt>
      <trkpt lat="48.74148" lon="-3.46896">
        <ele>55.7</ele>
        <time>2020-07-26T14:39:12.379Z</time>
      </trkpt>
      <trkpt lat="48.74136" lon="-3.46884">
        <ele>54.2</ele>
        <time>2020-07-26T14:39:14.047Z</time>
      </trkpt>
      <trkpt lat="48.74128" lon="-3.46858">
        <ele>53.1</ele>
        <time>2020-07-26T14:39:16.130Z</time>
      </trkpt>
      <trkpt lat="48.74103" lon="-3.4683">
        <ele>50.7</ele>
        <time>2020-07-26T14:39:19.600Z</time>
      </trkpt>
      <trkpt lat="48.74071" lon="-3.46799">
        <ele>49.6</ele>
        <time>2020-07-26T14:39:23.826Z</time>
      </trkpt>
      <trkpt lat="48.74038" lon="-3.46771">
        <ele>49.6</ele>
        <time>2020-07-26T14:39:27.997Z</time>
      </trkpt>
      <trkpt lat="48.73995" lon="-3.46751">
        <ele>49.3</ele>
        <time>2020-07-26T14:39:33.055Z</time>
      </trkpt>
      <trkpt lat="48.73923" lon="-3.46743">
        <ele>40.9</ele>
        <time>2020-07-26T14:39:41.129Z</time>
      </trkpt>
      <trkpt lat="48.73844" lon="-3.46772">
        <ele>34.6</ele>
        <time>2020-07-26T14:39:50.113Z</time>
      </trkpt>
      <trkpt lat="48.73756" lon="-3.46802">
        <ele>27.5</ele>
        <time>2020-07-26T14:40:00.265Z</time>
      </trkpt>
      <trkpt lat="48.73628" lon="-3.46844">
        <ele>14.4</ele>
        <time>2020-07-26T14:40:14.823Z</time>
      </trkpt>
      <trkpt lat="48.73574" lon="-3.46869">
        <ele>9.9</ele>
        <time>2020-07-26T14:40:21.176Z</time>
      </trkpt>
      <trkpt lat="48.73503" lon="-3.46846">
        <ele>7.1</ele>
        <time>2020-07-26T14:40:29.268Z</time>
      </trkpt>
      <trkpt lat="48.73397" lon="-3.46789">
        <ele>8.7</ele>
        <time>2020-07-26T14:40:41.711Z</time>
      </trkpt>
      <trkpt lat="48.73284" lon="-3.46712">
        <ele>8.7</ele>
        <time>2020-07-26T14:40:55.503Z</time>
      </trkpt>
      <trkpt lat="48.73213" lon="-3.46608">
        <ele>8.6</ele>
        <time>2020-07-26T14:41:06.478Z</time>
      </trkpt>
      <trkpt lat="48.73188" lon="-3.46533">
        <ele>10</ele>
        <time>2020-07-26T14:41:12.608Z</time>
      </trkpt>
      <trkpt lat="48.73184" lon="-3.46513">
        <ele>10.1</ele>
        <time>2020-07-26T14:41:14.210Z</time>
      </trkpt>
      <trkpt lat="48.73178" lon="-3.46496">
        <ele>9.9</ele>
        <time>2020-07-26T14:41:15.582Z</time>
      </trkpt>
      <trkpt lat="48.73171" lon="-3.46496">
        <ele>9.3</ele>
        <time>2020-07-26T14:41:16.380Z</time>
      </trkpt>
      <trkpt lat="48.73164" lon="-3.46497">
        <ele>8.8</ele>
        <time>2020-07-26T14:41:17.216Z</time>
      </trkpt>
      <trkpt lat="48.73156" lon="-3.46499">
        <ele>8.5</ele>
        <time>2020-07-26T14:41:18.046Z</time>
      </trkpt>
      <trkpt lat="48.73149" lon="-3.46502">
        <ele>8.1</ele>
        <time>2020-07-26T14:41:18.838Z</time>
      </trkpt>
      <trkpt lat="48.73143" lon="-3.46506">
        <ele>7.8</ele>
        <time>2020-07-26T14:41:19.623Z</time>
      </trkpt>
      <trkpt lat="48.73135" lon="-3.46511">
        <ele>7.4</ele>
        <time>2020-07-26T14:41:20.539Z</time>
      </trkpt>
      <trkpt lat="48.73127" lon="-3.46516">
        <ele>6.9</ele>
        <time>2020-07-26T14:41:21.573Z</time>
      </trkpt>
      <trkpt lat="48.73117" lon="-3.46522">
        <ele>6.3</ele>
        <time>2020-07-26T14:41:22.752Z</time>
      </trkpt>
      <trkpt lat="48.73106" lon="-3.46529">
        <ele>5.7</ele>
        <time>2020-07-26T14:41:24.059Z</time>
      </trkpt>
      <trkpt lat="48.73095" lon="-3.46538">
        <ele>5.1</ele>
        <time>2020-07-26T14:41:25.451Z</time>
      </trkpt>
      <trkpt lat="48.73084" lon="-3.46547">
        <ele>4.4</ele>
        <time>2020-07-26T14:41:26.892Z</time>
      </trkpt>
      <trkpt lat="48.73072" lon="-3.46558">
        <ele>4.1</ele>
        <time>2020-07-26T14:41:28.364Z</time>
      </trkpt>
      <trkpt lat="48.73062" lon="-3.46569">
        <ele>3.8</ele>
        <time>2020-07-26T14:41:29.823Z</time>
      </trkpt>
      <trkpt lat="48.73052" lon="-3.46581">
        <ele>3.6</ele>
        <time>2020-07-26T14:41:31.252Z</time>
      </trkpt>
      <trkpt lat="48.73043" lon="-3.46596">
        <ele>3.4</ele>
        <time>2020-07-26T14:41:32.685Z</time>
      </trkpt>
      <trkpt lat="48.73036" lon="-3.46611">
        <ele>3.1</ele>
        <time>2020-07-26T14:41:34.069Z</time>
      </trkpt>
      <trkpt lat="48.7303" lon="-3.46629">
        <ele>3</ele>
        <time>2020-07-26T14:41:35.494Z</time>
      </trkpt>
      <trkpt lat="48.73026" lon="-3.46648">
        <ele>2.8</ele>
        <time>2020-07-26T14:41:36.996Z</time>
      </trkpt>
      <trkpt lat="48.73025" lon="-3.4667">
        <ele>2.8</ele>
        <time>2020-07-26T14:41:38.571Z</time>
      </trkpt>
      <trkpt lat="48.73025" lon="-3.46692">
        <ele>3.2</ele>
        <time>2020-07-26T14:41:40.207Z</time>
      </trkpt>
      <trkpt lat="48.73027" lon="-3.46715">
        <ele>3.7</ele>
        <time>2020-07-26T14:41:41.905Z</time>
      </trkpt>
      <trkpt lat="48.73029" lon="-3.46738">
        <ele>4.1</ele>
        <time>2020-07-26T14:41:43.610Z</time>
      </trkpt>
      <trkpt lat="48.73031" lon="-3.46761">
        <ele>4.6</ele>
        <time>2020-07-26T14:41:45.295Z</time>
      </trkpt>
      <trkpt lat="48.73033" lon="-3.46782">
        <ele>5.2</ele>
        <time>2020-07-26T14:41:46.901Z</time>
      </trkpt>
      <trkpt lat="48.73035" lon="-3.46803">
        <ele>5.8</ele>
        <time>2020-07-26T14:41:48.441Z</time>
      </trkpt>
      <trkpt lat="48.73037" lon="-3.46824">
        <ele>6.4</ele>
        <time>2020-07-26T14:41:49.977Z</time>
      </trkpt>
      <trkpt lat="48.73039" lon="-3.46843">
        <ele>7.1</ele>
        <time>2020-07-26T14:41:51.399Z</time>
      </trkpt>
      <trkpt lat="48.73041" lon="-3.46859">
        <ele>7.8</ele>
        <time>2020-07-26T14:41:52.578Z</time>
      </trkpt>
      <trkpt lat="48.73043" lon="-3.4687">
        <ele>8.2</ele>
        <time>2020-07-26T14:41:53.423Z</time>
      </trkpt>
      <trkpt lat="48.73048" lon="-3.46876">
        <ele>8.4</ele>
        <time>2020-07-26T14:41:54.172Z</time>
      </trkpt>
      <trkpt lat="48.73056" lon="-3.46881">
        <ele>8.5</ele>
        <time>2020-07-26T14:41:55.050Z</time>
      </trkpt>
      <trkpt lat="48.73064" lon="-3.46887">
        <ele>8.6</ele>
        <time>2020-07-26T14:41:56.095Z</time>
      </trkpt>
      <trkpt lat="48.73073" lon="-3.46898">
        <ele>9.1</ele>
        <time>2020-07-26T14:41:57.323Z</time>
      </trkpt>
      <trkpt lat="48.73081" lon="-3.46913">
        <ele>9.8</ele>
        <time>2020-07-26T14:41:58.753Z</time>
      </trkpt>
      <trkpt lat="48.73088" lon="-3.4693">
        <ele>10.9</ele>
        <time>2020-07-26T14:42:00.276Z</time>
      </trkpt>
      <trkpt lat="48.73095" lon="-3.4695">
        <ele>12.3</ele>
        <time>2020-07-26T14:42:01.896Z</time>
      </trkpt>
      <trkpt lat="48.731" lon="-3.46972">
        <ele>14</ele>
        <time>2020-07-26T14:42:03.593Z</time>
      </trkpt>
      <trkpt lat="48.73103" lon="-3.46995">
        <ele>15.9</ele>
        <time>2020-07-26T14:42:05.390Z</time>
      </trkpt>
      <trkpt lat="48.73106" lon="-3.47019">
        <ele>20</ele>
        <time>2020-07-26T14:42:07.220Z</time>
      </trkpt>
      <trkpt lat="48.73108" lon="-3.47043">
        <ele>24.5</ele>
        <time>2020-07-26T14:42:09.041Z</time>
      </trkpt>
      <trkpt lat="48.73111" lon="-3.47067">
        <ele>29</ele>
        <time>2020-07-26T14:42:10.868Z</time>
      </trkpt>
      <trkpt lat="48.73114" lon="-3.4709">
        <ele>32.6</ele>
        <time>2020-07-26T14:42:12.636Z</time>
      </trkpt>
      <trkpt lat="48.73117" lon="-3.47111">
        <ele>34.4</ele>
        <time>2020-07-26T14:42:14.239Z</time>
      </trkpt>
      <trkpt lat="48.73122" lon="-3.47131">
        <ele>36.2</ele>
        <time>2020-07-26T14:42:15.767Z</time>
      </trkpt>
      <trkpt lat="48.73126" lon="-3.4715">
        <ele>37.9</ele>
        <time>2020-07-26T14:42:17.303Z</time>
      </trkpt>
      <trkpt lat="48.7313" lon="-3.4717">
        <ele>39.5</ele>
        <time>2020-07-26T14:42:18.839Z</time>
      </trkpt>
      <trkpt lat="48.73134" lon="-3.47192">
        <ele>39.9</ele>
        <time>2020-07-26T14:42:20.459Z</time>
      </trkpt>
      <trkpt lat="48.73137" lon="-3.47215">
        <ele>40.4</ele>
        <time>2020-07-26T14:42:22.194Z</time>
      </trkpt>
      <trkpt lat="48.7314" lon="-3.47239">
        <ele>40.8</ele>
        <time>2020-07-26T14:42:23.964Z</time>
      </trkpt>
      <trkpt lat="48.73143" lon="-3.47262">
        <ele>41.5</ele>
        <time>2020-07-26T14:42:25.714Z</time>
      </trkpt>
      <trkpt lat="48.73146" lon="-3.47284">
        <ele>42.6</ele>
        <time>2020-07-26T14:42:27.391Z</time>
      </trkpt>
      <trkpt lat="48.73149" lon="-3.47307">
        <ele>43.7</ele>
        <time>2020-07-26T14:42:29.049Z</time>
      </trkpt>
      <trkpt lat="48.73152" lon="-3.47329">
        <ele>44.7</ele>
        <time>2020-07-26T14:42:30.742Z</time>
      </trkpt>
      <trkpt lat="48.73154" lon="-3.47352">
        <ele>47.2</ele>
        <time>2020-07-26T14:42:32.468Z</time>
      </trkpt>
      <trkpt lat="48.73155" lon="-3.47376">
        <ele>50.2</ele>
        <time>2020-07-26T14:42:34.220Z</time>
      </trkpt>
      <trkpt lat="48.73155" lon="-3.474">
        <ele>53.3</ele>
        <time>2020-07-26T14:42:36.008Z</time>
      </trkpt>
      <trkpt lat="48.73153" lon="-3.47424">
        <ele>56.1</ele>
        <time>2020-07-26T14:42:37.841Z</time>
      </trkpt>
      <trkpt lat="48.73152" lon="-3.4745">
        <ele>58.1</ele>
        <time>2020-07-26T14:42:39.717Z</time>
      </trkpt>
      <trkpt lat="48.7315" lon="-3.47475">
        <ele>60</ele>
        <time>2020-07-26T14:42:41.586Z</time>
      </trkpt>
      <trkpt lat="48.73149" lon="-3.47499">
        <ele>61.8</ele>
        <time>2020-07-26T14:42:43.399Z</time>
      </trkpt>
      <trkpt lat="48.73148" lon="-3.47523">
        <ele>62.9</ele>
        <time>2020-07-26T14:42:45.143Z</time>
      </trkpt>
      <trkpt lat="48.73148" lon="-3.47547">
        <ele>64</ele>
        <time>2020-07-26T14:42:46.871Z</time>
      </trkpt>
      <trkpt lat="48.73149" lon="-3.47569">
        <ele>65.1</ele>
        <time>2020-07-26T14:42:48.529Z</time>
      </trkpt>
      <trkpt lat="48.73152" lon="-3.47592">
        <ele>66.1</ele>
        <time>2020-07-26T14:42:50.215Z</time>
      </trkpt>
      <trkpt lat="48.73156" lon="-3.47614">
        <ele>67</ele>
        <time>2020-07-26T14:42:51.922Z</time>
      </trkpt>
      <trkpt lat="48.73161" lon="-3.47636">
        <ele>67.8</ele>
        <time>2020-07-26T14:42:53.634Z</time>
      </trkpt>
      <trkpt lat="48.73164" lon="-3.47659">
        <ele>68.7</ele>
        <time>2020-07-26T14:42:55.360Z</time>
      </trkpt>
      <trkpt lat="48.73165" lon="-3.47683">
        <ele>69.8</ele>
        <time>2020-07-26T14:42:57.110Z</time>
      </trkpt>
      <trkpt lat="48.73164" lon="-3.47707">
        <ele>70.9</ele>
        <time>2020-07-26T14:42:58.918Z</time>
      </trkpt>
      <trkpt lat="48.73163" lon="-3.47731">
        <ele>72</ele>
        <time>2020-07-26T14:43:00.685Z</time>
      </trkpt>
      <trkpt lat="48.73162" lon="-3.47755">
        <ele>72.9</ele>
        <time>2020-07-26T14:43:02.460Z</time>
      </trkpt>
      <trkpt lat="48.73162" lon="-3.4778">
        <ele>72.9</ele>
        <time>2020-07-26T14:43:04.272Z</time>
      </trkpt>
      <trkpt lat="48.73161" lon="-3.47806">
        <ele>73</ele>
        <time>2020-07-26T14:43:06.135Z</time>
      </trkpt>
      <trkpt lat="48.73159" lon="-3.47832">
        <ele>73</ele>
        <time>2020-07-26T14:43:08.074Z</time>
      </trkpt>
      <trkpt lat="48.73157" lon="-3.47859">
        <ele>72.8</ele>
        <time>2020-07-26T14:43:10.090Z</time>
      </trkpt>
      <trkpt lat="48.73156" lon="-3.47888">
        <ele>72.5</ele>
        <time>2020-07-26T14:43:12.175Z</time>
      </trkpt>
      <trkpt lat="48.73155" lon="-3.47916">
        <ele>72.3</ele>
        <time>2020-07-26T14:43:14.278Z</time>
      </trkpt>
      <trkpt lat="48.73156" lon="-3.47943">
        <ele>71.7</ele>
        <time>2020-07-26T14:43:16.274Z</time>
      </trkpt>
      <trkpt lat="48.73156" lon="-3.47968">
        <ele>71.2</ele>
        <time>2020-07-26T14:43:18.060Z</time>
      </trkpt>
      <trkpt lat="48.73157" lon="-3.47988">
        <ele>70.7</ele>
        <time>2020-07-26T14:43:19.588Z</time>
      </trkpt>
      <trkpt lat="48.73157" lon="-3.48006">
        <ele>70.4</ele>
        <time>2020-07-26T14:43:20.850Z</time>
      </trkpt>
      <trkpt lat="48.73158" lon="-3.48019">
        <ele>70.2</ele>
        <time>2020-07-26T14:43:21.840Z</time>
      </trkpt>
      <trkpt lat="48.73158" lon="-3.48028">
        <ele>70.1</ele>
        <time>2020-07-26T14:43:22.491Z</time>
      </trkpt>
      <trkpt lat="48.73158" lon="-3.48033">
        <ele>70.1</ele>
        <time>2020-07-26T14:43:22.872Z</time>
      </trkpt>
      <trkpt lat="48.73159" lon="-3.48037">
        <ele>70</ele>
        <time>2020-07-26T14:43:23.128Z</time>
      </trkpt>
      <trkpt lat="48.73158" lon="-3.48042">
        <ele>70</ele>
        <time>2020-07-26T14:43:23.494Z</time>
      </trkpt>
      <trkpt lat="48.73158" lon="-3.48049">
        <ele>69.9</ele>
        <time>2020-07-26T14:43:24.034Z</time>
      </trkpt>
      <trkpt lat="48.73158" lon="-3.48059">
        <ele>69.8</ele>
        <time>2020-07-26T14:43:24.753Z</time>
      </trkpt>
      <trkpt lat="48.73158" lon="-3.48072">
        <ele>69.7</ele>
        <time>2020-07-26T14:43:25.684Z</time>
      </trkpt>
      <trkpt lat="48.73158" lon="-3.48086">
        <ele>69.6</ele>
        <time>2020-07-26T14:43:26.748Z</time>
      </trkpt>
      <trkpt lat="48.73158" lon="-3.48102">
        <ele>69.4</ele>
        <time>2020-07-26T14:43:27.956Z</time>
      </trkpt>
      <trkpt lat="48.73159" lon="-3.48121">
        <ele>69.1</ele>
        <time>2020-07-26T14:43:29.316Z</time>
      </trkpt>
      <trkpt lat="48.73159" lon="-3.48141">
        <ele>69</ele>
        <time>2020-07-26T14:43:30.795Z</time>
      </trkpt>
      <trkpt lat="48.73157" lon="-3.48163">
        <ele>68.9</ele>
        <time>2020-07-26T14:43:32.394Z</time>
      </trkpt>
      <trkpt lat="48.73153" lon="-3.48186">
        <ele>69.1</ele>
        <time>2020-07-26T14:43:34.124Z</time>
      </trkpt>
      <trkpt lat="48.73147" lon="-3.48209">
        <ele>69.5</ele>
        <time>2020-07-26T14:43:35.916Z</time>
      </trkpt>
      <trkpt lat="48.73141" lon="-3.48232">
        <ele>69.9</ele>
        <time>2020-07-26T14:43:37.725Z</time>
      </trkpt>
      <trkpt lat="48.73136" lon="-3.48255">
        <ele>70.3</ele>
        <time>2020-07-26T14:43:39.527Z</time>
      </trkpt>
      <trkpt lat="48.73132" lon="-3.48278">
        <ele>70.8</ele>
        <time>2020-07-26T14:43:41.304Z</time>
      </trkpt>
      <trkpt lat="48.7313" lon="-3.48302">
        <ele>71.2</ele>
        <time>2020-07-26T14:43:43.077Z</time>
      </trkpt>
      <trkpt lat="48.73132" lon="-3.48326">
        <ele>71.4</ele>
        <time>2020-07-26T14:43:44.827Z</time>
      </trkpt>
      <trkpt lat="48.73138" lon="-3.48349">
        <ele>71.7</ele>
        <time>2020-07-26T14:43:46.604Z</time>
      </trkpt>
      <trkpt lat="48.73146" lon="-3.4837">
        <ele>72</ele>
        <time>2020-07-26T14:43:48.444Z</time>
      </trkpt>
      <trkpt lat="48.73156" lon="-3.48391">
        <ele>72.4</ele>
        <time>2020-07-26T14:43:50.291Z</time>
      </trkpt>
      <trkpt lat="48.73167" lon="-3.48411">
        <ele>72.7</ele>
        <time>2020-07-26T14:43:52.175Z</time>
      </trkpt>
      <trkpt lat="48.73179" lon="-3.48428">
        <ele>72.9</ele>
        <time>2020-07-26T14:43:54.023Z</time>
      </trkpt>
      <trkpt lat="48.7319" lon="-3.48445">
        <ele>73</ele>
        <time>2020-07-26T14:43:55.753Z</time>
      </trkpt>
      <trkpt lat="48.73199" lon="-3.48462">
        <ele>73.4</ele>
        <time>2020-07-26T14:43:57.413Z</time>
      </trkpt>
      <trkpt lat="48.73206" lon="-3.48481">
        <ele>74</ele>
        <time>2020-07-26T14:43:58.994Z</time>
      </trkpt>
      <trkpt lat="48.73209" lon="-3.48502">
        <ele>75</ele>
        <time>2020-07-26T14:44:00.562Z</time>
      </trkpt>
      <trkpt lat="48.73208" lon="-3.48524">
        <ele>75.7</ele>
        <time>2020-07-26T14:44:02.203Z</time>
      </trkpt>
      <trkpt lat="48.73206" lon="-3.48547">
        <ele>76.6</ele>
        <time>2020-07-26T14:44:03.949Z</time>
      </trkpt>
      <trkpt lat="48.73204" lon="-3.48572">
        <ele>77.4</ele>
        <time>2020-07-26T14:44:05.750Z</time>
      </trkpt>
      <trkpt lat="48.73203" lon="-3.48597">
        <ele>77.8</ele>
        <time>2020-07-26T14:44:07.574Z</time>
      </trkpt>
      <trkpt lat="48.73202" lon="-3.48622">
        <ele>77.8</ele>
        <time>2020-07-26T14:44:09.461Z</time>
      </trkpt>
      <trkpt lat="48.73201" lon="-3.48648">
        <ele>77.8</ele>
        <time>2020-07-26T14:44:11.381Z</time>
      </trkpt>
      <trkpt lat="48.732" lon="-3.48675">
        <ele>77.7</ele>
        <time>2020-07-26T14:44:13.329Z</time>
      </trkpt>
      <trkpt lat="48.73199" lon="-3.48702">
        <ele>77.3</ele>
        <time>2020-07-26T14:44:15.277Z</time>
      </trkpt>
      <trkpt lat="48.73198" lon="-3.48728">
        <ele>76.8</ele>
        <time>2020-07-26T14:44:17.199Z</time>
      </trkpt>
      <trkpt lat="48.73198" lon="-3.48753">
        <ele>76.4</ele>
        <time>2020-07-26T14:44:19.081Z</time>
      </trkpt>
      <trkpt lat="48.73197" lon="-3.48779">
        <ele>75.8</ele>
        <time>2020-07-26T14:44:20.992Z</time>
      </trkpt>
      <trkpt lat="48.73197" lon="-3.48806">
        <ele>75.2</ele>
        <time>2020-07-26T14:44:22.973Z</time>
      </trkpt>
      <trkpt lat="48.73196" lon="-3.48835">
        <ele>74.6</ele>
        <time>2020-07-26T14:44:25.054Z</time>
      </trkpt>
      <trkpt lat="48.73194" lon="-3.48864">
        <ele>73.7</ele>
        <time>2020-07-26T14:44:27.216Z</time>
      </trkpt>
      <trkpt lat="48.73192" lon="-3.48895">
        <ele>72.8</ele>
        <time>2020-07-26T14:44:29.478Z</time>
      </trkpt>
      <trkpt lat="48.7319" lon="-3.48926">
        <ele>71.9</ele>
        <time>2020-07-26T14:44:31.749Z</time>
      </trkpt>
      <trkpt lat="48.73188" lon="-3.48957">
        <ele>71</ele>
        <time>2020-07-26T14:44:34.048Z</time>
      </trkpt>
      <trkpt lat="48.73186" lon="-3.48988">
        <ele>70.1</ele>
        <time>2020-07-26T14:44:36.340Z</time>
      </trkpt>
      <trkpt lat="48.73183" lon="-3.49019">
        <ele>69.3</ele>
        <time>2020-07-26T14:44:38.632Z</time>
      </trkpt>
      <trkpt lat="48.73181" lon="-3.49049">
        <ele>68.5</ele>
        <time>2020-07-26T14:44:40.848Z</time>
      </trkpt>
      <trkpt lat="48.73179" lon="-3.49077">
        <ele>67.9</ele>
        <time>2020-07-26T14:44:42.951Z</time>
      </trkpt>
      <trkpt lat="48.73176" lon="-3.49105">
        <ele>67.2</ele>
        <time>2020-07-26T14:44:44.981Z</time>
      </trkpt>
      <trkpt lat="48.73171" lon="-3.49132">
        <ele>66.7</ele>
        <time>2020-07-26T14:44:47.031Z</time>
      </trkpt>
      <trkpt lat="48.73164" lon="-3.49157">
        <ele>66.3</ele>
        <time>2020-07-26T14:44:49.102Z</time>
      </trkpt>
      <trkpt lat="48.73154" lon="-3.49182">
        <ele>66.1</ele>
        <time>2020-07-26T14:44:51.255Z</time>
      </trkpt>
      <trkpt lat="48.73143" lon="-3.49207">
        <ele>65.8</ele>
        <time>2020-07-26T14:44:53.428Z</time>
      </trkpt>
      <trkpt lat="48.73134" lon="-3.49234">
        <ele>65.6</ele>
        <time>2020-07-26T14:44:55.620Z</time>
      </trkpt>
      <trkpt lat="48.73126" lon="-3.49261">
        <ele>65.2</ele>
        <time>2020-07-26T14:44:57.794Z</time>
      </trkpt>
      <trkpt lat="48.73118" lon="-3.49287">
        <ele>64.6</ele>
        <time>2020-07-26T14:44:59.926Z</time>
      </trkpt>
      <trkpt lat="48.7311" lon="-3.49312">
        <ele>64</ele>
        <time>2020-07-26T14:45:01.951Z</time>
      </trkpt>
      <trkpt lat="48.73103" lon="-3.49336">
        <ele>63.4</ele>
        <time>2020-07-26T14:45:03.848Z</time>
      </trkpt>
      <trkpt lat="48.73098" lon="-3.49359">
        <ele>62.7</ele>
        <time>2020-07-26T14:45:05.651Z</time>
      </trkpt>
      <trkpt lat="48.73094" lon="-3.49382">
        <ele>62</ele>
        <time>2020-07-26T14:45:07.383Z</time>
      </trkpt>
      <trkpt lat="48.73093" lon="-3.49405">
        <ele>61.2</ele>
        <time>2020-07-26T14:45:09.114Z</time>
      </trkpt>
      <trkpt lat="48.73094" lon="-3.49429">
        <ele>60</ele>
        <time>2020-07-26T14:45:10.843Z</time>
      </trkpt>
      <trkpt lat="48.73095" lon="-3.49452">
        <ele>58.6</ele>
        <time>2020-07-26T14:45:12.585Z</time>
      </trkpt>
      <trkpt lat="48.73097" lon="-3.49476">
        <ele>57.2</ele>
        <time>2020-07-26T14:45:14.351Z</time>
      </trkpt>
      <trkpt lat="48.73098" lon="-3.49501">
        <ele>55.7</ele>
        <time>2020-07-26T14:45:16.178Z</time>
      </trkpt>
      <trkpt lat="48.73095" lon="-3.49528">
        <ele>54.3</ele>
        <time>2020-07-26T14:45:18.177Z</time>
      </trkpt>
      <trkpt lat="48.73091" lon="-3.49557">
        <ele>52.9</ele>
        <time>2020-07-26T14:45:20.378Z</time>
      </trkpt>
      <trkpt lat="48.73086" lon="-3.49587">
        <ele>52</ele>
        <time>2020-07-26T14:45:22.651Z</time>
      </trkpt>
      <trkpt lat="48.7308" lon="-3.49617">
        <ele>53.3</ele>
        <time>2020-07-26T14:45:24.941Z</time>
      </trkpt>
      <trkpt lat="48.73072" lon="-3.49646">
        <ele>54.7</ele>
        <time>2020-07-26T14:45:27.242Z</time>
      </trkpt>
      <trkpt lat="48.73062" lon="-3.49673">
        <ele>56</ele>
        <time>2020-07-26T14:45:29.536Z</time>
      </trkpt>
      <trkpt lat="48.73051" lon="-3.49699">
        <ele>57.1</ele>
        <time>2020-07-26T14:45:31.794Z</time>
      </trkpt>
      <trkpt lat="48.7304" lon="-3.49722">
        <ele>58.3</ele>
        <time>2020-07-26T14:45:33.933Z</time>
      </trkpt>
      <trkpt lat="48.73029" lon="-3.49745">
        <ele>59.5</ele>
        <time>2020-07-26T14:45:35.988Z</time>
      </trkpt>
      <trkpt lat="48.73019" lon="-3.49767">
        <ele>60.5</ele>
        <time>2020-07-26T14:45:37.942Z</time>
      </trkpt>
      <trkpt lat="48.7301" lon="-3.49789">
        <ele>61.4</ele>
        <time>2020-07-26T14:45:39.793Z</time>
      </trkpt>
      <trkpt lat="48.73004" lon="-3.4981">
        <ele>62.3</ele>
        <time>2020-07-26T14:45:41.558Z</time>
      </trkpt>
      <trkpt lat="48.72998" lon="-3.49831">
        <ele>63</ele>
        <time>2020-07-26T14:45:43.193Z</time>
      </trkpt>
      <trkpt lat="48.72994" lon="-3.4985">
        <ele>63.2</ele>
        <time>2020-07-26T14:45:44.665Z</time>
      </trkpt>
      <trkpt lat="48.7299" lon="-3.49866">
        <ele>63.3</ele>
        <time>2020-07-26T14:45:45.905Z</time>
      </trkpt>
      <trkpt lat="48.72987" lon="-3.49878">
        <ele>63.4</ele>
        <time>2020-07-26T14:45:46.869Z</time>
      </trkpt>
      <trkpt lat="48.72985" lon="-3.49887">
        <ele>63.5</ele>
        <time>2020-07-26T14:45:47.531Z</time>
      </trkpt>
      <trkpt lat="48.72984" lon="-3.49892">
        <ele>63.5</ele>
        <time>2020-07-26T14:45:47.950Z</time>
      </trkpt>
      <trkpt lat="48.72983" lon="-3.49895">
        <ele>63.6</ele>
        <time>2020-07-26T14:45:48.189Z</time>
      </trkpt>
      <trkpt lat="48.72981" lon="-3.49897">
        <ele>63.6</ele>
        <time>2020-07-26T14:45:48.435Z</time>
      </trkpt>
      <trkpt lat="48.72978" lon="-3.49898">
        <ele>63.7</ele>
        <time>2020-07-26T14:45:48.800Z</time>
      </trkpt>
      <trkpt lat="48.72973" lon="-3.49897">
        <ele>63.9</ele>
        <time>2020-07-26T14:45:49.286Z</time>
      </trkpt>
      <trkpt lat="48.72968" lon="-3.49895">
        <ele>64.1</ele>
        <time>2020-07-26T14:45:49.922Z</time>
      </trkpt>
      <trkpt lat="48.72961" lon="-3.49891">
        <ele>64.3</ele>
        <time>2020-07-26T14:45:50.714Z</time>
      </trkpt>
      <trkpt lat="48.72953" lon="-3.49886">
        <ele>64.5</ele>
        <time>2020-07-26T14:45:51.671Z</time>
      </trkpt>
      <trkpt lat="48.72944" lon="-3.49881">
        <ele>64.7</ele>
        <time>2020-07-26T14:45:52.810Z</time>
      </trkpt>
      <trkpt lat="48.72932" lon="-3.49873">
        <ele>65</ele>
        <time>2020-07-26T14:45:54.212Z</time>
      </trkpt>
      <trkpt lat="48.7292" lon="-3.49864">
        <ele>65.3</ele>
        <time>2020-07-26T14:45:55.709Z</time>
      </trkpt>
      <trkpt lat="48.72907" lon="-3.49855">
        <ele>65.8</ele>
        <time>2020-07-26T14:45:57.304Z</time>
      </trkpt>
      <trkpt lat="48.72893" lon="-3.49846">
        <ele>66.5</ele>
        <time>2020-07-26T14:45:58.991Z</time>
      </trkpt>
      <trkpt lat="48.72878" lon="-3.49836">
        <ele>67.3</ele>
        <time>2020-07-26T14:46:00.827Z</time>
      </trkpt>
      <trkpt lat="48.72862" lon="-3.49825">
        <ele>68.3</ele>
        <time>2020-07-26T14:46:02.797Z</time>
      </trkpt>
      <trkpt lat="48.72845" lon="-3.49815">
        <ele>69.3</ele>
        <time>2020-07-26T14:46:04.819Z</time>
      </trkpt>
      <trkpt lat="48.72828" lon="-3.49806">
        <ele>70.3</ele>
        <time>2020-07-26T14:46:06.864Z</time>
      </trkpt>
      <trkpt lat="48.7281" lon="-3.49798">
        <ele>71.3</ele>
        <time>2020-07-26T14:46:08.907Z</time>
      </trkpt>
      <trkpt lat="48.72792" lon="-3.49792">
        <ele>72.2</ele>
        <time>2020-07-26T14:46:10.969Z</time>
      </trkpt>
      <trkpt lat="48.72774" lon="-3.49787">
        <ele>73.2</ele>
        <time>2020-07-26T14:46:12.961Z</time>
      </trkpt>
      <trkpt lat="48.72757" lon="-3.49786">
        <ele>74.1</ele>
        <time>2020-07-26T14:46:14.893Z</time>
      </trkpt>
      <trkpt lat="48.7274" lon="-3.49788">
        <ele>74.9</ele>
        <time>2020-07-26T14:46:16.753Z</time>
      </trkpt>
      <trkpt lat="48.72724" lon="-3.49791">
        <ele>75.8</ele>
        <time>2020-07-26T14:46:18.620Z</time>
      </trkpt>
      <trkpt lat="48.72707" lon="-3.49791">
        <ele>76.6</ele>
        <time>2020-07-26T14:46:20.475Z</time>
      </trkpt>
      <trkpt lat="48.7269" lon="-3.49787">
        <ele>77.3</ele>
        <time>2020-07-26T14:46:22.389Z</time>
      </trkpt>
      <trkpt lat="48.72673" lon="-3.4978">
        <ele>78.1</ele>
        <time>2020-07-26T14:46:24.342Z</time>
      </trkpt>
      <trkpt lat="48.72656" lon="-3.49775">
        <ele>78.8</ele>
        <time>2020-07-26T14:46:26.239Z</time>
      </trkpt>
      <trkpt lat="48.72639" lon="-3.49772">
        <ele>79.5</ele>
        <time>2020-07-26T14:46:28.163Z</time>
      </trkpt>
      <trkpt lat="48.72622" lon="-3.49772">
        <ele>80.3</ele>
        <time>2020-07-26T14:46:30.057Z</time>
      </trkpt>
      <trkpt lat="48.72605" lon="-3.49775">
        <ele>81</ele>
        <time>2020-07-26T14:46:31.965Z</time>
      </trkpt>
      <trkpt lat="48.72588" lon="-3.49779">
        <ele>81.8</ele>
        <time>2020-07-26T14:46:33.915Z</time>
      </trkpt>
      <trkpt lat="48.7257" lon="-3.49781">
        <ele>82.6</ele>
        <time>2020-07-26T14:46:35.907Z</time>
      </trkpt>
      <trkpt lat="48.72551" lon="-3.4978">
        <ele>83.4</ele>
        <time>2020-07-26T14:46:37.962Z</time>
      </trkpt>
      <trkpt lat="48.72532" lon="-3.49778">
        <ele>84.2</ele>
        <time>2020-07-26T14:46:40.123Z</time>
      </trkpt>
      <trkpt lat="48.72512" lon="-3.49776">
        <ele>85.1</ele>
        <time>2020-07-26T14:46:42.337Z</time>
      </trkpt>
      <trkpt lat="48.72492" lon="-3.49772">
        <ele>85.9</ele>
        <time>2020-07-26T14:46:44.615Z</time>
      </trkpt>
      <trkpt lat="48.72472" lon="-3.49769">
        <ele>86.5</ele>
        <time>2020-07-26T14:46:46.889Z</time>
      </trkpt>
      <trkpt lat="48.72452" lon="-3.49765">
        <ele>87.1</ele>
        <time>2020-07-26T14:46:49.112Z</time>
      </trkpt>
      <trkpt lat="48.72432" lon="-3.49762">
        <ele>87.6</ele>
        <time>2020-07-26T14:46:51.273Z</time>
      </trkpt>
      <trkpt lat="48.72414" lon="-3.49761">
        <ele>88.1</ele>
        <time>2020-07-26T14:46:53.369Z</time>
      </trkpt>
      <trkpt lat="48.72395" lon="-3.49762">
        <ele>88.8</ele>
        <time>2020-07-26T14:46:55.470Z</time>
      </trkpt>
      <trkpt lat="48.72377" lon="-3.49768">
        <ele>89.5</ele>
        <time>2020-07-26T14:46:57.443Z</time>
      </trkpt>
      <trkpt lat="48.72361" lon="-3.49778">
        <ele>90.2</ele>
        <time>2020-07-26T14:46:59.411Z</time>
      </trkpt>
      <trkpt lat="48.72347" lon="-3.49794">
        <ele>90.9</ele>
        <time>2020-07-26T14:47:01.341Z</time>
      </trkpt>
      <trkpt lat="48.72336" lon="-3.49815">
        <ele>91.6</ele>
        <time>2020-07-26T14:47:03.281Z</time>
      </trkpt>
      <trkpt lat="48.72326" lon="-3.49834">
        <ele>92.2</ele>
        <time>2020-07-26T14:47:05.118Z</time>
      </trkpt>
      <trkpt lat="48.72316" lon="-3.49851">
        <ele>92.5</ele>
        <time>2020-07-26T14:47:06.777Z</time>
      </trkpt>
      <trkpt lat="48.72305" lon="-3.49864">
        <ele>92.8</ele>
        <time>2020-07-26T14:47:08.320Z</time>
      </trkpt>
      <trkpt lat="48.72292" lon="-3.49872">
        <ele>93.2</ele>
        <time>2020-07-26T14:47:09.880Z</time>
      </trkpt>
      <trkpt lat="48.72278" lon="-3.49874">
        <ele>93.7</ele>
        <time>2020-07-26T14:47:11.534Z</time>
      </trkpt>
      <trkpt lat="48.72261" lon="-3.49871">
        <ele>94.1</ele>
        <time>2020-07-26T14:47:13.337Z</time>
      </trkpt>
      <trkpt lat="48.72245" lon="-3.49869">
        <ele>94.5</ele>
        <time>2020-07-26T14:47:15.220Z</time>
      </trkpt>
      <trkpt lat="48.72227" lon="-3.49867">
        <ele>94.7</ele>
        <time>2020-07-26T14:47:17.153Z</time>
      </trkpt>
      <trkpt lat="48.7221" lon="-3.49866">
        <ele>94.9</ele>
        <time>2020-07-26T14:47:19.096Z</time>
      </trkpt>
      <trkpt lat="48.72192" lon="-3.49866">
        <ele>95.1</ele>
        <time>2020-07-26T14:47:21.028Z</time>
      </trkpt>
      <trkpt lat="48.72176" lon="-3.4987">
        <ele>95.3</ele>
        <time>2020-07-26T14:47:22.898Z</time>
      </trkpt>
      <trkpt lat="48.7216" lon="-3.4988">
        <ele>95.7</ele>
        <time>2020-07-26T14:47:24.814Z</time>
      </trkpt>
      <trkpt lat="48.72145" lon="-3.49895">
        <ele>96.1</ele>
        <time>2020-07-26T14:47:26.814Z</time>
      </trkpt>
      <trkpt lat="48.72132" lon="-3.49914">
        <ele>96.4</ele>
        <time>2020-07-26T14:47:28.839Z</time>
      </trkpt>
      <trkpt lat="48.72121" lon="-3.49933">
        <ele>96.7</ele>
        <time>2020-07-26T14:47:30.703Z</time>
      </trkpt>
      <trkpt lat="48.72112" lon="-3.4995">
        <ele>96.9</ele>
        <time>2020-07-26T14:47:32.266Z</time>
      </trkpt>
      <trkpt lat="48.72106" lon="-3.49965">
        <ele>97</ele>
        <time>2020-07-26T14:47:33.553Z</time>
      </trkpt>
      <trkpt lat="48.721" lon="-3.49977">
        <ele>97.1</ele>
        <time>2020-07-26T14:47:34.647Z</time>
      </trkpt>
      <trkpt lat="48.72095" lon="-3.49988">
        <ele>97.1</ele>
        <time>2020-07-26T14:47:35.657Z</time>
      </trkpt>
      <trkpt lat="48.7209" lon="-3.49999">
        <ele>97.1</ele>
        <time>2020-07-26T14:47:36.637Z</time>
      </trkpt>
      <trkpt lat="48.72084" lon="-3.50009">
        <ele>96.8</ele>
        <time>2020-07-26T14:47:37.625Z</time>
      </trkpt>
      <trkpt lat="48.72078" lon="-3.5002">
        <ele>96.5</ele>
        <time>2020-07-26T14:47:38.686Z</time>
      </trkpt>
      <trkpt lat="48.7207" lon="-3.50032">
        <ele>96.3</ele>
        <time>2020-07-26T14:47:39.861Z</time>
      </trkpt>
      <trkpt lat="48.72062" lon="-3.50044">
        <ele>96.2</ele>
        <time>2020-07-26T14:47:41.160Z</time>
      </trkpt>
      <trkpt lat="48.72053" lon="-3.50058">
        <ele>96.1</ele>
        <time>2020-07-26T14:47:42.573Z</time>
      </trkpt>
      <trkpt lat="48.72043" lon="-3.50072">
        <ele>96.1</ele>
        <time>2020-07-26T14:47:44.107Z</time>
      </trkpt>
      <trkpt lat="48.72032" lon="-3.50087">
        <ele>96.2</ele>
        <time>2020-07-26T14:47:45.768Z</time>
      </trkpt>
      <trkpt lat="48.7202" lon="-3.50104">
        <ele>96.3</ele>
        <time>2020-07-26T14:47:47.533Z</time>
      </trkpt>
      <trkpt lat="48.72008" lon="-3.5012">
        <ele>96.4</ele>
        <time>2020-07-26T14:47:49.327Z</time>
      </trkpt>
      <trkpt lat="48.71996" lon="-3.50136">
        <ele>96.3</ele>
        <time>2020-07-26T14:47:51.148Z</time>
      </trkpt>
      <trkpt lat="48.71983" lon="-3.50151">
        <ele>96.1</ele>
        <time>2020-07-26T14:47:52.977Z</time>
      </trkpt>
      <trkpt lat="48.71969" lon="-3.50165">
        <ele>96</ele>
        <time>2020-07-26T14:47:54.829Z</time>
      </trkpt>
      <trkpt lat="48.71955" lon="-3.50178">
        <ele>96.1</ele>
        <time>2020-07-26T14:47:56.633Z</time>
      </trkpt>
      <trkpt lat="48.71942" lon="-3.50191">
        <ele>96.2</ele>
        <time>2020-07-26T14:47:58.408Z</time>
      </trkpt>
      <trkpt lat="48.71929" lon="-3.50203">
        <ele>96.4</ele>
        <time>2020-07-26T14:48:00.060Z</time>
      </trkpt>
      <trkpt lat="48.71918" lon="-3.50214">
        <ele>96.6</ele>
        <time>2020-07-26T14:48:01.564Z</time>
      </trkpt>
      <trkpt lat="48.71908" lon="-3.50223">
        <ele>96.9</ele>
        <time>2020-07-26T14:48:02.866Z</time>
      </trkpt>
      <trkpt lat="48.71899" lon="-3.50231">
        <ele>97.1</ele>
        <time>2020-07-26T14:48:03.961Z</time>
      </trkpt>
      <trkpt lat="48.71893" lon="-3.50237">
        <ele>97.3</ele>
        <time>2020-07-26T14:48:04.802Z</time>
      </trkpt>
      <trkpt lat="48.71888" lon="-3.50244">
        <ele>97.3</ele>
        <time>2020-07-26T14:48:05.529Z</time>
      </trkpt>
      <trkpt lat="48.71885" lon="-3.50252">
        <ele>97.3</ele>
        <time>2020-07-26T14:48:06.229Z</time>
      </trkpt>
      <trkpt lat="48.71825" lon="-3.50209">
        <ele>99</ele>
        <time>2020-07-26T14:48:13.671Z</time>
      </trkpt>
      <trkpt lat="48.71804" lon="-3.5029">
        <ele>97.4</ele>
        <time>2020-07-26T14:48:20.050Z</time>
      </trkpt>
      <trkpt lat="48.71742" lon="-3.50345">
        <ele>96.9</ele>
        <time>2020-07-26T14:48:28.038Z</time>
      </trkpt>
      <trkpt lat="48.71674" lon="-3.50384">
        <ele>96.4</ele>
        <time>2020-07-26T14:48:36.167Z</time>
      </trkpt>
      <trkpt lat="48.71642" lon="-3.50341">
        <ele>96.9</ele>
        <time>2020-07-26T14:48:40.862Z</time>
      </trkpt>
      <trkpt lat="48.71566" lon="-3.50223">
        <ele>97.9</ele>
        <time>2020-07-26T14:48:52.988Z</time>
      </trkpt>
      <trkpt lat="48.71502" lon="-3.50128">
        <ele>98</ele>
        <time>2020-07-26T14:49:02.960Z</time>
      </trkpt>
      <trkpt lat="48.71441" lon="-3.50022">
        <ele>97.8</ele>
        <time>2020-07-26T14:49:13.301Z</time>
      </trkpt>
      <trkpt lat="48.71368" lon="-3.49976">
        <ele>97.2</ele>
        <time>2020-07-26T14:49:22.023Z</time>
      </trkpt>
      <trkpt lat="48.71213" lon="-3.49981">
        <ele>93.5</ele>
        <time>2020-07-26T14:49:39.297Z</time>
      </trkpt>
      <trkpt lat="48.71092" lon="-3.49973">
        <ele>90.5</ele>
        <time>2020-07-26T14:49:52.745Z</time>
      </trkpt>
      <trkpt lat="48.71024" lon="-3.4997">
        <ele>89.6</ele>
        <time>2020-07-26T14:50:00.340Z</time>
      </trkpt>
      <trkpt lat="48.70944" lon="-3.49992">
        <ele>87.7</ele>
        <time>2020-07-26T14:50:09.410Z</time>
      </trkpt>
      <trkpt lat="48.70827" lon="-3.49961">
        <ele>87.9</ele>
        <time>2020-07-26T14:50:22.516Z</time>
      </trkpt>
      <trkpt lat="48.7055" lon="-3.49948">
        <ele>84.6</ele>
        <time>2020-07-26T14:50:53.415Z</time>
      </trkpt>
      <trkpt lat="48.70463" lon="-3.49931">
        <ele>83</ele>
        <time>2020-07-26T14:51:03.141Z</time>
      </trkpt>
      <trkpt lat="48.70282" lon="-3.49891">
        <ele>76.2</ele>
        <time>2020-07-26T14:51:23.487Z</time>
      </trkpt>
      <trkpt lat="48.69925" lon="-3.4984">
        <ele>85</ele>
        <time>2020-07-26T14:52:03.320Z</time>
      </trkpt>
      <trkpt lat="48.699" lon="-3.49988">
        <ele>84.2</ele>
        <time>2020-07-26T14:52:14.523Z</time>
      </trkpt>
      <trkpt lat="48.69847" lon="-3.50118">
        <ele>83.3</ele>
        <time>2020-07-26T14:52:25.758Z</time>
      </trkpt>
      <trkpt lat="48.6971" lon="-3.50495">
        <ele>88.5</ele>
        <time>2020-07-26T14:52:57.299Z</time>
      </trkpt>
      <trkpt lat="48.69671" lon="-3.50679">
        <ele>87.8</ele>
        <time>2020-07-26T14:53:11.527Z</time>
      </trkpt>
      <trkpt lat="48.69559" lon="-3.50835">
        <ele>87.6</ele>
        <time>2020-07-26T14:53:28.406Z</time>
      </trkpt>
      <trkpt lat="48.69347" lon="-3.51098">
        <ele>90</ele>
        <time>2020-07-26T14:53:58.891Z</time>
      </trkpt>
      <trkpt lat="48.69312" lon="-3.51188">
        <ele>90.9</ele>
        <time>2020-07-26T14:54:06.570Z</time>
      </trkpt>
      <trkpt lat="48.69143" lon="-3.51375">
        <ele>96.8</ele>
        <time>2020-07-26T14:54:29.874Z</time>
      </trkpt>
      <trkpt lat="48.69005" lon="-3.51429">
        <ele>101.7</ele>
        <time>2020-07-26T14:54:45.688Z</time>
      </trkpt>
      <trkpt lat="48.6895" lon="-3.51523">
        <ele>103.8</ele>
        <time>2020-07-26T14:54:54.916Z</time>
      </trkpt>
      <trkpt lat="48.68893" lon="-3.51848">
        <ele>109.8</ele>
        <time>2020-07-26T14:55:19.646Z</time>
      </trkpt>
      <trkpt lat="48.68622" lon="-3.51967">
        <ele>107.6</ele>
        <time>2020-07-26T14:55:50.996Z</time>
      </trkpt>
      <trkpt lat="48.68212" lon="-3.52288">
        <ele>109.1</ele>
        <time>2020-07-26T14:56:42.355Z</time>
      </trkpt>
      <trkpt lat="48.68162" lon="-3.5266">
        <ele>110.9</ele>
        <time>2020-07-26T14:57:10.224Z</time>
      </trkpt>
      <trkpt lat="48.68033" lon="-3.53183">
        <ele>109.9</ele>
        <time>2020-07-26T14:57:51.176Z</time>
      </trkpt>
      <trkpt lat="48.67847" lon="-3.53385">
        <ele>112.6</ele>
        <time>2020-07-26T14:58:16.640Z</time>
      </trkpt>
      <trkpt lat="48.67722" lon="-3.53506">
        <ele>112.4</ele>
        <time>2020-07-26T14:58:33.118Z</time>
      </trkpt>
      <trkpt lat="48.67699" lon="-3.53837">
        <ele>81.2</ele>
        <time>2020-07-26T14:58:57.780Z</time>
      </trkpt>
      <trkpt lat="48.67716" lon="-3.5428">
        <ele>72.3</ele>
        <time>2020-07-26T14:59:30.320Z</time>
      </trkpt>
      <trkpt lat="48.67715" lon="-3.5442">
        <ele>70</ele>
        <time>2020-07-26T14:59:40.625Z</time>
      </trkpt>
      <trkpt lat="48.67741" lon="-3.54491">
        <ele>70.6</ele>
        <time>2020-07-26T14:59:46.526Z</time>
      </trkpt>
      <trkpt lat="48.67822" lon="-3.54529">
        <ele>69.8</ele>
        <time>2020-07-26T14:59:56.011Z</time>
      </trkpt>
      <trkpt lat="48.67933" lon="-3.54421">
        <ele>65.4</ele>
        <time>2020-07-26T15:00:10.719Z</time>
      </trkpt>
      <trkpt lat="48.68015" lon="-3.54396">
        <ele>76</ele>
        <time>2020-07-26T15:00:20.003Z</time>
      </trkpt>
      <trkpt lat="48.68179" lon="-3.54569">
        <ele>73.2</ele>
        <time>2020-07-26T15:00:42.297Z</time>
      </trkpt>
      <trkpt lat="48.68255" lon="-3.54723">
        <ele>78.9</ele>
        <time>2020-07-26T15:00:56.387Z</time>
      </trkpt>
      <trkpt lat="48.68294" lon="-3.5496">
        <ele>61.8</ele>
        <time>2020-07-26T15:01:14.403Z</time>
      </trkpt>
      <trkpt lat="48.68283" lon="-3.55054">
        <ele>95.2</ele>
        <time>2020-07-26T15:01:22.176Z</time>
      </trkpt>
      <trkpt lat="48.68219" lon="-3.55191">
        <ele>89.1</ele>
        <time>2020-07-26T15:01:34.537Z</time>
      </trkpt>
      <trkpt lat="48.68254" lon="-3.55312">
        <ele>52.2</ele>
        <time>2020-07-26T15:01:44.903Z</time>
      </trkpt>
      <trkpt lat="48.68314" lon="-3.55402">
        <ele>55.8</ele>
        <time>2020-07-26T15:01:54.361Z</time>
      </trkpt>
      <trkpt lat="48.68325" lon="-3.55515">
        <ele>54.8</ele>
        <time>2020-07-26T15:02:02.681Z</time>
      </trkpt>
      <trkpt lat="48.6831" lon="-3.55615">
        <ele>49.5</ele>
        <time>2020-07-26T15:02:10.225Z</time>
      </trkpt>
      <trkpt lat="48.68264" lon="-3.55711">
        <ele>38.4</ele>
        <time>2020-07-26T15:02:19.007Z</time>
      </trkpt>
      <trkpt lat="48.68255" lon="-3.55852">
        <ele>34.8</ele>
        <time>2020-07-26T15:02:29.389Z</time>
      </trkpt>
      <trkpt lat="48.68287" lon="-3.55948">
        <ele>32.2</ele>
        <time>2020-07-26T15:02:37.286Z</time>
      </trkpt>
      <trkpt lat="48.68354" lon="-3.56038">
        <ele>29.9</ele>
        <time>2020-07-26T15:02:47.270Z</time>
      </trkpt>
      <trkpt lat="48.68406" lon="-3.56146">
        <ele>28.1</ele>
        <time>2020-07-26T15:02:57.040Z</time>
      </trkpt>
      <trkpt lat="48.68396" lon="-3.56168">
        <ele>33</ele>
        <time>2020-07-26T15:02:59.054Z</time>
      </trkpt>
      <trkpt lat="48.68429" lon="-3.56303">
        <ele>24.6</ele>
        <time>2020-07-26T15:03:09.681Z</time>
      </trkpt>
      <trkpt lat="48.68428" lon="-3.56416">
        <ele>16.3</ele>
        <time>2020-07-26T15:03:18.055Z</time>
      </trkpt>
      <trkpt lat="48.68403" lon="-3.56568">
        <ele>12</ele>
        <time>2020-07-26T15:03:29.550Z</time>
      </trkpt>
      <trkpt lat="48.68378" lon="-3.56654">
        <ele>15.7</ele>
        <time>2020-07-26T15:03:36.413Z</time>
      </trkpt>
      <trkpt lat="48.68334" lon="-3.5666">
        <ele>19.5</ele>
        <time>2020-07-26T15:03:41.397Z</time>
      </trkpt>
      <trkpt lat="48.6829" lon="-3.56679">
        <ele>20.5</ele>
        <time>2020-07-26T15:03:46.446Z</time>
      </trkpt>
      <trkpt lat="48.68242" lon="-3.56685">
        <ele>22.8</ele>
        <time>2020-07-26T15:03:51.844Z</time>
      </trkpt>
      <trkpt lat="48.68204" lon="-3.56712">
        <ele>20.8</ele>
        <time>2020-07-26T15:03:56.486Z</time>
      </trkpt>
      <trkpt lat="48.68124" lon="-3.56776">
        <ele>23.6</ele>
        <time>2020-07-26T15:04:06.503Z</time>
      </trkpt>
      <trkpt lat="48.6803" lon="-3.5681">
        <ele>24.7</ele>
        <time>2020-07-26T15:04:17.237Z</time>
      </trkpt>
      <trkpt lat="48.67969" lon="-3.56862">
        <ele>19</ele>
        <time>2020-07-26T15:04:25.039Z</time>
      </trkpt>
      <trkpt lat="48.67921" lon="-3.569">
        <ele>17</ele>
        <time>2020-07-26T15:04:31.106Z</time>
      </trkpt>
      <trkpt lat="48.6783" lon="-3.5693">
        <ele>17.2</ele>
        <time>2020-07-26T15:04:41.481Z</time>
      </trkpt>
      <trkpt lat="48.67722" lon="-3.57032">
        <ele>17</ele>
        <time>2020-07-26T15:04:55.572Z</time>
      </trkpt>
      <trkpt lat="48.67636" lon="-3.57096">
        <ele>17</ele>
        <time>2020-07-26T15:05:06.272Z</time>
      </trkpt>
      <trkpt lat="48.67591" lon="-3.57115">
        <ele>17</ele>
        <time>2020-07-26T15:05:11.463Z</time>
      </trkpt>
      <trkpt lat="48.67541" lon="-3.57131">
        <ele>14</ele>
        <time>2020-07-26T15:05:17.161Z</time>
      </trkpt>
      <trkpt lat="48.6751" lon="-3.5718">
        <ele>7</ele>
        <time>2020-07-26T15:05:22.212Z</time>
      </trkpt>
      <trkpt lat="48.6753" lon="-3.57262">
        <ele>5.3</ele>
        <time>2020-07-26T15:05:28.626Z</time>
      </trkpt>
      <trkpt lat="48.67517" lon="-3.57279">
        <ele>4.45</ele>
        <time>2020-07-26T15:05:30.561Z</time>
      </trkpt>
      <trkpt lat="48.67504" lon="-3.57298">
        <ele>4.025</ele>
        <time>2020-07-26T15:05:32.507Z</time>
      </trkpt>
      <trkpt lat="48.67492" lon="-3.57316">
        <ele>3.6</ele>
        <time>2020-07-26T15:05:34.410Z</time>
      </trkpt>
      <trkpt lat="48.67481" lon="-3.57334">
        <ele>3</ele>
        <time>2020-07-26T15:05:36.267Z</time>
      </trkpt>
      <trkpt lat="48.6747" lon="-3.57352">
        <ele>3</ele>
        <time>2020-07-26T15:05:38.076Z</time>
      </trkpt>
      <trkpt lat="48.67459" lon="-3.57371">
        <ele>3</ele>
        <time>2020-07-26T15:05:39.873Z</time>
      </trkpt>
      <trkpt lat="48.67448" lon="-3.57389">
        <ele>3</ele>
        <time>2020-07-26T15:05:41.681Z</time>
      </trkpt>
      <trkpt lat="48.67437" lon="-3.57408">
        <ele>3</ele>
        <time>2020-07-26T15:05:43.526Z</time>
      </trkpt>
      <trkpt lat="48.67426" lon="-3.57427">
        <ele>6.05</ele>
        <time>2020-07-26T15:05:45.405Z</time>
      </trkpt>
      <trkpt lat="48.67414" lon="-3.57446">
        <ele>9.1</ele>
        <time>2020-07-26T15:05:47.299Z</time>
      </trkpt>
      <trkpt lat="48.67403" lon="-3.57465">
        <ele>4.8</ele>
        <time>2020-07-26T15:05:49.231Z</time>
      </trkpt>
      <trkpt lat="48.67392" lon="-3.57484">
        <ele>0.6</ele>
        <time>2020-07-26T15:05:51.117Z</time>
      </trkpt>
      <trkpt lat="48.67382" lon="-3.57502">
        <ele>-3</ele>
        <time>2020-07-26T15:05:52.876Z</time>
      </trkpt>
      <trkpt lat="48.67372" lon="-3.57518">
        <ele>-3</ele>
        <time>2020-07-26T15:05:54.518Z</time>
      </trkpt>
      <trkpt lat="48.67362" lon="-3.57534">
        <ele>-3</ele>
        <time>2020-07-26T15:05:56.107Z</time>
      </trkpt>
      <trkpt lat="48.67353" lon="-3.5755">
        <ele>-3</ele>
        <time>2020-07-26T15:05:57.654Z</time>
      </trkpt>
      <trkpt lat="48.67344" lon="-3.57565">
        <ele>-3</ele>
        <time>2020-07-26T15:05:59.154Z</time>
      </trkpt>
      <trkpt lat="48.67335" lon="-3.5758">
        <ele>-3</ele>
        <time>2020-07-26T15:06:00.621Z</time>
      </trkpt>
      <trkpt lat="48.67327" lon="-3.57595">
        <ele>12</ele>
        <time>2020-07-26T15:06:02.697Z</time>
      </trkpt>
      <trkpt lat="48.67318" lon="-3.57609">
        <ele>12</ele>
        <time>2020-07-26T15:06:04.079Z</time>
      </trkpt>
      <trkpt lat="48.6731" lon="-3.57622">
        <ele>12</ele>
        <time>2020-07-26T15:06:05.434Z</time>
      </trkpt>
      <trkpt lat="48.67302" lon="-3.57636">
        <ele>12</ele>
        <time>2020-07-26T15:06:06.754Z</time>
      </trkpt>
      <trkpt lat="48.67294" lon="-3.57649">
        <ele>12</ele>
        <time>2020-07-26T15:06:08.073Z</time>
      </trkpt>
      <trkpt lat="48.67286" lon="-3.57663">
        <ele>12</ele>
        <time>2020-07-26T15:06:09.435Z</time>
      </trkpt>
      <trkpt lat="48.67278" lon="-3.57677">
        <ele>10.15</ele>
        <time>2020-07-26T15:06:10.828Z</time>
      </trkpt>
      <trkpt lat="48.67269" lon="-3.57692">
        <ele>9.225</ele>
        <time>2020-07-26T15:06:12.270Z</time>
      </trkpt>
      <trkpt lat="48.6726" lon="-3.57706">
        <ele>8.7625</ele>
        <time>2020-07-26T15:06:13.738Z</time>
      </trkpt>
      <trkpt lat="48.67251" lon="-3.57721">
        <ele>8.53125</ele>
        <time>2020-07-26T15:06:15.187Z</time>
      </trkpt>
      <trkpt lat="48.67243" lon="-3.57735">
        <ele>8.3</ele>
        <time>2020-07-26T15:06:16.576Z</time>
      </trkpt>
      <trkpt lat="48.67235" lon="-3.57747">
        <ele>5.5</ele>
        <time>2020-07-26T15:06:17.885Z</time>
      </trkpt>
      <trkpt lat="48.67228" lon="-3.57759">
        <ele>5</ele>
        <time>2020-07-26T15:06:19.039Z</time>
      </trkpt>
      <trkpt lat="48.67222" lon="-3.57768">
        <ele>5</ele>
        <time>2020-07-26T15:06:20.026Z</time>
      </trkpt>
      <trkpt lat="48.67217" lon="-3.57776">
        <ele>5</ele>
        <time>2020-07-26T15:06:20.819Z</time>
      </trkpt>
      <trkpt lat="48.67213" lon="-3.57782">
        <ele>5</ele>
        <time>2020-07-26T15:06:21.460Z</time>
      </trkpt>
      <trkpt lat="48.67209" lon="-3.57788">
        <ele>5</ele>
        <time>2020-07-26T15:06:22.000Z</time>
      </trkpt>
      <trkpt lat="48.67207" lon="-3.57793">
        <ele>5</ele>
        <time>2020-07-26T15:06:22.458Z</time>
      </trkpt>
      <trkpt lat="48.67204" lon="-3.57797">
        <ele>5</ele>
        <time>2020-07-26T15:06:22.891Z</time>
      </trkpt>
      <trkpt lat="48.67202" lon="-3.57802">
        <ele>5</ele>
        <time>2020-07-26T15:06:23.345Z</time>
      </trkpt>
      <trkpt lat="48.67198" lon="-3.57807">
        <ele>5</ele>
        <time>2020-07-26T15:06:23.908Z</time>
      </trkpt>
      <trkpt lat="48.67193" lon="-3.57813">
        <ele>5</ele>
        <time>2020-07-26T15:06:24.563Z</time>
      </trkpt>
      <trkpt lat="48.67188" lon="-3.5782">
        <ele>5</ele>
        <time>2020-07-26T15:06:25.376Z</time>
      </trkpt>
      <trkpt lat="48.67181" lon="-3.57829">
        <ele>5</ele>
        <time>2020-07-26T15:06:26.341Z</time>
      </trkpt>
      <trkpt lat="48.67174" lon="-3.57839">
        <ele>4.5</ele>
        <time>2020-07-26T15:06:27.439Z</time>
      </trkpt>
      <trkpt lat="48.67166" lon="-3.57851">
        <ele>4</ele>
        <time>2020-07-26T15:06:28.699Z</time>
      </trkpt>
      <trkpt lat="48.67157" lon="-3.57865">
        <ele>4</ele>
        <time>2020-07-26T15:06:30.103Z</time>
      </trkpt>
      <trkpt lat="48.67148" lon="-3.57879">
        <ele>4</ele>
        <time>2020-07-26T15:06:31.637Z</time>
      </trkpt>
      <trkpt lat="48.67137" lon="-3.57895">
        <ele>4</ele>
        <time>2020-07-26T15:06:33.300Z</time>
      </trkpt>
      <trkpt lat="48.67126" lon="-3.57912">
        <ele>4</ele>
        <time>2020-07-26T15:06:35.072Z</time>
      </trkpt>
      <trkpt lat="48.67114" lon="-3.5793">
        <ele>3.55</ele>
        <time>2020-07-26T15:06:36.871Z</time>
      </trkpt>
      <trkpt lat="48.67103" lon="-3.57948">
        <ele>3.325</ele>
        <time>2020-07-26T15:06:38.716Z</time>
      </trkpt>
      <trkpt lat="48.67092" lon="-3.57967">
        <ele>3.2125</ele>
        <time>2020-07-26T15:06:40.570Z</time>
      </trkpt>
      <trkpt lat="48.67082" lon="-3.57987">
        <ele>3.1</ele>
        <time>2020-07-26T15:06:42.437Z</time>
      </trkpt>
      <trkpt lat="48.67072" lon="-3.58008">
        <ele>3</ele>
        <time>2020-07-26T15:06:44.314Z</time>
      </trkpt>
      <trkpt lat="48.67063" lon="-3.5803">
        <ele>3</ele>
        <time>2020-07-26T15:06:46.193Z</time>
      </trkpt>
      <trkpt lat="48.67054" lon="-3.58052">
        <ele>3</ele>
        <time>2020-07-26T15:06:48.058Z</time>
      </trkpt>
      <trkpt lat="48.67047" lon="-3.58074">
        <ele>3</ele>
        <time>2020-07-26T15:06:49.917Z</time>
      </trkpt>
      <trkpt lat="48.6704" lon="-3.58097">
        <ele>4.95</ele>
        <time>2020-07-26T15:06:51.751Z</time>
      </trkpt>
      <trkpt lat="48.67033" lon="-3.5812">
        <ele>5.925</ele>
        <time>2020-07-26T15:06:53.588Z</time>
      </trkpt>
      <trkpt lat="48.67028" lon="-3.58143">
        <ele>6.4125</ele>
        <time>2020-07-26T15:06:55.378Z</time>
      </trkpt>
      <trkpt lat="48.67024" lon="-3.58167">
        <ele>6.65625</ele>
        <time>2020-07-26T15:06:57.173Z</time>
      </trkpt>
      <trkpt lat="48.67021" lon="-3.58191">
        <ele>6.778125</ele>
        <time>2020-07-26T15:06:58.966Z</time>
      </trkpt>
      <trkpt lat="48.6702" lon="-3.58215">
        <ele>6.8390625</ele>
        <time>2020-07-26T15:07:00.777Z</time>
      </trkpt>
      <trkpt lat="48.67019" lon="-3.5824">
        <ele>6.86953125</ele>
        <time>2020-07-26T15:07:02.604Z</time>
      </trkpt>
      <trkpt lat="48.67019" lon="-3.58265">
        <ele>6.884765625</ele>
        <time>2020-07-26T15:07:04.450Z</time>
      </trkpt>
      <trkpt lat="48.67019" lon="-3.58291">
        <ele>6.8923828125</ele>
        <time>2020-07-26T15:07:06.327Z</time>
      </trkpt>
      <trkpt lat="48.67021" lon="-3.58316">
        <ele>6.89619140625</ele>
        <time>2020-07-26T15:07:08.192Z</time>
      </trkpt>
      <trkpt lat="48.67024" lon="-3.58341">
        <ele>6.898095703125</ele>
        <time>2020-07-26T15:07:10.080Z</time>
      </trkpt>
      <trkpt lat="48.67027" lon="-3.58367">
        <ele>6.8990478515625</ele>
        <time>2020-07-26T15:07:11.977Z</time>
      </trkpt>
      <trkpt lat="48.67031" lon="-3.58392">
        <ele>6.8995239257813</ele>
        <time>2020-07-26T15:07:13.862Z</time>
      </trkpt>
      <trkpt lat="48.67035" lon="-3.58416">
        <ele>6.8997619628907</ele>
        <time>2020-07-26T15:07:15.724Z</time>
      </trkpt>
      <trkpt lat="48.67039" lon="-3.58441">
        <ele>6.8998809814454</ele>
        <time>2020-07-26T15:07:17.562Z</time>
      </trkpt>
      <trkpt lat="48.67042" lon="-3.58465">
        <ele>6.8999404907227</ele>
        <time>2020-07-26T15:07:19.371Z</time>
      </trkpt>
      <trkpt lat="48.67046" lon="-3.58488">
        <ele>6.8999702453614</ele>
        <time>2020-07-26T15:07:21.124Z</time>
      </trkpt>
      <trkpt lat="48.67049" lon="-3.5851">
        <ele>6.8999851226807</ele>
        <time>2020-07-26T15:07:22.806Z</time>
      </trkpt>
      <trkpt lat="48.67052" lon="-3.58532">
        <ele>6.8999925613404</ele>
        <time>2020-07-26T15:07:24.400Z</time>
      </trkpt>
      <trkpt lat="48.67055" lon="-3.58552">
        <ele>6.8999962806702</ele>
        <time>2020-07-26T15:07:25.953Z</time>
      </trkpt>
      <trkpt lat="48.67058" lon="-3.58572">
        <ele>6.8999981403351</ele>
        <time>2020-07-26T15:07:27.460Z</time>
      </trkpt>
      <trkpt lat="48.67061" lon="-3.58592">
        <ele>6.8999990701676</ele>
        <time>2020-07-26T15:07:28.927Z</time>
      </trkpt>
      <trkpt lat="48.67064" lon="-3.58611">
        <ele>6.8999995350838</ele>
        <time>2020-07-26T15:07:30.359Z</time>
      </trkpt>
      <trkpt lat="48.67067" lon="-3.5863">
        <ele>6.8999997675419</ele>
        <time>2020-07-26T15:07:31.799Z</time>
      </trkpt>
      <trkpt lat="48.67071" lon="-3.58648">
        <ele>6.8999998837709</ele>
        <time>2020-07-26T15:07:33.239Z</time>
      </trkpt>
      <trkpt lat="48.67075" lon="-3.58667">
        <ele>6.9</ele>
        <time>2020-07-26T15:07:34.712Z</time>
      </trkpt>
      <trkpt lat="48.67081" lon="-3.58686">
        <ele>6.3</ele>
        <time>2020-07-26T15:07:36.199Z</time>
      </trkpt>
      <trkpt lat="48.67087" lon="-3.58704">
        <ele>6</ele>
        <time>2020-07-26T15:07:37.660Z</time>
      </trkpt>
      <trkpt lat="48.67093" lon="-3.5872">
        <ele>6</ele>
        <time>2020-07-26T15:07:39.088Z</time>
      </trkpt>
      <trkpt lat="48.67101" lon="-3.58735">
        <ele>6</ele>
        <time>2020-07-26T15:07:40.459Z</time>
      </trkpt>
      <trkpt lat="48.67108" lon="-3.5875">
        <ele>6</ele>
        <time>2020-07-26T15:07:41.832Z</time>
      </trkpt>
      <trkpt lat="48.67116" lon="-3.58765">
        <ele>6</ele>
        <time>2020-07-26T15:07:43.203Z</time>
      </trkpt>
      <trkpt lat="48.67123" lon="-3.5878">
        <ele>6</ele>
        <time>2020-07-26T15:07:44.555Z</time>
      </trkpt>
      <trkpt lat="48.6713" lon="-3.58795">
        <ele>6</ele>
        <time>2020-07-26T15:07:45.915Z</time>
      </trkpt>
      <trkpt lat="48.67137" lon="-3.58811">
        <ele>6</ele>
        <time>2020-07-26T15:07:47.295Z</time>
      </trkpt>
      <trkpt lat="48.67142" lon="-3.58827">
        <ele>6</ele>
        <time>2020-07-26T15:07:48.682Z</time>
      </trkpt>
      <trkpt lat="48.67147" lon="-3.58845">
        <ele>5.75</ele>
        <time>2020-07-26T15:07:50.064Z</time>
      </trkpt>
      <trkpt lat="48.67149" lon="-3.58863">
        <ele>5.625</ele>
        <time>2020-07-26T15:07:51.431Z</time>
      </trkpt>
      <trkpt lat="48.67149" lon="-3.58882">
        <ele>5.5625</ele>
        <time>2020-07-26T15:07:52.792Z</time>
      </trkpt>
      <trkpt lat="48.67149" lon="-3.58901">
        <ele>5.53125</ele>
        <time>2020-07-26T15:07:54.165Z</time>
      </trkpt>
      <trkpt lat="48.67146" lon="-3.58919">
        <ele>5.515625</ele>
        <time>2020-07-26T15:07:55.561Z</time>
      </trkpt>
      <trkpt lat="48.67143" lon="-3.58937">
        <ele>5.5078125</ele>
        <time>2020-07-26T15:07:56.931Z</time>
      </trkpt>
      <trkpt lat="48.67139" lon="-3.58955">
        <ele>5.50390625</ele>
        <time>2020-07-26T15:07:58.302Z</time>
      </trkpt>
      <trkpt lat="48.67134" lon="-3.58973">
        <ele>5.501953125</ele>
        <time>2020-07-26T15:07:59.745Z</time>
      </trkpt>
      <trkpt lat="48.67128" lon="-3.5899">
        <ele>5.5009765625</ele>
        <time>2020-07-26T15:08:01.145Z</time>
      </trkpt>
      <trkpt lat="48.67121" lon="-3.59006">
        <ele>5.50048828125</ele>
        <time>2020-07-26T15:08:02.574Z</time>
      </trkpt>
      <trkpt lat="48.67114" lon="-3.59023">
        <ele>5.500244140625</ele>
        <time>2020-07-26T15:08:04.058Z</time>
      </trkpt>
      <trkpt lat="48.67105" lon="-3.59039">
        <ele>5.5001220703125</ele>
        <time>2020-07-26T15:08:05.553Z</time>
      </trkpt>
      <trkpt lat="48.67097" lon="-3.59055">
        <ele>5.5000610351562</ele>
        <time>2020-07-26T15:08:07.059Z</time>
      </trkpt>
      <trkpt lat="48.67088" lon="-3.59071">
        <ele>5.5000305175781</ele>
        <time>2020-07-26T15:08:08.547Z</time>
      </trkpt>
      <trkpt lat="48.6708" lon="-3.59086">
        <ele>5.5000152587891</ele>
        <time>2020-07-26T15:08:10.038Z</time>
      </trkpt>
      <trkpt lat="48.67072" lon="-3.59102">
        <ele>5.5000076293945</ele>
        <time>2020-07-26T15:08:11.498Z</time>
      </trkpt>
      <trkpt lat="48.67063" lon="-3.59116">
        <ele>5.5000038146972</ele>
        <time>2020-07-26T15:08:12.916Z</time>
      </trkpt>
      <trkpt lat="48.67056" lon="-3.59131">
        <ele>5.5000019073486</ele>
        <time>2020-07-26T15:08:14.256Z</time>
      </trkpt>
      <trkpt lat="48.67048" lon="-3.59145">
        <ele>5.5000009536743</ele>
        <time>2020-07-26T15:08:15.600Z</time>
      </trkpt>
      <trkpt lat="48.67041" lon="-3.59159">
        <ele>5.5000004768372</ele>
        <time>2020-07-26T15:08:16.907Z</time>
      </trkpt>
      <trkpt lat="48.67033" lon="-3.59172">
        <ele>5.5000002384186</ele>
        <time>2020-07-26T15:08:18.181Z</time>
      </trkpt>
      <trkpt lat="48.67026" lon="-3.59185">
        <ele>5.5000001192093</ele>
        <time>2020-07-26T15:08:19.414Z</time>
      </trkpt>
      <trkpt lat="48.67019" lon="-3.59197">
        <ele>5.5000000596047</ele>
        <time>2020-07-26T15:08:20.606Z</time>
      </trkpt>
      <trkpt lat="48.67013" lon="-3.5921">
        <ele>5.5000000298023</ele>
        <time>2020-07-26T15:08:21.777Z</time>
      </trkpt>
      <trkpt lat="48.67006" lon="-3.59222">
        <ele>5.5000000149012</ele>
        <time>2020-07-26T15:08:22.998Z</time>
      </trkpt>
      <trkpt lat="48.66999" lon="-3.59235">
        <ele>5.5</ele>
        <time>2020-07-26T15:08:24.244Z</time>
      </trkpt>
      <trkpt lat="48.66991" lon="-3.59249">
        <ele>4</ele>
        <time>2020-07-26T15:08:25.577Z</time>
      </trkpt>
      <trkpt lat="48.66983" lon="-3.59264">
        <ele>4</ele>
        <time>2020-07-26T15:08:26.942Z</time>
      </trkpt>
      <trkpt lat="48.66975" lon="-3.59279">
        <ele>4</ele>
        <time>2020-07-26T15:08:28.366Z</time>
      </trkpt>
      <trkpt lat="48.66967" lon="-3.59294">
        <ele>4</ele>
        <time>2020-07-26T15:08:29.798Z</time>
      </trkpt>
      <trkpt lat="48.6696" lon="-3.59309">
        <ele>4</ele>
        <time>2020-07-26T15:08:31.197Z</time>
      </trkpt>
      <trkpt lat="48.66952" lon="-3.59324">
        <ele>4</ele>
        <time>2020-07-26T15:08:32.560Z</time>
      </trkpt>
      <trkpt lat="48.66944" lon="-3.59338">
        <ele>5.45</ele>
        <time>2020-07-26T15:08:33.892Z</time>
      </trkpt>
      <trkpt lat="48.66937" lon="-3.59352">
        <ele>6.175</ele>
        <time>2020-07-26T15:08:35.249Z</time>
      </trkpt>
      <trkpt lat="48.66929" lon="-3.59367">
        <ele>6.5375</ele>
        <time>2020-07-26T15:08:36.624Z</time>
      </trkpt>
      <trkpt lat="48.66921" lon="-3.59382">
        <ele>6.71875</ele>
        <time>2020-07-26T15:08:38.003Z</time>
      </trkpt>
      <trkpt lat="48.66914" lon="-3.59397">
        <ele>6.9</ele>
        <time>2020-07-26T15:08:39.395Z</time>
      </trkpt>
      <trkpt lat="48.66907" lon="-3.59413">
        <ele>6.2</ele>
        <time>2020-07-26T15:08:40.828Z</time>
      </trkpt>
      <trkpt lat="48.669" lon="-3.5943">
        <ele>5.8</ele>
        <time>2020-07-26T15:08:42.278Z</time>
      </trkpt>
      <trkpt lat="48.66893" lon="-3.59446">
        <ele>5.6</ele>
        <time>2020-07-26T15:08:43.709Z</time>
      </trkpt>
      <trkpt lat="48.66887" lon="-3.59463">
        <ele>5.4</ele>
        <time>2020-07-26T15:08:45.091Z</time>
      </trkpt>
      <trkpt lat="48.66881" lon="-3.59479">
        <ele>5.3</ele>
        <time>2020-07-26T15:08:46.415Z</time>
      </trkpt>
      <trkpt lat="48.66877" lon="-3.59494">
        <ele>5.1</ele>
        <time>2020-07-26T15:08:47.690Z</time>
      </trkpt>
      <trkpt lat="48.66873" lon="-3.5951">
        <ele>5.1</ele>
        <time>2020-07-26T15:08:48.898Z</time>
      </trkpt>
      <trkpt lat="48.66868" lon="-3.59525">
        <ele>5.3</ele>
        <time>2020-07-26T15:08:50.118Z</time>
      </trkpt>
      <trkpt lat="48.66864" lon="-3.59541">
        <ele>5.5</ele>
        <time>2020-07-26T15:08:51.399Z</time>
      </trkpt>
      <trkpt lat="48.6686" lon="-3.59558">
        <ele>5.7</ele>
        <time>2020-07-26T15:08:52.702Z</time>
      </trkpt>
      <trkpt lat="48.66856" lon="-3.59575">
        <ele>5.9</ele>
        <time>2020-07-26T15:08:54.022Z</time>
      </trkpt>
      <trkpt lat="48.66853" lon="-3.59592">
        <ele>6</ele>
        <time>2020-07-26T15:08:55.363Z</time>
      </trkpt>
      <trkpt lat="48.66851" lon="-3.5961">
        <ele>6</ele>
        <time>2020-07-26T15:08:56.707Z</time>
      </trkpt>
      <trkpt lat="48.66852" lon="-3.59628">
        <ele>6</ele>
        <time>2020-07-26T15:08:57.987Z</time>
      </trkpt>
      <trkpt lat="48.66853" lon="-3.59645">
        <ele>6</ele>
        <time>2020-07-26T15:08:59.252Z</time>
      </trkpt>
      <trkpt lat="48.66854" lon="-3.59662">
        <ele>6</ele>
        <time>2020-07-26T15:09:00.495Z</time>
      </trkpt>
      <trkpt lat="48.66855" lon="-3.59679">
        <ele>6.5</ele>
        <time>2020-07-26T15:09:01.773Z</time>
      </trkpt>
      <trkpt lat="48.66856" lon="-3.59697">
        <ele>7.1</ele>
        <time>2020-07-26T15:09:03.078Z</time>
      </trkpt>
      <trkpt lat="48.66858" lon="-3.59714">
        <ele>7.7</ele>
        <time>2020-07-26T15:09:04.375Z</time>
      </trkpt>
      <trkpt lat="48.66859" lon="-3.59731">
        <ele>8.3</ele>
        <time>2020-07-26T15:09:05.635Z</time>
      </trkpt>
      <trkpt lat="48.66861" lon="-3.59748">
        <ele>8.9</ele>
        <time>2020-07-26T15:09:06.862Z</time>
      </trkpt>
      <trkpt lat="48.66862" lon="-3.59764">
        <ele>9.2</ele>
        <time>2020-07-26T15:09:08.049Z</time>
      </trkpt>
      <trkpt lat="48.66863" lon="-3.5978">
        <ele>9.4</ele>
        <time>2020-07-26T15:09:09.206Z</time>
      </trkpt>
      <trkpt lat="48.66846" lon="-3.59881">
        <ele>9.5</ele>
        <time>2020-07-26T15:09:16.902Z</time>
      </trkpt>
      <trkpt lat="48.66829" lon="-3.60077">
        <ele>9.7</ele>
        <time>2020-07-26T15:09:31.412Z</time>
      </trkpt>
      <trkpt lat="48.66816" lon="-3.60217">
        <ele>9.9</ele>
        <time>2020-07-26T15:09:41.810Z</time>
      </trkpt>
      <trkpt lat="48.66814" lon="-3.60271">
        <ele>10</ele>
        <time>2020-07-26T15:09:45.777Z</time>
      </trkpt>
      <trkpt lat="48.66825" lon="-3.60414">
        <ele>9.3</ele>
        <time>2020-07-26T15:09:56.354Z</time>
      </trkpt>
      <trkpt lat="48.66861" lon="-3.60539">
        <ele>8.5</ele>
        <time>2020-07-26T15:10:06.306Z</time>
      </trkpt>
      <trkpt lat="48.66883" lon="-3.60627">
        <ele>9.1</ele>
        <time>2020-07-26T15:10:13.252Z</time>
      </trkpt>
      <trkpt lat="48.66879" lon="-3.60772">
        <ele>11.4</ele>
        <time>2020-07-26T15:10:23.894Z</time>
      </trkpt>
      <trkpt lat="48.66892" lon="-3.6089">
        <ele>9.2</ele>
        <time>2020-07-26T15:10:32.680Z</time>
      </trkpt>
      <trkpt lat="48.66905" lon="-3.6097">
        <ele>6.6</ele>
        <time>2020-07-26T15:10:38.704Z</time>
      </trkpt>
      <trkpt lat="48.66895" lon="-3.61129">
        <ele>17.9</ele>
        <time>2020-07-26T15:10:50.504Z</time>
      </trkpt>
      <trkpt lat="48.66889" lon="-3.61222">
        <ele>25.3</ele>
        <time>2020-07-26T15:10:57.398Z</time>
      </trkpt>
      <trkpt lat="48.66909" lon="-3.61342">
        <ele>28.7</ele>
        <time>2020-07-26T15:11:06.521Z</time>
      </trkpt>
      <trkpt lat="48.66913" lon="-3.61431">
        <ele>36.6</ele>
        <time>2020-07-26T15:11:13.076Z</time>
      </trkpt>
      <trkpt lat="48.66897" lon="-3.61578">
        <ele>43.7</ele>
        <time>2020-07-26T15:11:24.053Z</time>
      </trkpt>
      <trkpt lat="48.66875" lon="-3.6166">
        <ele>44.9</ele>
        <time>2020-07-26T15:11:30.514Z</time>
      </trkpt>
      <trkpt lat="48.66887" lon="-3.61671">
        <ele>44.6</ele>
        <time>2020-07-26T15:11:32.094Z</time>
      </trkpt>
      <trkpt lat="48.66886" lon="-3.61681">
        <ele>44.4</ele>
        <time>2020-07-26T15:11:32.776Z</time>
      </trkpt>
      <trkpt lat="48.66886" lon="-3.61689">
        <ele>44.3</ele>
        <time>2020-07-26T15:11:33.376Z</time>
      </trkpt>
      <trkpt lat="48.66889" lon="-3.61695">
        <ele>44.1</ele>
        <time>2020-07-26T15:11:33.907Z</time>
      </trkpt>
      <trkpt lat="48.66896" lon="-3.61698">
        <ele>43.9</ele>
        <time>2020-07-26T15:11:34.726Z</time>
      </trkpt>
      <trkpt lat="48.66906" lon="-3.617">
        <ele>43.8</ele>
        <time>2020-07-26T15:11:35.861Z</time>
      </trkpt>
      <trkpt lat="48.66916" lon="-3.61701">
        <ele>43.6</ele>
        <time>2020-07-26T15:11:37.032Z</time>
      </trkpt>
      <trkpt lat="48.66927" lon="-3.61702">
        <ele>43.6</ele>
        <time>2020-07-26T15:11:38.241Z</time>
      </trkpt>
      <trkpt lat="48.66938" lon="-3.61704">
        <ele>43.7</ele>
        <time>2020-07-26T15:11:39.488Z</time>
      </trkpt>
      <trkpt lat="48.66951" lon="-3.61706">
        <ele>43.7</ele>
        <time>2020-07-26T15:11:40.907Z</time>
      </trkpt>
      <trkpt lat="48.66966" lon="-3.6171">
        <ele>43.8</ele>
        <time>2020-07-26T15:11:42.619Z</time>
      </trkpt>
      <trkpt lat="48.66983" lon="-3.61714">
        <ele>43.9</ele>
        <time>2020-07-26T15:11:44.514Z</time>
      </trkpt>
      <trkpt lat="48.67" lon="-3.61718">
        <ele>44</ele>
        <time>2020-07-26T15:11:46.427Z</time>
      </trkpt>
      <trkpt lat="48.67018" lon="-3.61723">
        <ele>44.3</ele>
        <time>2020-07-26T15:11:48.442Z</time>
      </trkpt>
      <trkpt lat="48.67034" lon="-3.61727">
        <ele>44.5</ele>
        <time>2020-07-26T15:11:50.298Z</time>
      </trkpt>
      <trkpt lat="48.6705" lon="-3.61731">
        <ele>44.7</ele>
        <time>2020-07-26T15:11:52.117Z</time>
      </trkpt>
      <trkpt lat="48.67068" lon="-3.61736">
        <ele>45</ele>
        <time>2020-07-26T15:11:54.143Z</time>
      </trkpt>
      <trkpt lat="48.67084" lon="-3.6174">
        <ele>45.1</ele>
        <time>2020-07-26T15:11:55.903Z</time>
      </trkpt>
      <trkpt lat="48.67099" lon="-3.61743">
        <ele>44.7</ele>
        <time>2020-07-26T15:11:57.587Z</time>
      </trkpt>
      <trkpt lat="48.67113" lon="-3.61744">
        <ele>44.4</ele>
        <time>2020-07-26T15:11:59.148Z</time>
      </trkpt>
      <trkpt lat="48.67126" lon="-3.61744">
        <ele>44</ele>
        <time>2020-07-26T15:12:00.593Z</time>
      </trkpt>
      <trkpt lat="48.6714" lon="-3.61743">
        <ele>43.7</ele>
        <time>2020-07-26T15:12:02.119Z</time>
      </trkpt>
      <trkpt lat="48.67154" lon="-3.6174">
        <ele>43.4</ele>
        <time>2020-07-26T15:12:03.742Z</time>
      </trkpt>
      <trkpt lat="48.67169" lon="-3.61736">
        <ele>43.1</ele>
        <time>2020-07-26T15:12:05.429Z</time>
      </trkpt>
      <trkpt lat="48.67186" lon="-3.61732">
        <ele>42.9</ele>
        <time>2020-07-26T15:12:07.292Z</time>
      </trkpt>
      <trkpt lat="48.67204" lon="-3.61728">
        <ele>42.7</ele>
        <time>2020-07-26T15:12:09.312Z</time>
      </trkpt>
      <trkpt lat="48.67222" lon="-3.61724">
        <ele>42.4</ele>
        <time>2020-07-26T15:12:11.396Z</time>
      </trkpt>
      <trkpt lat="48.67241" lon="-3.6172">
        <ele>42.1</ele>
        <time>2020-07-26T15:12:13.511Z</time>
      </trkpt>
      <trkpt lat="48.6726" lon="-3.61716">
        <ele>42.2</ele>
        <time>2020-07-26T15:12:15.699Z</time>
      </trkpt>
      <trkpt lat="48.6728" lon="-3.61714">
        <ele>42.6</ele>
        <time>2020-07-26T15:12:17.836Z</time>
      </trkpt>
      <trkpt lat="48.67299" lon="-3.61713">
        <ele>42.9</ele>
        <time>2020-07-26T15:12:19.952Z</time>
      </trkpt>
      <trkpt lat="48.67317" lon="-3.61715">
        <ele>43.3</ele>
        <time>2020-07-26T15:12:21.991Z</time>
      </trkpt>
      <trkpt lat="48.67335" lon="-3.61718">
        <ele>43.7</ele>
        <time>2020-07-26T15:12:23.973Z</time>
      </trkpt>
      <trkpt lat="48.67352" lon="-3.61723">
        <ele>44.3</ele>
        <time>2020-07-26T15:12:25.896Z</time>
      </trkpt>
      <trkpt lat="48.67368" lon="-3.61729">
        <ele>44.9</ele>
        <time>2020-07-26T15:12:27.785Z</time>
      </trkpt>
      <trkpt lat="48.67384" lon="-3.61736">
        <ele>45.6</ele>
        <time>2020-07-26T15:12:29.608Z</time>
      </trkpt>
      <trkpt lat="48.67399" lon="-3.61746">
        <ele>46.3</ele>
        <time>2020-07-26T15:12:31.486Z</time>
      </trkpt>
      <trkpt lat="48.67415" lon="-3.61758">
        <ele>46.7</ele>
        <time>2020-07-26T15:12:33.385Z</time>
      </trkpt>
      <trkpt lat="48.67429" lon="-3.6177">
        <ele>46.1</ele>
        <time>2020-07-26T15:12:35.274Z</time>
      </trkpt>
      <trkpt lat="48.67445" lon="-3.61782">
        <ele>45.5</ele>
        <time>2020-07-26T15:12:37.167Z</time>
      </trkpt>
      <trkpt lat="48.6746" lon="-3.61792">
        <ele>44.9</ele>
        <time>2020-07-26T15:12:39.067Z</time>
      </trkpt>
      <trkpt lat="48.67476" lon="-3.61802">
        <ele>44.5</ele>
        <time>2020-07-26T15:12:40.965Z</time>
      </trkpt>
      <trkpt lat="48.67491" lon="-3.61812">
        <ele>44.2</ele>
        <time>2020-07-26T15:12:42.835Z</time>
      </trkpt>
      <trkpt lat="48.67507" lon="-3.61824">
        <ele>44.1</ele>
        <time>2020-07-26T15:12:44.744Z</time>
      </trkpt>
      <trkpt lat="48.67522" lon="-3.61836">
        <ele>44.3</ele>
        <time>2020-07-26T15:12:46.692Z</time>
      </trkpt>
      <trkpt lat="48.67538" lon="-3.61848">
        <ele>44.5</ele>
        <time>2020-07-26T15:12:48.656Z</time>
      </trkpt>
      <trkpt lat="48.67554" lon="-3.61861">
        <ele>44.9</ele>
        <time>2020-07-26T15:12:50.652Z</time>
      </trkpt>
      <trkpt lat="48.67569" lon="-3.61874">
        <ele>45.2</ele>
        <time>2020-07-26T15:12:52.639Z</time>
      </trkpt>
      <trkpt lat="48.67585" lon="-3.61887">
        <ele>45.7</ele>
        <time>2020-07-26T15:12:54.642Z</time>
      </trkpt>
      <trkpt lat="48.67601" lon="-3.619">
        <ele>46.1</ele>
        <time>2020-07-26T15:12:56.638Z</time>
      </trkpt>
      <trkpt lat="48.67617" lon="-3.61913">
        <ele>46.7</ele>
        <time>2020-07-26T15:12:58.637Z</time>
      </trkpt>
      <trkpt lat="48.67633" lon="-3.61926">
        <ele>47.4</ele>
        <time>2020-07-26T15:13:00.640Z</time>
      </trkpt>
      <trkpt lat="48.67648" lon="-3.61939">
        <ele>48.2</ele>
        <time>2020-07-26T15:13:02.593Z</time>
      </trkpt>
      <trkpt lat="48.67663" lon="-3.61952">
        <ele>49.2</ele>
        <time>2020-07-26T15:13:04.498Z</time>
      </trkpt>
      <trkpt lat="48.67676" lon="-3.61968">
        <ele>50.2</ele>
        <time>2020-07-26T15:13:06.342Z</time>
      </trkpt>
      <trkpt lat="48.67687" lon="-3.61986">
        <ele>51.2</ele>
        <time>2020-07-26T15:13:08.178Z</time>
      </trkpt>
      <trkpt lat="48.67698" lon="-3.62004">
        <ele>52.2</ele>
        <time>2020-07-26T15:13:09.999Z</time>
      </trkpt>
      <trkpt lat="48.6771" lon="-3.62019">
        <ele>52.8</ele>
        <time>2020-07-26T15:13:11.763Z</time>
      </trkpt>
      <trkpt lat="48.67725" lon="-3.6203">
        <ele>53.5</ele>
        <time>2020-07-26T15:13:13.551Z</time>
      </trkpt>
      <trkpt lat="48.6774" lon="-3.62038">
        <ele>54.1</ele>
        <time>2020-07-26T15:13:15.365Z</time>
      </trkpt>
      <trkpt lat="48.67756" lon="-3.62044">
        <ele>54.9</ele>
        <time>2020-07-26T15:13:17.156Z</time>
      </trkpt>
      <trkpt lat="48.67771" lon="-3.62048">
        <ele>55.8</ele>
        <time>2020-07-26T15:13:18.912Z</time>
      </trkpt>
      <trkpt lat="48.67786" lon="-3.62047">
        <ele>56.6</ele>
        <time>2020-07-26T15:13:20.564Z</time>
      </trkpt>
      <trkpt lat="48.678" lon="-3.62041">
        <ele>57.2</ele>
        <time>2020-07-26T15:13:22.141Z</time>
      </trkpt>
      <trkpt lat="48.67813" lon="-3.6203">
        <ele>57.4</ele>
        <time>2020-07-26T15:13:23.769Z</time>
      </trkpt>
      <trkpt lat="48.67825" lon="-3.6202">
        <ele>57.6</ele>
        <time>2020-07-26T15:13:25.334Z</time>
      </trkpt>
      <trkpt lat="48.67838" lon="-3.62013">
        <ele>58</ele>
        <time>2020-07-26T15:13:26.914Z</time>
      </trkpt>
      <trkpt lat="48.67853" lon="-3.62008">
        <ele>58.9</ele>
        <time>2020-07-26T15:13:28.559Z</time>
      </trkpt>
      <trkpt lat="48.67868" lon="-3.62003">
        <ele>60</ele>
        <time>2020-07-26T15:13:30.281Z</time>
      </trkpt>
      <trkpt lat="48.67884" lon="-3.61998">
        <ele>61.2</ele>
        <time>2020-07-26T15:13:32.074Z</time>
      </trkpt>
      <trkpt lat="48.679" lon="-3.61994">
        <ele>62.2</ele>
        <time>2020-07-26T15:13:33.884Z</time>
      </trkpt>
      <trkpt lat="48.67916" lon="-3.61991">
        <ele>63.3</ele>
        <time>2020-07-26T15:13:35.667Z</time>
      </trkpt>
      <trkpt lat="48.67932" lon="-3.61987">
        <ele>62.9</ele>
        <time>2020-07-26T15:13:37.464Z</time>
      </trkpt>
      <trkpt lat="48.67947" lon="-3.61982">
        <ele>62.5</ele>
        <time>2020-07-26T15:13:39.272Z</time>
      </trkpt>
      <trkpt lat="48.67963" lon="-3.61975">
        <ele>62.3</ele>
        <time>2020-07-26T15:13:41.124Z</time>
      </trkpt>
      <trkpt lat="48.67979" lon="-3.61965">
        <ele>62.2</ele>
        <time>2020-07-26T15:13:43.025Z</time>
      </trkpt>
      <trkpt lat="48.67995" lon="-3.61955">
        <ele>62.4</ele>
        <time>2020-07-26T15:13:44.914Z</time>
      </trkpt>
      <trkpt lat="48.6801" lon="-3.61946">
        <ele>61.8</ele>
        <time>2020-07-26T15:13:46.747Z</time>
      </trkpt>
      <trkpt lat="48.68025" lon="-3.61937">
        <ele>60.7</ele>
        <time>2020-07-26T15:13:48.513Z</time>
      </trkpt>
      <trkpt lat="48.68039" lon="-3.61929">
        <ele>59.6</ele>
        <time>2020-07-26T15:13:50.186Z</time>
      </trkpt>
      <trkpt lat="48.68053" lon="-3.61925">
        <ele>58.5</ele>
        <time>2020-07-26T15:13:51.746Z</time>
      </trkpt>
      <trkpt lat="48.68065" lon="-3.61925">
        <ele>57.4</ele>
        <time>2020-07-26T15:13:53.118Z</time>
      </trkpt>
      <trkpt lat="48.68076" lon="-3.61929">
        <ele>56.5</ele>
        <time>2020-07-26T15:13:54.360Z</time>
      </trkpt>
      <trkpt lat="48.68086" lon="-3.61937">
        <ele>55.5</ele>
        <time>2020-07-26T15:13:55.617Z</time>
      </trkpt>
      <trkpt lat="48.68095" lon="-3.61948">
        <ele>54.6</ele>
        <time>2020-07-26T15:13:56.957Z</time>
      </trkpt>
      <trkpt lat="48.68103" lon="-3.61964">
        <ele>53.7</ele>
        <time>2020-07-26T15:13:58.374Z</time>
      </trkpt>
      <trkpt lat="48.68108" lon="-3.61982">
        <ele>52.9</ele>
        <time>2020-07-26T15:13:59.847Z</time>
      </trkpt>
      <trkpt lat="48.68111" lon="-3.62003">
        <ele>52.2</ele>
        <time>2020-07-26T15:14:01.422Z</time>
      </trkpt>
      <trkpt lat="48.68114" lon="-3.62025">
        <ele>51.6</ele>
        <time>2020-07-26T15:14:03.084Z</time>
      </trkpt>
      <trkpt lat="48.68115" lon="-3.62049">
        <ele>51</ele>
        <time>2020-07-26T15:14:04.819Z</time>
      </trkpt>
      <trkpt lat="48.68117" lon="-3.62072">
        <ele>50.4</ele>
        <time>2020-07-26T15:14:06.540Z</time>
      </trkpt>
      <trkpt lat="48.68115" lon="-3.62096">
        <ele>50.4</ele>
        <time>2020-07-26T15:14:08.316Z</time>
      </trkpt>
      <trkpt lat="48.68113" lon="-3.62119">
        <ele>50.5</ele>
        <time>2020-07-26T15:14:10.028Z</time>
      </trkpt>
      <trkpt lat="48.68111" lon="-3.62143">
        <ele>50.6</ele>
        <time>2020-07-26T15:14:11.749Z</time>
      </trkpt>
      <trkpt lat="48.68112" lon="-3.62166">
        <ele>50.6</ele>
        <time>2020-07-26T15:14:13.453Z</time>
      </trkpt>
      <trkpt lat="48.68114" lon="-3.62188">
        <ele>50.4</ele>
        <time>2020-07-26T15:14:15.102Z</time>
      </trkpt>
      <trkpt lat="48.68117" lon="-3.62211">
        <ele>50</ele>
        <time>2020-07-26T15:14:16.805Z</time>
      </trkpt>
      <trkpt lat="48.68121" lon="-3.62234">
        <ele>49.5</ele>
        <time>2020-07-26T15:14:18.539Z</time>
      </trkpt>
      <trkpt lat="48.68125" lon="-3.62257">
        <ele>49.1</ele>
        <time>2020-07-26T15:14:20.289Z</time>
      </trkpt>
      <trkpt lat="48.6813" lon="-3.62279">
        <ele>49.3</ele>
        <time>2020-07-26T15:14:21.999Z</time>
      </trkpt>
      <trkpt lat="48.68134" lon="-3.62301">
        <ele>49.7</ele>
        <time>2020-07-26T15:14:23.675Z</time>
      </trkpt>
      <trkpt lat="48.68136" lon="-3.62324">
        <ele>50.2</ele>
        <time>2020-07-26T15:14:25.365Z</time>
      </trkpt>
      <trkpt lat="48.68138" lon="-3.62346">
        <ele>50.4</ele>
        <time>2020-07-26T15:14:27.051Z</time>
      </trkpt>
      <trkpt lat="48.68138" lon="-3.6237">
        <ele>50.5</ele>
        <time>2020-07-26T15:14:28.802Z</time>
      </trkpt>
      <trkpt lat="48.68138" lon="-3.62394">
        <ele>50.6</ele>
        <time>2020-07-26T15:14:30.564Z</time>
      </trkpt>
      <trkpt lat="48.68136" lon="-3.62419">
        <ele>50.8</ele>
        <time>2020-07-26T15:14:32.363Z</time>
      </trkpt>
      <trkpt lat="48.68133" lon="-3.62443">
        <ele>50.5</ele>
        <time>2020-07-26T15:14:34.213Z</time>
      </trkpt>
      <trkpt lat="48.6813" lon="-3.62469">
        <ele>50.1</ele>
        <time>2020-07-26T15:14:36.108Z</time>
      </trkpt>
      <trkpt lat="48.68127" lon="-3.62494">
        <ele>49.6</ele>
        <time>2020-07-26T15:14:38.010Z</time>
      </trkpt>
      <trkpt lat="48.68124" lon="-3.6252">
        <ele>48.8</ele>
        <time>2020-07-26T15:14:39.932Z</time>
      </trkpt>
      <trkpt lat="48.68121" lon="-3.62546">
        <ele>47.8</ele>
        <time>2020-07-26T15:14:41.853Z</time>
      </trkpt>
      <trkpt lat="48.68118" lon="-3.62572">
        <ele>46.8</ele>
        <time>2020-07-26T15:14:43.801Z</time>
      </trkpt>
      <trkpt lat="48.68115" lon="-3.62598">
        <ele>45.7</ele>
        <time>2020-07-26T15:14:45.757Z</time>
      </trkpt>
      <trkpt lat="48.68111" lon="-3.62624">
        <ele>44.5</ele>
        <time>2020-07-26T15:14:47.729Z</time>
      </trkpt>
      <trkpt lat="48.68108" lon="-3.62651">
        <ele>43.3</ele>
        <time>2020-07-26T15:14:49.706Z</time>
      </trkpt>
      <trkpt lat="48.68105" lon="-3.62678">
        <ele>41.9</ele>
        <time>2020-07-26T15:14:51.713Z</time>
      </trkpt>
      <trkpt lat="48.68102" lon="-3.62704">
        <ele>40.3</ele>
        <time>2020-07-26T15:14:53.694Z</time>
      </trkpt>
      <trkpt lat="48.68099" lon="-3.62731">
        <ele>38.8</ele>
        <time>2020-07-26T15:14:55.684Z</time>
      </trkpt>
      <trkpt lat="48.68096" lon="-3.62757">
        <ele>37.5</ele>
        <time>2020-07-26T15:14:57.657Z</time>
      </trkpt>
      <trkpt lat="48.68094" lon="-3.62783">
        <ele>36.7</ele>
        <time>2020-07-26T15:14:59.615Z</time>
      </trkpt>
      <trkpt lat="48.68091" lon="-3.6281">
        <ele>36.2</ele>
        <time>2020-07-26T15:15:01.553Z</time>
      </trkpt>
      <trkpt lat="48.68088" lon="-3.62835">
        <ele>36.1</ele>
        <time>2020-07-26T15:15:03.454Z</time>
      </trkpt>
      <trkpt lat="48.68084" lon="-3.6286">
        <ele>36.9</ele>
        <time>2020-07-26T15:15:05.337Z</time>
      </trkpt>
      <trkpt lat="48.68078" lon="-3.62883">
        <ele>37.3</ele>
        <time>2020-07-26T15:15:07.195Z</time>
      </trkpt>
      <trkpt lat="48.68071" lon="-3.62906">
        <ele>37.8</ele>
        <time>2020-07-26T15:15:09.047Z</time>
      </trkpt>
      <trkpt lat="48.68064" lon="-3.62929">
        <ele>37.7</ele>
        <time>2020-07-26T15:15:10.875Z</time>
      </trkpt>
      <trkpt lat="48.6806" lon="-3.62954">
        <ele>37.2</ele>
        <time>2020-07-26T15:15:12.707Z</time>
      </trkpt>
      <trkpt lat="48.68058" lon="-3.62979">
        <ele>36.6</ele>
        <time>2020-07-26T15:15:14.565Z</time>
      </trkpt>
      <trkpt lat="48.68058" lon="-3.63005">
        <ele>35.6</ele>
        <time>2020-07-26T15:15:16.466Z</time>
      </trkpt>
      <trkpt lat="48.68058" lon="-3.63031">
        <ele>33.1</ele>
        <time>2020-07-26T15:15:18.429Z</time>
      </trkpt>
      <trkpt lat="48.68057" lon="-3.63058">
        <ele>30.7</ele>
        <time>2020-07-26T15:15:20.415Z</time>
      </trkpt>
      <trkpt lat="48.68057" lon="-3.63085">
        <ele>28.2</ele>
        <time>2020-07-26T15:15:22.401Z</time>
      </trkpt>
      <trkpt lat="48.68056" lon="-3.63112">
        <ele>25.7</ele>
        <time>2020-07-26T15:15:24.388Z</time>
      </trkpt>
      <trkpt lat="48.68055" lon="-3.63138">
        <ele>23.3</ele>
        <time>2020-07-26T15:15:26.376Z</time>
      </trkpt>
      <trkpt lat="48.68054" lon="-3.63165">
        <ele>20.9</ele>
        <time>2020-07-26T15:15:28.373Z</time>
      </trkpt>
      <trkpt lat="48.68053" lon="-3.63192">
        <ele>21.2</ele>
        <time>2020-07-26T15:15:30.323Z</time>
      </trkpt>
      <trkpt lat="48.68053" lon="-3.63218">
        <ele>21.6</ele>
        <time>2020-07-26T15:15:32.259Z</time>
      </trkpt>
      <trkpt lat="48.68052" lon="-3.63244">
        <ele>21.8</ele>
        <time>2020-07-26T15:15:34.168Z</time>
      </trkpt>
      <trkpt lat="48.68053" lon="-3.6327">
        <ele>22.2</ele>
        <time>2020-07-26T15:15:36.076Z</time>
      </trkpt>
      <trkpt lat="48.68055" lon="-3.63296">
        <ele>22.5</ele>
        <time>2020-07-26T15:15:37.997Z</time>
      </trkpt>
      <trkpt lat="48.68057" lon="-3.63322">
        <ele>22.7</ele>
        <time>2020-07-26T15:15:39.919Z</time>
      </trkpt>
      <trkpt lat="48.68061" lon="-3.63348">
        <ele>22.4</ele>
        <time>2020-07-26T15:15:41.827Z</time>
      </trkpt>
      <trkpt lat="48.68064" lon="-3.63373">
        <ele>21.7</ele>
        <time>2020-07-26T15:15:43.722Z</time>
      </trkpt>
      <trkpt lat="48.68067" lon="-3.63398">
        <ele>20.9</ele>
        <time>2020-07-26T15:15:45.617Z</time>
      </trkpt>
      <trkpt lat="48.6807" lon="-3.63423">
        <ele>20.1</ele>
        <time>2020-07-26T15:15:47.490Z</time>
      </trkpt>
      <trkpt lat="48.68073" lon="-3.63447">
        <ele>19.5</ele>
        <time>2020-07-26T15:15:49.274Z</time>
      </trkpt>
      <trkpt lat="48.68076" lon="-3.6347">
        <ele>19.1</ele>
        <time>2020-07-26T15:15:50.949Z</time>
      </trkpt>
      <trkpt lat="48.68077" lon="-3.63492">
        <ele>18.9</ele>
        <time>2020-07-26T15:15:52.579Z</time>
      </trkpt>
      <trkpt lat="48.68076" lon="-3.63514">
        <ele>18.4</ele>
        <time>2020-07-26T15:15:54.197Z</time>
      </trkpt>
      <trkpt lat="48.68073" lon="-3.63536">
        <ele>18.1</ele>
        <time>2020-07-26T15:15:55.844Z</time>
      </trkpt>
      <trkpt lat="48.68067" lon="-3.63557">
        <ele>18</ele>
        <time>2020-07-26T15:15:57.531Z</time>
      </trkpt>
      <trkpt lat="48.68059" lon="-3.63576">
        <ele>18.2</ele>
        <time>2020-07-26T15:15:59.226Z</time>
      </trkpt>
      <trkpt lat="48.68049" lon="-3.63594">
        <ele>18.2</ele>
        <time>2020-07-26T15:16:00.944Z</time>
      </trkpt>
      <trkpt lat="48.68037" lon="-3.63609">
        <ele>18.2</ele>
        <time>2020-07-26T15:16:02.653Z</time>
      </trkpt>
      <trkpt lat="48.68023" lon="-3.6362">
        <ele>18.7</ele>
        <time>2020-07-26T15:16:04.376Z</time>
      </trkpt>
      <trkpt lat="48.68009" lon="-3.63628">
        <ele>19.7</ele>
        <time>2020-07-26T15:16:06.108Z</time>
      </trkpt>
      <trkpt lat="48.67993" lon="-3.63634">
        <ele>20.6</ele>
        <time>2020-07-26T15:16:07.920Z</time>
      </trkpt>
      <trkpt lat="48.67976" lon="-3.63639">
        <ele>21.3</ele>
        <time>2020-07-26T15:16:09.824Z</time>
      </trkpt>
      <trkpt lat="48.67958" lon="-3.63643">
        <ele>22.1</ele>
        <time>2020-07-26T15:16:11.824Z</time>
      </trkpt>
      <trkpt lat="48.6794" lon="-3.63649">
        <ele>23.1</ele>
        <time>2020-07-26T15:16:13.862Z</time>
      </trkpt>
      <trkpt lat="48.67922" lon="-3.63654">
        <ele>24.2</ele>
        <time>2020-07-26T15:16:15.937Z</time>
      </trkpt>
      <trkpt lat="48.67903" lon="-3.63659">
        <ele>24</ele>
        <time>2020-07-26T15:16:18.048Z</time>
      </trkpt>
      <trkpt lat="48.67884" lon="-3.63664">
        <ele>23.3</ele>
        <time>2020-07-26T15:16:20.191Z</time>
      </trkpt>
      <trkpt lat="48.67865" lon="-3.63669">
        <ele>22.6</ele>
        <time>2020-07-26T15:16:22.321Z</time>
      </trkpt>
      <trkpt lat="48.67847" lon="-3.63674">
        <ele>21.5</ele>
        <time>2020-07-26T15:16:24.411Z</time>
      </trkpt>
      <trkpt lat="48.67828" lon="-3.6368">
        <ele>20.4</ele>
        <time>2020-07-26T15:16:26.513Z</time>
      </trkpt>
      <trkpt lat="48.6781" lon="-3.63685">
        <ele>20</ele>
        <time>2020-07-26T15:16:28.583Z</time>
      </trkpt>
      <trkpt lat="48.67792" lon="-3.6369">
        <ele>19.4</ele>
        <time>2020-07-26T15:16:30.638Z</time>
      </trkpt>
      <trkpt lat="48.67774" lon="-3.63695">
        <ele>18.7</ele>
        <time>2020-07-26T15:16:32.658Z</time>
      </trkpt>
      <trkpt lat="48.67757" lon="-3.63699">
        <ele>17.9</ele>
        <time>2020-07-26T15:16:34.560Z</time>
      </trkpt>
      <trkpt lat="48.67741" lon="-3.63703">
        <ele>17.5</ele>
        <time>2020-07-26T15:16:36.342Z</time>
      </trkpt>
      <trkpt lat="48.67726" lon="-3.63705">
        <ele>17.7</ele>
        <time>2020-07-26T15:16:38.073Z</time>
      </trkpt>
      <trkpt lat="48.67709" lon="-3.63706">
        <ele>18.5</ele>
        <time>2020-07-26T15:16:39.912Z</time>
      </trkpt>
      <trkpt lat="48.67692" lon="-3.63703">
        <ele>19.8</ele>
        <time>2020-07-26T15:16:41.834Z</time>
      </trkpt>
      <trkpt lat="48.67675" lon="-3.63698">
        <ele>21.9</ele>
        <time>2020-07-26T15:16:43.804Z</time>
      </trkpt>
      <trkpt lat="48.67657" lon="-3.63693">
        <ele>22.7</ele>
        <time>2020-07-26T15:16:45.866Z</time>
      </trkpt>
      <trkpt lat="48.67639" lon="-3.63687">
        <ele>22.4</ele>
        <time>2020-07-26T15:16:47.914Z</time>
      </trkpt>
      <trkpt lat="48.67621" lon="-3.63682">
        <ele>21.7</ele>
        <time>2020-07-26T15:16:49.941Z</time>
      </trkpt>
      <trkpt lat="48.67603" lon="-3.63675">
        <ele>21</ele>
        <time>2020-07-26T15:16:51.960Z</time>
      </trkpt>
      <trkpt lat="48.67586" lon="-3.63667">
        <ele>20.2</ele>
        <time>2020-07-26T15:16:53.959Z</time>
      </trkpt>
      <trkpt lat="48.6757" lon="-3.63657">
        <ele>19.8</ele>
        <time>2020-07-26T15:16:55.937Z</time>
      </trkpt>
      <trkpt lat="48.67553" lon="-3.63645">
        <ele>19.6</ele>
        <time>2020-07-26T15:16:58.006Z</time>
      </trkpt>
      <trkpt lat="48.67536" lon="-3.63632">
        <ele>19.5</ele>
        <time>2020-07-26T15:17:00.123Z</time>
      </trkpt>
      <trkpt lat="48.67519" lon="-3.63617">
        <ele>19.5</ele>
        <time>2020-07-26T15:17:02.295Z</time>
      </trkpt>
      <trkpt lat="48.67502" lon="-3.63603">
        <ele>19.5</ele>
        <time>2020-07-26T15:17:04.455Z</time>
      </trkpt>
      <trkpt lat="48.67485" lon="-3.63588">
        <ele>20.1</ele>
        <time>2020-07-26T15:17:06.655Z</time>
      </trkpt>
      <trkpt lat="48.67467" lon="-3.63573">
        <ele>20.2</ele>
        <time>2020-07-26T15:17:08.873Z</time>
      </trkpt>
      <trkpt lat="48.67451" lon="-3.63558">
        <ele>20.4</ele>
        <time>2020-07-26T15:17:11.049Z</time>
      </trkpt>
      <trkpt lat="48.67434" lon="-3.63543">
        <ele>20.7</ele>
        <time>2020-07-26T15:17:13.188Z</time>
      </trkpt>
      <trkpt lat="48.67418" lon="-3.63529">
        <ele>21.2</ele>
        <time>2020-07-26T15:17:15.274Z</time>
      </trkpt>
      <trkpt lat="48.67402" lon="-3.63516">
        <ele>21.8</ele>
        <time>2020-07-26T15:17:17.237Z</time>
      </trkpt>
      <trkpt lat="48.67388" lon="-3.63504">
        <ele>22.4</ele>
        <time>2020-07-26T15:17:19.051Z</time>
      </trkpt>
      <trkpt lat="48.67373" lon="-3.63495">
        <ele>22.7</ele>
        <time>2020-07-26T15:17:20.874Z</time>
      </trkpt>
      <trkpt lat="48.67357" lon="-3.63488">
        <ele>22.9</ele>
        <time>2020-07-26T15:17:22.722Z</time>
      </trkpt>
      <trkpt lat="48.6734" lon="-3.63483">
        <ele>22.9</ele>
        <time>2020-07-26T15:17:24.614Z</time>
      </trkpt>
      <trkpt lat="48.67323" lon="-3.63478">
        <ele>22.5</ele>
        <time>2020-07-26T15:17:26.499Z</time>
      </trkpt>
      <trkpt lat="48.67307" lon="-3.63473">
        <ele>21.8</ele>
        <time>2020-07-26T15:17:28.398Z</time>
      </trkpt>
      <trkpt lat="48.6729" lon="-3.63467">
        <ele>21.1</ele>
        <time>2020-07-26T15:17:30.301Z</time>
      </trkpt>
      <trkpt lat="48.67273" lon="-3.63462">
        <ele>20.3</ele>
        <time>2020-07-26T15:17:32.210Z</time>
      </trkpt>
      <trkpt lat="48.67256" lon="-3.63457">
        <ele>19.4</ele>
        <time>2020-07-26T15:17:34.141Z</time>
      </trkpt>
      <trkpt lat="48.67239" lon="-3.63452">
        <ele>18.8</ele>
        <time>2020-07-26T15:17:36.039Z</time>
      </trkpt>
      <trkpt lat="48.67222" lon="-3.63451">
        <ele>18.2</ele>
        <time>2020-07-26T15:17:37.970Z</time>
      </trkpt>
      <trkpt lat="48.67205" lon="-3.63452">
        <ele>17.6</ele>
        <time>2020-07-26T15:17:39.920Z</time>
      </trkpt>
      <trkpt lat="48.67187" lon="-3.63453">
        <ele>16.9</ele>
        <time>2020-07-26T15:17:41.854Z</time>
      </trkpt>
      <trkpt lat="48.6717" lon="-3.63456">
        <ele>16.2</ele>
        <time>2020-07-26T15:17:43.788Z</time>
      </trkpt>
      <trkpt lat="48.67154" lon="-3.63458">
        <ele>14.9</ele>
        <time>2020-07-26T15:17:45.617Z</time>
      </trkpt>
      <trkpt lat="48.67139" lon="-3.63461">
        <ele>13.5</ele>
        <time>2020-07-26T15:17:47.285Z</time>
      </trkpt>
      <trkpt lat="48.67125" lon="-3.63465">
        <ele>12.2</ele>
        <time>2020-07-26T15:17:48.814Z</time>
      </trkpt>
      <trkpt lat="48.67112" lon="-3.63471">
        <ele>10.8</ele>
        <time>2020-07-26T15:17:50.346Z</time>
      </trkpt>
      <trkpt lat="48.67101" lon="-3.63482">
        <ele>9.3</ele>
        <time>2020-07-26T15:17:51.819Z</time>
      </trkpt>
      <trkpt lat="48.67093" lon="-3.63498">
        <ele>7.9</ele>
        <time>2020-07-26T15:17:53.308Z</time>
      </trkpt>
      <trkpt lat="48.67088" lon="-3.63519">
        <ele>6.2</ele>
        <time>2020-07-26T15:17:54.929Z</time>
      </trkpt>
      <trkpt lat="48.67085" lon="-3.63542">
        <ele>4.6</ele>
        <time>2020-07-26T15:17:56.680Z</time>
      </trkpt>
      <trkpt lat="48.67081" lon="-3.63567">
        <ele>3.1</ele>
        <time>2020-07-26T15:17:58.521Z</time>
      </trkpt>
      <trkpt lat="48.67078" lon="-3.63592">
        <ele>2.3</ele>
        <time>2020-07-26T15:18:00.395Z</time>
      </trkpt>
      <trkpt lat="48.67074" lon="-3.63617">
        <ele>2.2</ele>
        <time>2020-07-26T15:18:02.287Z</time>
      </trkpt>
      <trkpt lat="48.6707" lon="-3.63642">
        <ele>2.3</ele>
        <time>2020-07-26T15:18:04.195Z</time>
      </trkpt>
      <trkpt lat="48.67064" lon="-3.63666">
        <ele>2.4</ele>
        <time>2020-07-26T15:18:06.130Z</time>
      </trkpt>
      <trkpt lat="48.67057" lon="-3.6369">
        <ele>2.4</ele>
        <time>2020-07-26T15:18:08.008Z</time>
      </trkpt>
      <trkpt lat="48.67051" lon="-3.63713">
        <ele>2.3</ele>
        <time>2020-07-26T15:18:09.862Z</time>
      </trkpt>
      <trkpt lat="48.67044" lon="-3.63736">
        <ele>1.9</ele>
        <time>2020-07-26T15:18:11.683Z</time>
      </trkpt>
      <trkpt lat="48.67038" lon="-3.63759">
        <ele>1.4</ele>
        <time>2020-07-26T15:18:13.472Z</time>
      </trkpt>
      <trkpt lat="48.67032" lon="-3.6378">
        <ele>1.2</ele>
        <time>2020-07-26T15:18:15.207Z</time>
      </trkpt>
      <trkpt lat="48.67027" lon="-3.63802">
        <ele>0.8</ele>
        <time>2020-07-26T15:18:16.878Z</time>
      </trkpt>
      <trkpt lat="48.67021" lon="-3.63823">
        <ele>0.4</ele>
        <time>2020-07-26T15:18:18.574Z</time>
      </trkpt>
      <trkpt lat="48.67016" lon="-3.63844">
        <ele>5.8</ele>
        <time>2020-07-26T15:18:20.224Z</time>
      </trkpt>
      <trkpt lat="48.67011" lon="-3.63865">
        <ele>5.5</ele>
        <time>2020-07-26T15:18:21.882Z</time>
      </trkpt>
      <trkpt lat="48.67006" lon="-3.63887">
        <ele>5.4</ele>
        <time>2020-07-26T15:18:23.539Z</time>
      </trkpt>
      <trkpt lat="48.67001" lon="-3.63908">
        <ele>5.2</ele>
        <time>2020-07-26T15:18:25.225Z</time>
      </trkpt>
      <trkpt lat="48.66996" lon="-3.6393">
        <ele>2.7</ele>
        <time>2020-07-26T15:18:26.928Z</time>
      </trkpt>
      <trkpt lat="48.66992" lon="-3.63952">
        <ele>2.1</ele>
        <time>2020-07-26T15:18:28.609Z</time>
      </trkpt>
      <trkpt lat="48.66988" lon="-3.63975">
        <ele>1.6</ele>
        <time>2020-07-26T15:18:30.336Z</time>
      </trkpt>
      <trkpt lat="48.66984" lon="-3.63998">
        <ele>1</ele>
        <time>2020-07-26T15:18:32.099Z</time>
      </trkpt>
      <trkpt lat="48.66981" lon="-3.64022">
        <ele>0.7</ele>
        <time>2020-07-26T15:18:33.861Z</time>
      </trkpt>
      <trkpt lat="48.66978" lon="-3.64046">
        <ele>0.4</ele>
        <time>2020-07-26T15:18:35.661Z</time>
      </trkpt>
      <trkpt lat="48.66975" lon="-3.6407">
        <ele>0.2</ele>
        <time>2020-07-26T15:18:37.440Z</time>
      </trkpt>
      <trkpt lat="48.66973" lon="-3.64094">
        <ele>0.4</ele>
        <time>2020-07-26T15:18:39.222Z</time>
      </trkpt>
      <trkpt lat="48.66971" lon="-3.64118">
        <ele>1.2</ele>
        <time>2020-07-26T15:18:41.000Z</time>
      </trkpt>
      <trkpt lat="48.66969" lon="-3.64142">
        <ele>2.1</ele>
        <time>2020-07-26T15:18:42.786Z</time>
      </trkpt>
      <trkpt lat="48.66968" lon="-3.64166">
        <ele>3</ele>
        <time>2020-07-26T15:18:44.572Z</time>
      </trkpt>
      <trkpt lat="48.66967" lon="-3.6419">
        <ele>2.7</ele>
        <time>2020-07-26T15:18:46.339Z</time>
      </trkpt>
      <trkpt lat="48.66966" lon="-3.64213">
        <ele>2.4</ele>
        <time>2020-07-26T15:18:48.066Z</time>
      </trkpt>
      <trkpt lat="48.66966" lon="-3.64237">
        <ele>2.2</ele>
        <time>2020-07-26T15:18:49.792Z</time>
      </trkpt>
      <trkpt lat="48.66968" lon="-3.6426">
        <ele>2.1</ele>
        <time>2020-07-26T15:18:51.490Z</time>
      </trkpt>
      <trkpt lat="48.66971" lon="-3.64282">
        <ele>2.4</ele>
        <time>2020-07-26T15:18:53.148Z</time>
      </trkpt>
      <trkpt lat="48.66976" lon="-3.64302">
        <ele>2.6</ele>
        <time>2020-07-26T15:18:54.771Z</time>
      </trkpt>
      <trkpt lat="48.66983" lon="-3.64322">
        <ele>2.9</ele>
        <time>2020-07-26T15:18:56.353Z</time>
      </trkpt>
      <trkpt lat="48.66991" lon="-3.64339">
        <ele>3</ele>
        <time>2020-07-26T15:18:57.894Z</time>
      </trkpt>
      <trkpt lat="48.67" lon="-3.64354">
        <ele>3</ele>
        <time>2020-07-26T15:18:59.415Z</time>
      </trkpt>
      <trkpt lat="48.6701" lon="-3.64368">
        <ele>1.8</ele>
        <time>2020-07-26T15:19:00.929Z</time>
      </trkpt>
      <trkpt lat="48.67021" lon="-3.64379">
        <ele>2.1</ele>
        <time>2020-07-26T15:19:02.392Z</time>
      </trkpt>
      <trkpt lat="48.67032" lon="-3.64389">
        <ele>2.3</ele>
        <time>2020-07-26T15:19:03.845Z</time>
      </trkpt>
      <trkpt lat="48.67044" lon="-3.64398">
        <ele>2.6</ele>
        <time>2020-07-26T15:19:05.275Z</time>
      </trkpt>
      <trkpt lat="48.67055" lon="-3.64407">
        <ele>2.8</ele>
        <time>2020-07-26T15:19:06.739Z</time>
      </trkpt>
      <trkpt lat="48.67067" lon="-3.64415">
        <ele>3</ele>
        <time>2020-07-26T15:19:08.174Z</time>
      </trkpt>
      <trkpt lat="48.67079" lon="-3.64423">
        <ele>3.5</ele>
        <time>2020-07-26T15:19:09.610Z</time>
      </trkpt>
      <trkpt lat="48.67091" lon="-3.64432">
        <ele>5.1</ele>
        <time>2020-07-26T15:19:11.070Z</time>
      </trkpt>
      <trkpt lat="48.67102" lon="-3.6444">
        <ele>7.4</ele>
        <time>2020-07-26T15:19:12.546Z</time>
      </trkpt>
      <trkpt lat="48.67114" lon="-3.64449">
        <ele>9.6</ele>
        <time>2020-07-26T15:19:14.022Z</time>
      </trkpt>
      <trkpt lat="48.67126" lon="-3.64457">
        <ele>11.8</ele>
        <time>2020-07-26T15:19:15.459Z</time>
      </trkpt>
      <trkpt lat="48.67137" lon="-3.64466">
        <ele>13.9</ele>
        <time>2020-07-26T15:19:16.862Z</time>
      </trkpt>
      <trkpt lat="48.67148" lon="-3.64474">
        <ele>15.9</ele>
        <time>2020-07-26T15:19:18.240Z</time>
      </trkpt>
      <trkpt lat="48.67159" lon="-3.64482">
        <ele>17.9</ele>
        <time>2020-07-26T15:19:19.607Z</time>
      </trkpt>
      <trkpt lat="48.67169" lon="-3.64489">
        <ele>19.6</ele>
        <time>2020-07-26T15:19:20.892Z</time>
      </trkpt>
      <trkpt lat="48.6718" lon="-3.64494">
        <ele>21</ele>
        <time>2020-07-26T15:19:22.108Z</time>
      </trkpt>
      <trkpt lat="48.67189" lon="-3.64499">
        <ele>22.1</ele>
        <time>2020-07-26T15:19:23.222Z</time>
      </trkpt>
      <trkpt lat="48.67198" lon="-3.64502">
        <ele>23.1</ele>
        <time>2020-07-26T15:19:24.235Z</time>
      </trkpt>
      <trkpt lat="48.67206" lon="-3.64504">
        <ele>24</ele>
        <time>2020-07-26T15:19:25.182Z</time>
      </trkpt>
      <trkpt lat="48.67215" lon="-3.64506">
        <ele>24.8</ele>
        <time>2020-07-26T15:19:26.139Z</time>
      </trkpt>
      <trkpt lat="48.67224" lon="-3.64506">
        <ele>25.7</ele>
        <time>2020-07-26T15:19:27.161Z</time>
      </trkpt>
      <trkpt lat="48.67223" lon="-3.64584">
        <ele>28.4</ele>
        <time>2020-07-26T15:19:32.926Z</time>
      </trkpt>
      <trkpt lat="48.67258" lon="-3.64777">
        <ele>29.6</ele>
        <time>2020-07-26T15:19:47.588Z</time>
      </trkpt>
      <trkpt lat="48.67244" lon="-3.64876">
        <ele>32.5</ele>
        <time>2020-07-26T15:19:55.076Z</time>
      </trkpt>
      <trkpt lat="48.67162" lon="-3.64935">
        <ele>33.1</ele>
        <time>2020-07-26T15:20:05.128Z</time>
      </trkpt>
      <trkpt lat="48.6715" lon="-3.65023">
        <ele>34.4</ele>
        <time>2020-07-26T15:20:11.748Z</time>
      </trkpt>
      <trkpt lat="48.67211" lon="-3.65595">
        <ele>52.5</ele>
        <time>2020-07-26T15:20:54.339Z</time>
      </trkpt>
      <trkpt lat="48.67199" lon="-3.65841">
        <ele>62.5</ele>
        <time>2020-07-26T15:21:12.479Z</time>
      </trkpt>
      <trkpt lat="48.67172" lon="-3.6596">
        <ele>65.1</ele>
        <time>2020-07-26T15:21:21.678Z</time>
      </trkpt>
      <trkpt lat="48.67147" lon="-3.66031">
        <ele>65.5</ele>
        <time>2020-07-26T15:21:27.587Z</time>
      </trkpt>
      <trkpt lat="48.6715" lon="-3.66157">
        <ele>64.5</ele>
        <time>2020-07-26T15:21:36.848Z</time>
      </trkpt>
      <trkpt lat="48.67101" lon="-3.66241">
        <ele>65.7</ele>
        <time>2020-07-26T15:21:45.011Z</time>
      </trkpt>
      <trkpt lat="48.67072" lon="-3.66314">
        <ele>63.3</ele>
        <time>2020-07-26T15:21:51.293Z</time>
      </trkpt>
      <trkpt lat="48.67049" lon="-3.66382">
        <ele>61</ele>
        <time>2020-07-26T15:21:56.924Z</time>
      </trkpt>
      <trkpt lat="48.66965" lon="-3.66453">
        <ele>60.7</ele>
        <time>2020-07-26T15:22:07.615Z</time>
      </trkpt>
      <trkpt lat="48.66826" lon="-3.66547">
        <ele>63.5</ele>
        <time>2020-07-26T15:22:24.514Z</time>
      </trkpt>
      <trkpt lat="48.66849" lon="-3.66692">
        <ele>58.1</ele>
        <time>2020-07-26T15:22:35.410Z</time>
      </trkpt>
      <trkpt lat="48.66776" lon="-3.66858">
        <ele>56.1</ele>
        <time>2020-07-26T15:22:50.034Z</time>
      </trkpt>
      <trkpt lat="48.66731" lon="-3.67074">
        <ele>53.4</ele>
        <time>2020-07-26T15:23:06.660Z</time>
      </trkpt>
      <trkpt lat="48.66704" lon="-3.6726">
        <ele>56</ele>
        <time>2020-07-26T15:23:20.684Z</time>
      </trkpt>
      <trkpt lat="48.66656" lon="-3.67443">
        <ele>56.1</ele>
        <time>2020-07-26T15:23:35.130Z</time>
      </trkpt>
      <trkpt lat="48.66654" lon="-3.6781">
        <ele>43.4</ele>
        <time>2020-07-26T15:24:02.139Z</time>
      </trkpt>
      <trkpt lat="48.66694" lon="-3.68038">
        <ele>30</ele>
        <time>2020-07-26T15:24:19.489Z</time>
      </trkpt>
      <trkpt lat="48.6678" lon="-3.6831">
        <ele>34.2</ele>
        <time>2020-07-26T15:24:41.674Z</time>
      </trkpt>
      <trkpt lat="48.66889" lon="-3.68211">
        <ele>32.5</ele>
        <time>2020-07-26T15:24:55.798Z</time>
      </trkpt>
      <trkpt lat="48.66995" lon="-3.68241">
        <ele>38.5</ele>
        <time>2020-07-26T15:25:07.802Z</time>
      </trkpt>
      <trkpt lat="48.6705" lon="-3.68386">
        <ele>42.3</ele>
        <time>2020-07-26T15:25:20.106Z</time>
      </trkpt>
      <trkpt lat="48.66881" lon="-3.6852">
        <ele>50.7</ele>
        <time>2020-07-26T15:25:41.337Z</time>
      </trkpt>
      <trkpt lat="48.66808" lon="-3.68573">
        <ele>53.9</ele>
        <time>2020-07-26T15:25:50.372Z</time>
      </trkpt>
      <trkpt lat="48.66787" lon="-3.68707">
        <ele>60.2</ele>
        <time>2020-07-26T15:26:00.451Z</time>
      </trkpt>
      <trkpt lat="48.66893" lon="-3.69005">
        <ele>71.1</ele>
        <time>2020-07-26T15:26:25.371Z</time>
      </trkpt>
      <trkpt lat="48.66822" lon="-3.69133">
        <ele>69.8</ele>
        <time>2020-07-26T15:26:37.620Z</time>
      </trkpt>
      <trkpt lat="48.66789" lon="-3.6956">
        <ele>63.5</ele>
        <time>2020-07-26T15:27:09.208Z</time>
      </trkpt>
      <trkpt lat="48.66761" lon="-3.69985">
        <ele>74.1</ele>
        <time>2020-07-26T15:27:40.571Z</time>
      </trkpt>
      <trkpt lat="48.66779" lon="-3.70124">
        <ele>75.4</ele>
        <time>2020-07-26T15:27:51.024Z</time>
      </trkpt>
      <trkpt lat="48.66735" lon="-3.70262">
        <ele>76.8</ele>
        <time>2020-07-26T15:28:02.270Z</time>
      </trkpt>
      <trkpt lat="48.66722" lon="-3.70816">
        <ele>85.8</ele>
        <time>2020-07-26T15:28:42.970Z</time>
      </trkpt>
      <trkpt lat="48.6672" lon="-3.70856">
        <ele>85.9</ele>
        <time>2020-07-26T15:28:45.903Z</time>
      </trkpt>
      <trkpt lat="48.66759" lon="-3.70876">
        <ele>84.7</ele>
        <time>2020-07-26T15:28:50.480Z</time>
      </trkpt>
      <trkpt lat="48.66815" lon="-3.70844">
        <ele>83.3</ele>
        <time>2020-07-26T15:28:57.106Z</time>
      </trkpt>
      <trkpt lat="48.67074" lon="-3.70857">
        <ele>75.1</ele>
        <time>2020-07-26T15:29:25.923Z</time>
      </trkpt>
      <trkpt lat="48.67165" lon="-3.70897">
        <ele>77</ele>
        <time>2020-07-26T15:29:36.514Z</time>
      </trkpt>
      <trkpt lat="48.67403" lon="-3.70812">
        <ele>87.2</ele>
        <time>2020-07-26T15:30:03.746Z</time>
      </trkpt>
      <trkpt lat="48.67712" lon="-3.70833">
        <ele>86.5</ele>
        <time>2020-07-26T15:30:38.128Z</time>
      </trkpt>
      <trkpt lat="48.67866" lon="-3.70864">
        <ele>84.1</ele>
        <time>2020-07-26T15:30:55.420Z</time>
      </trkpt>
      <trkpt lat="48.67952" lon="-3.70938">
        <ele>85.2</ele>
        <time>2020-07-26T15:31:06.422Z</time>
      </trkpt>
      <trkpt lat="48.67973" lon="-3.70993">
        <ele>86.8</ele>
        <time>2020-07-26T15:31:11.106Z</time>
      </trkpt>
      <trkpt lat="48.68032" lon="-3.71075">
        <ele>88.4</ele>
        <time>2020-07-26T15:31:19.942Z</time>
      </trkpt>
      <trkpt lat="48.68082" lon="-3.71127">
        <ele>89</ele>
        <time>2020-07-26T15:31:26.672Z</time>
      </trkpt>
      <trkpt lat="48.68145" lon="-3.71152">
        <ele>89.5</ele>
        <time>2020-07-26T15:31:33.953Z</time>
      </trkpt>
      <trkpt lat="48.6815" lon="-3.71247">
        <ele>91.9</ele>
        <time>2020-07-26T15:31:40.954Z</time>
      </trkpt>
      <trkpt lat="48.68212" lon="-3.71338">
        <ele>95.1</ele>
        <time>2020-07-26T15:31:50.566Z</time>
      </trkpt>
      <trkpt lat="48.6827" lon="-3.71457">
        <ele>97.3</ele>
        <time>2020-07-26T15:32:01.410Z</time>
      </trkpt>
      <trkpt lat="48.68328" lon="-3.71538">
        <ele>99.4</ele>
        <time>2020-07-26T15:32:10.248Z</time>
      </trkpt>
      <trkpt lat="48.68403" lon="-3.71595">
        <ele>99.1</ele>
        <time>2020-07-26T15:32:19.564Z</time>
      </trkpt>
      <trkpt lat="48.68482" lon="-3.7166">
        <ele>98.2</ele>
        <time>2020-07-26T15:32:29.496Z</time>
      </trkpt>
      <trkpt lat="48.68558" lon="-3.71765">
        <ele>97.9</ele>
        <time>2020-07-26T15:32:40.990Z</time>
      </trkpt>
      <trkpt lat="48.6862" lon="-3.71867">
        <ele>98.6</ele>
        <time>2020-07-26T15:32:51.125Z</time>
      </trkpt>
      <trkpt lat="48.68695" lon="-3.71898">
        <ele>97.9</ele>
        <time>2020-07-26T15:32:59.783Z</time>
      </trkpt>
      <trkpt lat="48.68772" lon="-3.7193">
        <ele>96.7</ele>
        <time>2020-07-26T15:33:08.619Z</time>
      </trkpt>
      <trkpt lat="48.6886" lon="-3.72007">
        <ele>95.3</ele>
        <time>2020-07-26T15:33:19.944Z</time>
      </trkpt>
      <trkpt lat="48.68912" lon="-3.72038">
        <ele>96.4</ele>
        <time>2020-07-26T15:33:26.143Z</time>
      </trkpt>
      <trkpt lat="48.69013" lon="-3.7205">
        <ele>93.4</ele>
        <time>2020-07-26T15:33:37.481Z</time>
      </trkpt>
      <trkpt lat="48.69098" lon="-3.72105">
        <ele>92.7</ele>
        <time>2020-07-26T15:33:47.761Z</time>
      </trkpt>
      <trkpt lat="48.69203" lon="-3.72195">
        <ele>90.3</ele>
        <time>2020-07-26T15:34:01.176Z</time>
      </trkpt>
      <trkpt lat="48.69308" lon="-3.72267">
        <ele>87.2</ele>
        <time>2020-07-26T15:34:13.990Z</time>
      </trkpt>
      <trkpt lat="48.69377" lon="-3.7232">
        <ele>85.6</ele>
        <time>2020-07-26T15:34:22.534Z</time>
      </trkpt>
      <trkpt lat="48.69478" lon="-3.72357">
        <ele>83.6</ele>
        <time>2020-07-26T15:34:34.159Z</time>
      </trkpt>
      <trkpt lat="48.69612" lon="-3.72415">
        <ele>79.4</ele>
        <time>2020-07-26T15:34:49.594Z</time>
      </trkpt>
      <trkpt lat="48.69662" lon="-3.72437">
        <ele>79</ele>
        <time>2020-07-26T15:34:55.379Z</time>
      </trkpt>
      <trkpt lat="48.69712" lon="-3.72498">
        <ele>75</ele>
        <time>2020-07-26T15:35:02.557Z</time>
      </trkpt>
      <trkpt lat="48.69762" lon="-3.72573">
        <ele>69.7</ele>
        <time>2020-07-26T15:35:10.401Z</time>
      </trkpt>
      <trkpt lat="48.6982" lon="-3.72598">
        <ele>71.3</ele>
        <time>2020-07-26T15:35:17.146Z</time>
      </trkpt>
      <trkpt lat="48.69868" lon="-3.72602">
        <ele>73.9</ele>
        <time>2020-07-26T15:35:22.531Z</time>
      </trkpt>
      <trkpt lat="48.69948" lon="-3.72675">
        <ele>80.7</ele>
        <time>2020-07-26T15:35:32.948Z</time>
      </trkpt>
      <trkpt lat="48.6998" lon="-3.72708">
        <ele>82.7</ele>
        <time>2020-07-26T15:35:37.241Z</time>
      </trkpt>
      <trkpt lat="48.70067" lon="-3.72893">
        <ele>83.1</ele>
        <time>2020-07-26T15:35:53.888Z</time>
      </trkpt>
      <trkpt lat="48.70062" lon="-3.72958">
        <ele>83.5</ele>
        <time>2020-07-26T15:35:58.691Z</time>
      </trkpt>
      <trkpt lat="48.70017" lon="-3.73057">
        <ele>83.3</ele>
        <time>2020-07-26T15:36:07.470Z</time>
      </trkpt>
      <trkpt lat="48.70035" lon="-3.73293">
        <ele>84</ele>
        <time>2020-07-26T15:36:24.960Z</time>
      </trkpt>
      <trkpt lat="48.70093" lon="-3.73332">
        <ele>84.1</ele>
        <time>2020-07-26T15:36:32.031Z</time>
      </trkpt>
      <trkpt lat="48.70102" lon="-3.7359">
        <ele>82.8</ele>
        <time>2020-07-26T15:36:51.013Z</time>
      </trkpt>
      <trkpt lat="48.7006" lon="-3.73728">
        <ele>81.9</ele>
        <time>2020-07-26T15:37:02.173Z</time>
      </trkpt>
      <trkpt lat="48.70052" lon="-3.7381">
        <ele>82.2</ele>
        <time>2020-07-26T15:37:08.238Z</time>
      </trkpt>
      <trkpt lat="48.70078" lon="-3.73973">
        <ele>83</ele>
        <time>2020-07-26T15:37:20.585Z</time>
      </trkpt>
      <trkpt lat="48.7011" lon="-3.7402">
        <ele>82.7</ele>
        <time>2020-07-26T15:37:25.498Z</time>
      </trkpt>
      <trkpt lat="48.70253" lon="-3.74023">
        <ele>79.5</ele>
        <time>2020-07-26T15:37:41.437Z</time>
      </trkpt>
      <trkpt lat="48.70337" lon="-3.74002">
        <ele>74.4</ele>
        <time>2020-07-26T15:37:50.853Z</time>
      </trkpt>
      <trkpt lat="48.70382" lon="-3.74033">
        <ele>66.8</ele>
        <time>2020-07-26T15:37:56.423Z</time>
      </trkpt>
      <trkpt lat="48.70372" lon="-3.74168">
        <ele>70.3</ele>
        <time>2020-07-26T15:38:06.397Z</time>
      </trkpt>
      <trkpt lat="48.70347" lon="-3.74363">
        <ele>80.3</ele>
        <time>2020-07-26T15:38:21.011Z</time>
      </trkpt>
      <trkpt lat="48.70332" lon="-3.74527">
        <ele>81.7</ele>
        <time>2020-07-26T15:38:33.113Z</time>
      </trkpt>
      <trkpt lat="48.7037" lon="-3.74603">
        <ele>78.5</ele>
        <time>2020-07-26T15:38:40.177Z</time>
      </trkpt>
      <trkpt lat="48.7037" lon="-3.74662">
        <ele>77.8</ele>
        <time>2020-07-26T15:38:44.460Z</time>
      </trkpt>
      <trkpt lat="48.70348" lon="-3.74705">
        <ele>78.5</ele>
        <time>2020-07-26T15:38:48.450Z</time>
      </trkpt>
      <trkpt lat="48.70377" lon="-3.749">
        <ele>76.2</ele>
        <time>2020-07-26T15:39:03.103Z</time>
      </trkpt>
      <trkpt lat="48.70422" lon="-3.75087">
        <ele>71.3</ele>
        <time>2020-07-26T15:39:17.696Z</time>
      </trkpt>
      <trkpt lat="48.70503" lon="-3.7511">
        <ele>60.7</ele>
        <time>2020-07-26T15:39:26.994Z</time>
      </trkpt>
      <trkpt lat="48.70557" lon="-3.75158">
        <ele>54.6</ele>
        <time>2020-07-26T15:39:33.931Z</time>
      </trkpt>
      <trkpt lat="48.70603" lon="-3.75137">
        <ele>43.4</ele>
        <time>2020-07-26T15:39:39.473Z</time>
      </trkpt>
      <trkpt lat="48.70633" lon="-3.7511">
        <ele>29.4</ele>
        <time>2020-07-26T15:39:43.587Z</time>
      </trkpt>
      <trkpt lat="48.70665" lon="-3.75177">
        <ele>33.9</ele>
        <time>2020-07-26T15:39:49.629Z</time>
      </trkpt>
      <trkpt lat="48.70735" lon="-3.75243">
        <ele>31.4</ele>
        <time>2020-07-26T15:39:58.829Z</time>
      </trkpt>
      <trkpt lat="48.70782" lon="-3.75323">
        <ele>26.6</ele>
        <time>2020-07-26T15:40:06.678Z</time>
      </trkpt>
      <trkpt lat="48.70797" lon="-3.75482">
        <ele>19.6</ele>
        <time>2020-07-26T15:40:18.433Z</time>
      </trkpt>
      <trkpt lat="48.7082" lon="-3.75697">
        <ele>12.7</ele>
        <time>2020-07-26T15:40:34.440Z</time>
      </trkpt>
      <trkpt lat="48.7081" lon="-3.75803">
        <ele>27.1</ele>
        <time>2020-07-26T15:40:42.476Z</time>
      </trkpt>
      <trkpt lat="48.70767" lon="-3.75865">
        <ele>39.3</ele>
        <time>2020-07-26T15:40:49.195Z</time>
      </trkpt>
      <trkpt lat="48.70677" lon="-3.75927">
        <ele>51.8</ele>
        <time>2020-07-26T15:41:00.248Z</time>
      </trkpt>
      <trkpt lat="48.70635" lon="-3.7597">
        <ele>54.2</ele>
        <time>2020-07-26T15:41:05.873Z</time>
      </trkpt>
      <trkpt lat="48.70632" lon="-3.76053">
        <ele>57.8</ele>
        <time>2020-07-26T15:41:12.008Z</time>
      </trkpt>
      <trkpt lat="48.70662" lon="-3.7611">
        <ele>62.7</ele>
        <time>2020-07-26T15:41:17.357Z</time>
      </trkpt>
      <trkpt lat="48.70748" lon="-3.76198">
        <ele>27.4</ele>
        <time>2020-07-26T15:41:29.497Z</time>
      </trkpt>
      <trkpt lat="48.70782" lon="-3.76267">
        <ele>23.8</ele>
        <time>2020-07-26T15:41:35.743Z</time>
      </trkpt>
      <trkpt lat="48.70807" lon="-3.76383">
        <ele>19.5</ele>
        <time>2020-07-26T15:41:44.754Z</time>
      </trkpt>
      <trkpt lat="48.70805" lon="-3.7653">
        <ele>17.8</ele>
        <time>2020-07-26T15:41:55.518Z</time>
      </trkpt>
      <trkpt lat="48.70722" lon="-3.76613">
        <ele>26.6</ele>
        <time>2020-07-26T15:42:06.655Z</time>
      </trkpt>
      <trkpt lat="48.70683" lon="-3.76665">
        <ele>20.3</ele>
        <time>2020-07-26T15:42:12.394Z</time>
      </trkpt>
      <trkpt lat="48.70672" lon="-3.76752">
        <ele>9.5</ele>
        <time>2020-07-26T15:42:18.974Z</time>
      </trkpt>
      <trkpt lat="48.7068" lon="-3.7683">
        <ele>9.2</ele>
        <time>2020-07-26T15:42:24.799Z</time>
      </trkpt>
      <trkpt lat="48.70648" lon="-3.7695">
        <ele>17.8</ele>
        <time>2020-07-26T15:42:34.320Z</time>
      </trkpt>
      <trkpt lat="48.70598" lon="-3.77107">
        <ele>16.9</ele>
        <time>2020-07-26T15:42:47.091Z</time>
      </trkpt>
      <trkpt lat="48.70548" lon="-3.77247">
        <ele>10.4</ele>
        <time>2020-07-26T15:42:58.790Z</time>
      </trkpt>
      <trkpt lat="48.7052" lon="-3.77328">
        <ele>15.1</ele>
        <time>2020-07-26T15:43:05.578Z</time>
      </trkpt>
      <trkpt lat="48.704" lon="-3.77447">
        <ele>12.8</ele>
        <time>2020-07-26T15:43:21.496Z</time>
      </trkpt>
      <trkpt lat="48.7026" lon="-3.776">
        <ele>4.2</ele>
        <time>2020-07-26T15:43:40.727Z</time>
      </trkpt>
      <trkpt lat="48.7022" lon="-3.77762">
        <ele>0.5</ele>
        <time>2020-07-26T15:43:53.401Z</time>
      </trkpt>
      <trkpt lat="48.70163" lon="-3.78005">
        <ele>0.3</ele>
        <time>2020-07-26T15:44:12.339Z</time>
      </trkpt>
      <trkpt lat="48.70117" lon="-3.78227">
        <ele>0.6</ele>
        <time>2020-07-26T15:44:29.412Z</time>
      </trkpt>
      <trkpt lat="48.7008" lon="-3.78435">
        <ele>3.6</ele>
        <time>2020-07-26T15:44:45.240Z</time>
      </trkpt>
      <trkpt lat="48.70043" lon="-3.78605">
        <ele>20.5</ele>
        <time>2020-07-26T15:44:58.473Z</time>
      </trkpt>
      <trkpt lat="48.7002" lon="-3.7869">
        <ele>37.3</ele>
        <time>2020-07-26T15:45:05.433Z</time>
      </trkpt>
      <trkpt lat="48.69985" lon="-3.78753">
        <ele>50.6</ele>
        <time>2020-07-26T15:45:11.645Z</time>
      </trkpt>
      <trkpt lat="48.69975" lon="-3.7885">
        <ele>57.8</ele>
        <time>2020-07-26T15:45:18.860Z</time>
      </trkpt>
      <trkpt lat="48.69967" lon="-3.78889">
        <ele>59.7</ele>
        <time>2020-07-26T15:45:18.860Z</time>
      </trkpt>
      <trkpt lat="48.69965" lon="-3.78892">
        <ele>59.79861831665</ele>
      </trkpt>
      <trkpt lat="48.69964" lon="-3.78896">
        <ele>60.402030944824</ele>
      </trkpt>
      <trkpt lat="48.69963" lon="-3.789">
        <ele>61.022052764893</ele>
      </trkpt>
      <trkpt lat="48.69962" lon="-3.78901">
        <ele>61.294486999512</ele>
      </trkpt>
      <trkpt lat="48.6996" lon="-3.78907">
        <ele>62.026092529297</ele>
      </trkpt>
      <trkpt lat="48.69956" lon="-3.78914">
        <ele>62.60111618042</ele>
      </trkpt>
      <trkpt lat="48.69952" lon="-3.78918">
        <ele>63.212753295898</ele>
      </trkpt>
      <trkpt lat="48.69935" lon="-3.78933">
        <ele>64.147979736328</ele>
      </trkpt>
      <trkpt lat="48.69915" lon="-3.78953">
        <ele>66.070518493652</ele>
      </trkpt>
      <trkpt lat="48.69897" lon="-3.78969">
        <ele>65.963569641113</ele>
      </trkpt>
      <trkpt lat="48.6986" lon="-3.79019">
        <ele>69.04167175293</ele>
      </trkpt>
      <trkpt lat="48.69858" lon="-3.79022">
        <ele>69.22338104248</ele>
      </trkpt>
      <trkpt lat="48.69808" lon="-3.79091">
        <ele>72.081855773926</ele>
      </trkpt>
      <trkpt lat="48.69804" lon="-3.79095">
        <ele>72.756881713867</ele>
      </trkpt>
      <trkpt lat="48.69798" lon="-3.79102">
        <ele>73.509666442871</ele>
      </trkpt>
      <trkpt lat="48.69786" lon="-3.79112">
        <ele>75.266937255859</ele>
      </trkpt>
      <trkpt lat="48.69779" lon="-3.79116">
        <ele>75.659912109375</ele>
      </trkpt>
      <trkpt lat="48.69774" lon="-3.79119">
        <ele>75.723709106445</ele>
      </trkpt>
      <trkpt lat="48.69738" lon="-3.79135">
        <ele>75.741470336914</ele>
      </trkpt>
      <trkpt lat="48.69709" lon="-3.79145">
        <ele>76.494903564453</ele>
      </trkpt>
      <trkpt lat="48.69672" lon="-3.79159">
        <ele>77.358444213867</ele>
      </trkpt>
      <trkpt lat="48.69634" lon="-3.79174">
        <ele>77.915908813477</ele>
      </trkpt>
      <trkpt lat="48.69635" lon="-3.79182">
        <ele>78.503684997559</ele>
      </trkpt>
      <trkpt lat="48.69636" lon="-3.79185">
        <ele>78.638877868652</ele>
      </trkpt>
      <trkpt lat="48.69637" lon="-3.79195">
        <ele>79.13648223877</ele>
      </trkpt>
      <trkpt lat="48.69637" lon="-3.79204">
        <ele>79.457656860352</ele>
      </trkpt>
      <trkpt lat="48.69638" lon="-3.79215">
        <ele>79.779815673828</ele>
      </trkpt>
      <trkpt lat="48.69638" lon="-3.79221">
        <ele>80.162811279297</ele>
      </trkpt>
      <trkpt lat="48.69638" lon="-3.79225">
        <ele>80.473320007324</ele>
      </trkpt>
      <trkpt lat="48.69637" lon="-3.79235">
        <ele>81.146057128906</ele>
      </trkpt>
      <trkpt lat="48.69611" lon="-3.79245">
        <ele>80.560508728027</ele>
      </trkpt>
      <trkpt lat="48.69601" lon="-3.79249">
        <ele>80.142677307129</ele>
      </trkpt>
      <trkpt lat="48.696" lon="-3.79249">
        <ele>80.122528076172</ele>
      </trkpt>
      <trkpt lat="48.69592" lon="-3.79253">
        <ele>80.136291503906</ele>
      </trkpt>
      <trkpt lat="48.69581" lon="-3.79259">
        <ele>80.329963684082</ele>
      </trkpt>
      <trkpt lat="48.69577" lon="-3.79262">
        <ele>80.615188598633</ele>
      </trkpt>
      <trkpt lat="48.69574" lon="-3.7924">
        <ele>80.07218170166</ele>
      </trkpt>
      <trkpt lat="48.69571" lon="-3.79224">
        <ele>79.397514343262</ele>
      </trkpt>
      <trkpt lat="48.6957" lon="-3.7921">
        <ele>79.138557434082</ele>
      </trkpt>
      <trkpt lat="48.6957" lon="-3.79206">
        <ele>79.013374328613</ele>
      </trkpt>
    </trkseg>
  </trk>
</gpx>